<?xml version="1.0" encoding="UTF-8" standalone="no" ?>
<gpx xmlns="http://www.topografix.com/GPX/1/1" xmlns:xsi="http://www.w3.org/2001/XMLSchema-instance" xsi:schemaLocation="http://www.topografix.com/GPX/1/1 http://www.topografix.com/GPX/1/1/gpx.xsd" version="1.1" creator="VisuGPX - https://www.visugpx.com">
  <metadata>
    <name>Ornans - Les montagnes russes</name>
    <desc><![CDATA[Ornans - Castel St-Denis - Cléron - Malbrans - Foucheran - Ornans]]></desc>
  </metadata>
  <trk>
    <name><![CDATA[Les montagnes russes - 29064 - UtagawaVTT.com]]></name>
    <trkseg>
      <trkpt lat="47.12064" lon="6.08111">
        <ele>547</ele>
        <time>2021-03-06T19:58:21Z</time>
      </trkpt>
      <trkpt lat="47.12094" lon="6.08141">
        <ele>550</ele>
        <time>2021-03-06T19:58:29Z</time>
      </trkpt>
      <trkpt lat="47.12122" lon="6.08196">
        <ele>553</ele>
        <time>2021-03-06T19:58:40Z</time>
      </trkpt>
      <trkpt lat="47.12166" lon="6.08262">
        <ele>560</ele>
        <time>2021-03-06T19:58:55Z</time>
      </trkpt>
      <trkpt lat="47.12181" lon="6.08292">
        <ele>562</ele>
        <time>2021-03-06T19:59:01Z</time>
      </trkpt>
      <trkpt lat="47.12196" lon="6.08309">
        <ele>564</ele>
        <time>2021-03-06T19:59:05Z</time>
      </trkpt>
      <trkpt lat="47.12257" lon="6.08344">
        <ele>574</ele>
        <time>2021-03-06T19:59:21Z</time>
      </trkpt>
      <trkpt lat="47.12268" lon="6.08348">
        <ele>576</ele>
        <time>2021-03-06T19:59:23Z</time>
      </trkpt>
      <trkpt lat="47.12301" lon="6.08353">
        <ele>580</ele>
        <time>2021-03-06T19:59:31Z</time>
      </trkpt>
      <trkpt lat="47.12346" lon="6.08368">
        <ele>585</ele>
        <time>2021-03-06T19:59:42Z</time>
      </trkpt>
      <trkpt lat="47.12365" lon="6.08371">
        <ele>586</ele>
        <time>2021-03-06T19:59:46Z</time>
      </trkpt>
      <trkpt lat="47.124" lon="6.08368">
        <ele>588</ele>
        <time>2021-03-06T19:59:55Z</time>
      </trkpt>
      <trkpt lat="47.12428" lon="6.08353">
        <ele>590</ele>
        <time>2021-03-06T20:00:01Z</time>
      </trkpt>
      <trkpt lat="47.12433" lon="6.08348">
        <ele>591</ele>
        <time>2021-03-06T20:00:03Z</time>
      </trkpt>
      <trkpt lat="47.12454" lon="6.08307">
        <ele>593</ele>
        <time>2021-03-06T20:00:11Z</time>
      </trkpt>
      <trkpt lat="47.1252" lon="6.08156">
        <ele>594</ele>
        <time>2021-03-06T20:00:40Z</time>
      </trkpt>
      <trkpt lat="47.12539" lon="6.08137">
        <ele>593</ele>
        <time>2021-03-06T20:00:45Z</time>
      </trkpt>
      <trkpt lat="47.12564" lon="6.08128">
        <ele>593</ele>
        <time>2021-03-06T20:00:51Z</time>
      </trkpt>
      <trkpt lat="47.12573" lon="6.08131">
        <ele>594</ele>
        <time>2021-03-06T20:00:53Z</time>
      </trkpt>
      <trkpt lat="47.12588" lon="6.08151">
        <ele>595</ele>
        <time>2021-03-06T20:00:58Z</time>
      </trkpt>
      <trkpt lat="47.1261" lon="6.08202">
        <ele>595</ele>
        <time>2021-03-06T20:01:07Z</time>
      </trkpt>
      <trkpt lat="47.12639" lon="6.08248">
        <ele>594</ele>
        <time>2021-03-06T20:01:17Z</time>
      </trkpt>
      <trkpt lat="47.12647" lon="6.08265">
        <ele>594</ele>
        <time>2021-03-06T20:01:21Z</time>
      </trkpt>
      <trkpt lat="47.1265" lon="6.08278">
        <ele>595</ele>
        <time>2021-03-06T20:01:23Z</time>
      </trkpt>
      <trkpt lat="47.12659" lon="6.08292">
        <ele>595</ele>
        <time>2021-03-06T20:01:26Z</time>
      </trkpt>
      <trkpt lat="47.12691" lon="6.08359">
        <ele>595</ele>
        <time>2021-03-06T20:01:39Z</time>
      </trkpt>
      <trkpt lat="47.12718" lon="6.08405">
        <ele>593</ele>
        <time>2021-03-06T20:01:49Z</time>
      </trkpt>
      <trkpt lat="47.12738" lon="6.0845">
        <ele>592</ele>
        <time>2021-03-06T20:01:57Z</time>
      </trkpt>
      <trkpt lat="47.12755" lon="6.08501">
        <ele>594</ele>
        <time>2021-03-06T20:02:06Z</time>
      </trkpt>
      <trkpt lat="47.12757" lon="6.08521">
        <ele>595</ele>
        <time>2021-03-06T20:02:09Z</time>
      </trkpt>
      <trkpt lat="47.12773" lon="6.08555">
        <ele>595</ele>
        <time>2021-03-06T20:02:16Z</time>
      </trkpt>
      <trkpt lat="47.12784" lon="6.08566">
        <ele>595</ele>
        <time>2021-03-06T20:02:19Z</time>
      </trkpt>
      <trkpt lat="47.12805" lon="6.08596">
        <ele>596</ele>
        <time>2021-03-06T20:02:26Z</time>
      </trkpt>
      <trkpt lat="47.12816" lon="6.08602">
        <ele>596</ele>
        <time>2021-03-06T20:02:29Z</time>
      </trkpt>
      <trkpt lat="47.12833" lon="6.08606">
        <ele>595</ele>
        <time>2021-03-06T20:02:33Z</time>
      </trkpt>
      <trkpt lat="47.12837" lon="6.0861">
        <ele>595</ele>
        <time>2021-03-06T20:02:34Z</time>
      </trkpt>
      <trkpt lat="47.1286" lon="6.08655">
        <ele>597</ele>
        <time>2021-03-06T20:02:43Z</time>
      </trkpt>
      <trkpt lat="47.12862" lon="6.08672">
        <ele>598</ele>
        <time>2021-03-06T20:02:45Z</time>
      </trkpt>
      <trkpt lat="47.1286" lon="6.08683">
        <ele>598</ele>
        <time>2021-03-06T20:02:47Z</time>
      </trkpt>
      <trkpt lat="47.12865" lon="6.08697">
        <ele>598</ele>
        <time>2021-03-06T20:02:50Z</time>
      </trkpt>
      <trkpt lat="47.12895" lon="6.08727">
        <ele>596</ele>
        <time>2021-03-06T20:02:58Z</time>
      </trkpt>
      <trkpt lat="47.12942" lon="6.08764">
        <ele>593</ele>
        <time>2021-03-06T20:03:11Z</time>
      </trkpt>
      <trkpt lat="47.12952" lon="6.08781">
        <ele>593</ele>
        <time>2021-03-06T20:03:14Z</time>
      </trkpt>
      <trkpt lat="47.12969" lon="6.08828">
        <ele>595</ele>
        <time>2021-03-06T20:03:23Z</time>
      </trkpt>
      <trkpt lat="47.13002" lon="6.08942">
        <ele>597</ele>
        <time>2021-03-06T20:03:42Z</time>
      </trkpt>
      <trkpt lat="47.13005" lon="6.08961">
        <ele>596</ele>
        <time>2021-03-06T20:03:46Z</time>
      </trkpt>
      <trkpt lat="47.13004" lon="6.08971">
        <ele>596</ele>
        <time>2021-03-06T20:03:47Z</time>
      </trkpt>
      <trkpt lat="47.13011" lon="6.08989">
        <ele>595</ele>
        <time>2021-03-06T20:03:50Z</time>
      </trkpt>
      <trkpt lat="47.13018" lon="6.09043">
        <ele>591</ele>
        <time>2021-03-06T20:03:59Z</time>
      </trkpt>
      <trkpt lat="47.13016" lon="6.09051">
        <ele>590</ele>
        <time>2021-03-06T20:04:01Z</time>
      </trkpt>
      <trkpt lat="47.13002" lon="6.09072">
        <ele>590</ele>
        <time>2021-03-06T20:04:05Z</time>
      </trkpt>
      <trkpt lat="47.13002" lon="6.09075">
        <ele>590</ele>
        <time>2021-03-06T20:04:06Z</time>
      </trkpt>
      <trkpt lat="47.13009" lon="6.09077">
        <ele>589</ele>
        <time>2021-03-06T20:04:07Z</time>
      </trkpt>
      <trkpt lat="47.13036" lon="6.09095">
        <ele>586</ele>
        <time>2021-03-06T20:04:14Z</time>
      </trkpt>
      <trkpt lat="47.1307" lon="6.09111">
        <ele>585</ele>
        <time>2021-03-06T20:04:23Z</time>
      </trkpt>
      <trkpt lat="47.13094" lon="6.09112">
        <ele>584</ele>
        <time>2021-03-06T20:04:28Z</time>
      </trkpt>
      <trkpt lat="47.13138" lon="6.09106">
        <ele>583</ele>
        <time>2021-03-06T20:04:39Z</time>
      </trkpt>
      <trkpt lat="47.13196" lon="6.09105">
        <ele>583</ele>
        <time>2021-03-06T20:04:52Z</time>
      </trkpt>
      <trkpt lat="47.13223" lon="6.09111">
        <ele>582</ele>
        <time>2021-03-06T20:04:58Z</time>
      </trkpt>
      <trkpt lat="47.13232" lon="6.09117">
        <ele>582</ele>
        <time>2021-03-06T20:05:01Z</time>
      </trkpt>
      <trkpt lat="47.13233" lon="6.09123">
        <ele>581</ele>
        <time>2021-03-06T20:05:02Z</time>
      </trkpt>
      <trkpt lat="47.13218" lon="6.09119">
        <ele>582</ele>
        <time>2021-03-06T20:05:05Z</time>
      </trkpt>
      <trkpt lat="47.13201" lon="6.09119">
        <ele>582</ele>
        <time>2021-03-06T20:05:09Z</time>
      </trkpt>
      <trkpt lat="47.1319" lon="6.09122">
        <ele>583</ele>
        <time>2021-03-06T20:05:12Z</time>
      </trkpt>
      <trkpt lat="47.13154" lon="6.09143">
        <ele>585</ele>
        <time>2021-03-06T20:05:21Z</time>
      </trkpt>
      <trkpt lat="47.13125" lon="6.09153">
        <ele>585</ele>
        <time>2021-03-06T20:05:28Z</time>
      </trkpt>
      <trkpt lat="47.13111" lon="6.09167">
        <ele>585</ele>
        <time>2021-03-06T20:05:32Z</time>
      </trkpt>
      <trkpt lat="47.13104" lon="6.09178">
        <ele>585</ele>
        <time>2021-03-06T20:05:34Z</time>
      </trkpt>
      <trkpt lat="47.13099" lon="6.09201">
        <ele>586</ele>
        <time>2021-03-06T20:05:38Z</time>
      </trkpt>
      <trkpt lat="47.13092" lon="6.09271">
        <ele>588</ele>
        <time>2021-03-06T20:05:49Z</time>
      </trkpt>
      <trkpt lat="47.13093" lon="6.09296">
        <ele>589</ele>
        <time>2021-03-06T20:05:53Z</time>
      </trkpt>
      <trkpt lat="47.13089" lon="6.09345">
        <ele>590</ele>
        <time>2021-03-06T20:06:01Z</time>
      </trkpt>
      <trkpt lat="47.13086" lon="6.09477">
        <ele>601</ele>
        <time>2021-03-06T20:06:22Z</time>
      </trkpt>
      <trkpt lat="47.13089" lon="6.09486">
        <ele>601</ele>
        <time>2021-03-06T20:06:24Z</time>
      </trkpt>
      <trkpt lat="47.131" lon="6.095">
        <ele>603</ele>
        <time>2021-03-06T20:06:27Z</time>
      </trkpt>
      <trkpt lat="47.13114" lon="6.09525">
        <ele>604</ele>
        <time>2021-03-06T20:06:32Z</time>
      </trkpt>
      <trkpt lat="47.13132" lon="6.09536">
        <ele>606</ele>
        <time>2021-03-06T20:06:37Z</time>
      </trkpt>
      <trkpt lat="47.13138" lon="6.09547">
        <ele>606</ele>
        <time>2021-03-06T20:06:39Z</time>
      </trkpt>
      <trkpt lat="47.13141" lon="6.0956">
        <ele>606</ele>
        <time>2021-03-06T20:06:41Z</time>
      </trkpt>
      <trkpt lat="47.1315" lon="6.09575">
        <ele>608</ele>
        <time>2021-03-06T20:06:44Z</time>
      </trkpt>
      <trkpt lat="47.1316" lon="6.09582">
        <ele>609</ele>
        <time>2021-03-06T20:06:47Z</time>
      </trkpt>
      <trkpt lat="47.13176" lon="6.09583">
        <ele>610</ele>
        <time>2021-03-06T20:06:51Z</time>
      </trkpt>
      <trkpt lat="47.13182" lon="6.09589">
        <ele>609</ele>
        <time>2021-03-06T20:06:52Z</time>
      </trkpt>
      <trkpt lat="47.13186" lon="6.09588">
        <ele>609</ele>
        <time>2021-03-06T20:06:53Z</time>
      </trkpt>
      <trkpt lat="47.13194" lon="6.09591">
        <ele>609</ele>
        <time>2021-03-06T20:06:55Z</time>
      </trkpt>
      <trkpt lat="47.13202" lon="6.09631">
        <ele>607</ele>
        <time>2021-03-06T20:07:02Z</time>
      </trkpt>
      <trkpt lat="47.13203" lon="6.09686">
        <ele>606</ele>
        <time>2021-03-06T20:07:11Z</time>
      </trkpt>
      <trkpt lat="47.13207" lon="6.09711">
        <ele>606</ele>
        <time>2021-03-06T20:07:15Z</time>
      </trkpt>
      <trkpt lat="47.13208" lon="6.09737">
        <ele>606</ele>
        <time>2021-03-06T20:07:19Z</time>
      </trkpt>
      <trkpt lat="47.13219" lon="6.09772">
        <ele>605</ele>
        <time>2021-03-06T20:07:25Z</time>
      </trkpt>
      <trkpt lat="47.13229" lon="6.0978">
        <ele>606</ele>
        <time>2021-03-06T20:07:28Z</time>
      </trkpt>
      <trkpt lat="47.13248" lon="6.09803">
        <ele>607</ele>
        <time>2021-03-06T20:07:33Z</time>
      </trkpt>
      <trkpt lat="47.13262" lon="6.09825">
        <ele>608</ele>
        <time>2021-03-06T20:07:38Z</time>
      </trkpt>
      <trkpt lat="47.13276" lon="6.0984">
        <ele>608</ele>
        <time>2021-03-06T20:07:42Z</time>
      </trkpt>
      <trkpt lat="47.13287" lon="6.09864">
        <ele>607</ele>
        <time>2021-03-06T20:07:47Z</time>
      </trkpt>
      <trkpt lat="47.13299" lon="6.09864">
        <ele>609</ele>
        <time>2021-03-06T20:07:50Z</time>
      </trkpt>
      <trkpt lat="47.13327" lon="6.09848">
        <ele>614</ele>
        <time>2021-03-06T20:07:57Z</time>
      </trkpt>
      <trkpt lat="47.1333" lon="6.09844">
        <ele>615</ele>
        <time>2021-03-06T20:07:58Z</time>
      </trkpt>
      <trkpt lat="47.13326" lon="6.09845">
        <ele>614</ele>
        <time>2021-03-06T20:07:59Z</time>
      </trkpt>
      <trkpt lat="47.13328" lon="6.09856">
        <ele>614</ele>
        <time>2021-03-06T20:08:00Z</time>
      </trkpt>
      <trkpt lat="47.13345" lon="6.09867">
        <ele>615</ele>
        <time>2021-03-06T20:08:05Z</time>
      </trkpt>
      <trkpt lat="47.13349" lon="6.09873">
        <ele>615</ele>
        <time>2021-03-06T20:08:06Z</time>
      </trkpt>
      <trkpt lat="47.13354" lon="6.09873">
        <ele>616</ele>
        <time>2021-03-06T20:08:07Z</time>
      </trkpt>
      <trkpt lat="47.13374" lon="6.09885">
        <ele>617</ele>
        <time>2021-03-06T20:08:12Z</time>
      </trkpt>
      <trkpt lat="47.13385" lon="6.09888">
        <ele>618</ele>
        <time>2021-03-06T20:08:15Z</time>
      </trkpt>
      <trkpt lat="47.13389" lon="6.09895">
        <ele>619</ele>
        <time>2021-03-06T20:08:16Z</time>
      </trkpt>
      <trkpt lat="47.134" lon="6.09903">
        <ele>620</ele>
        <time>2021-03-06T20:08:19Z</time>
      </trkpt>
      <trkpt lat="47.13408" lon="6.09916">
        <ele>621</ele>
        <time>2021-03-06T20:08:22Z</time>
      </trkpt>
      <trkpt lat="47.13408" lon="6.0992">
        <ele>620</ele>
        <time>2021-03-06T20:08:23Z</time>
      </trkpt>
      <trkpt lat="47.13415" lon="6.09924">
        <ele>621</ele>
        <time>2021-03-06T20:08:24Z</time>
      </trkpt>
      <trkpt lat="47.13448" lon="6.09932">
        <ele>621</ele>
        <time>2021-03-06T20:08:32Z</time>
      </trkpt>
      <trkpt lat="47.13478" lon="6.09928">
        <ele>623</ele>
        <time>2021-03-06T20:08:39Z</time>
      </trkpt>
      <trkpt lat="47.13502" lon="6.09937">
        <ele>623</ele>
        <time>2021-03-06T20:08:45Z</time>
      </trkpt>
      <trkpt lat="47.13507" lon="6.09935">
        <ele>623</ele>
        <time>2021-03-06T20:08:46Z</time>
      </trkpt>
      <trkpt lat="47.1355" lon="6.09951">
        <ele>617</ele>
        <time>2021-03-06T20:08:57Z</time>
      </trkpt>
      <trkpt lat="47.1358" lon="6.09981">
        <ele>615</ele>
        <time>2021-03-06T20:09:05Z</time>
      </trkpt>
      <trkpt lat="47.13593" lon="6.10003">
        <ele>612</ele>
        <time>2021-03-06T20:09:10Z</time>
      </trkpt>
      <trkpt lat="47.13603" lon="6.10011">
        <ele>610</ele>
        <time>2021-03-06T20:09:12Z</time>
      </trkpt>
      <trkpt lat="47.13615" lon="6.10032">
        <ele>608</ele>
        <time>2021-03-06T20:09:17Z</time>
      </trkpt>
      <trkpt lat="47.13623" lon="6.10041">
        <ele>607</ele>
        <time>2021-03-06T20:09:19Z</time>
      </trkpt>
      <trkpt lat="47.13625" lon="6.10052">
        <ele>606</ele>
        <time>2021-03-06T20:09:21Z</time>
      </trkpt>
      <trkpt lat="47.13642" lon="6.10083">
        <ele>606</ele>
        <time>2021-03-06T20:09:27Z</time>
      </trkpt>
      <trkpt lat="47.13659" lon="6.10121">
        <ele>607</ele>
        <time>2021-03-06T20:09:34Z</time>
      </trkpt>
      <trkpt lat="47.13681" lon="6.10155">
        <ele>607</ele>
        <time>2021-03-06T20:09:42Z</time>
      </trkpt>
      <trkpt lat="47.13711" lon="6.10223">
        <ele>607</ele>
        <time>2021-03-06T20:09:55Z</time>
      </trkpt>
      <trkpt lat="47.13718" lon="6.10255">
        <ele>607</ele>
        <time>2021-03-06T20:10:00Z</time>
      </trkpt>
      <trkpt lat="47.13732" lon="6.10284">
        <ele>608</ele>
        <time>2021-03-06T20:10:06Z</time>
      </trkpt>
      <trkpt lat="47.13734" lon="6.10296">
        <ele>607</ele>
        <time>2021-03-06T20:10:08Z</time>
      </trkpt>
      <trkpt lat="47.13748" lon="6.10331">
        <ele>609</ele>
        <time>2021-03-06T20:10:14Z</time>
      </trkpt>
      <trkpt lat="47.13754" lon="6.10357">
        <ele>608</ele>
        <time>2021-03-06T20:10:19Z</time>
      </trkpt>
      <trkpt lat="47.13776" lon="6.10405">
        <ele>607</ele>
        <time>2021-03-06T20:10:28Z</time>
      </trkpt>
      <trkpt lat="47.13777" lon="6.10415">
        <ele>607</ele>
        <time>2021-03-06T20:10:29Z</time>
      </trkpt>
      <trkpt lat="47.13788" lon="6.10434">
        <ele>606</ele>
        <time>2021-03-06T20:10:33Z</time>
      </trkpt>
      <trkpt lat="47.13802" lon="6.10427">
        <ele>607</ele>
        <time>2021-03-06T20:10:37Z</time>
      </trkpt>
      <trkpt lat="47.13806" lon="6.10422">
        <ele>608</ele>
        <time>2021-03-06T20:10:38Z</time>
      </trkpt>
      <trkpt lat="47.13833" lon="6.10404">
        <ele>610</ele>
        <time>2021-03-06T20:10:45Z</time>
      </trkpt>
      <trkpt lat="47.13835" lon="6.10405">
        <ele>609</ele>
        <time>2021-03-06T20:10:45Z</time>
      </trkpt>
      <trkpt lat="47.13841" lon="6.10425">
        <ele>608</ele>
        <time>2021-03-06T20:10:49Z</time>
      </trkpt>
      <trkpt lat="47.13856" lon="6.10446">
        <ele>605</ele>
        <time>2021-03-06T20:10:54Z</time>
      </trkpt>
      <trkpt lat="47.13874" lon="6.10457">
        <ele>602</ele>
        <time>2021-03-06T20:10:58Z</time>
      </trkpt>
      <trkpt lat="47.13876" lon="6.10462">
        <ele>601</ele>
        <time>2021-03-06T20:10:59Z</time>
      </trkpt>
      <trkpt lat="47.13875" lon="6.1048">
        <ele>601</ele>
        <time>2021-03-06T20:11:02Z</time>
      </trkpt>
      <trkpt lat="47.13881" lon="6.1051">
        <ele>599</ele>
        <time>2021-03-06T20:11:07Z</time>
      </trkpt>
      <trkpt lat="47.1389" lon="6.10534">
        <ele>597</ele>
        <time>2021-03-06T20:11:11Z</time>
      </trkpt>
      <trkpt lat="47.13905" lon="6.10598">
        <ele>594</ele>
        <time>2021-03-06T20:11:22Z</time>
      </trkpt>
      <trkpt lat="47.13952" lon="6.10709">
        <ele>588</ele>
        <time>2021-03-06T20:11:43Z</time>
      </trkpt>
      <trkpt lat="47.13967" lon="6.10732">
        <ele>585</ele>
        <time>2021-03-06T20:11:48Z</time>
      </trkpt>
      <trkpt lat="47.14019" lon="6.10837">
        <ele>580</ele>
        <time>2021-03-06T20:12:09Z</time>
      </trkpt>
      <trkpt lat="47.14036" lon="6.10881">
        <ele>578</ele>
        <time>2021-03-06T20:12:17Z</time>
      </trkpt>
      <trkpt lat="47.14044" lon="6.10896">
        <ele>577</ele>
        <time>2021-03-06T20:12:20Z</time>
      </trkpt>
      <trkpt lat="47.14069" lon="6.10917">
        <ele>574</ele>
        <time>2021-03-06T20:12:26Z</time>
      </trkpt>
      <trkpt lat="47.14106" lon="6.10926">
        <ele>567</ele>
        <time>2021-03-06T20:12:35Z</time>
      </trkpt>
      <trkpt lat="47.14109" lon="6.1093">
        <ele>566</ele>
        <time>2021-03-06T20:12:36Z</time>
      </trkpt>
      <trkpt lat="47.14108" lon="6.10938">
        <ele>565</ele>
        <time>2021-03-06T20:12:37Z</time>
      </trkpt>
      <trkpt lat="47.14091" lon="6.10977">
        <ele>563</ele>
        <time>2021-03-06T20:12:45Z</time>
      </trkpt>
      <trkpt lat="47.14074" lon="6.11004">
        <ele>562</ele>
        <time>2021-03-06T20:12:51Z</time>
      </trkpt>
      <trkpt lat="47.14052" lon="6.11029">
        <ele>559</ele>
        <time>2021-03-06T20:12:57Z</time>
      </trkpt>
      <trkpt lat="47.14021" lon="6.11049">
        <ele>557</ele>
        <time>2021-03-06T20:13:05Z</time>
      </trkpt>
      <trkpt lat="47.13979" lon="6.11107">
        <ele>550</ele>
        <time>2021-03-06T20:13:19Z</time>
      </trkpt>
      <trkpt lat="47.13985" lon="6.11122">
        <ele>549</ele>
        <time>2021-03-06T20:13:21Z</time>
      </trkpt>
      <trkpt lat="47.14" lon="6.11132">
        <ele>548</ele>
        <time>2021-03-06T20:13:25Z</time>
      </trkpt>
      <trkpt lat="47.14034" lon="6.11177">
        <ele>542</ele>
        <time>2021-03-06T20:13:36Z</time>
      </trkpt>
      <trkpt lat="47.14047" lon="6.11187">
        <ele>541</ele>
        <time>2021-03-06T20:13:39Z</time>
      </trkpt>
      <trkpt lat="47.14074" lon="6.11232">
        <ele>537</ele>
        <time>2021-03-06T20:13:49Z</time>
      </trkpt>
      <trkpt lat="47.14096" lon="6.11293">
        <ele>534</ele>
        <time>2021-03-06T20:14:00Z</time>
      </trkpt>
      <trkpt lat="47.1412" lon="6.11334">
        <ele>533</ele>
        <time>2021-03-06T20:14:08Z</time>
      </trkpt>
      <trkpt lat="47.1412" lon="6.11343">
        <ele>533</ele>
        <time>2021-03-06T20:14:10Z</time>
      </trkpt>
      <trkpt lat="47.14113" lon="6.11355">
        <ele>533</ele>
        <time>2021-03-06T20:14:12Z</time>
      </trkpt>
      <trkpt lat="47.14115" lon="6.11375">
        <ele>533</ele>
        <time>2021-03-06T20:14:15Z</time>
      </trkpt>
      <trkpt lat="47.14124" lon="6.1139">
        <ele>533</ele>
        <time>2021-03-06T20:14:19Z</time>
      </trkpt>
      <trkpt lat="47.14181" lon="6.11461">
        <ele>534</ele>
        <time>2021-03-06T20:14:36Z</time>
      </trkpt>
      <trkpt lat="47.14188" lon="6.11477">
        <ele>534</ele>
        <time>2021-03-06T20:14:39Z</time>
      </trkpt>
      <trkpt lat="47.14193" lon="6.11505">
        <ele>536</ele>
        <time>2021-03-06T20:14:44Z</time>
      </trkpt>
      <trkpt lat="47.14199" lon="6.11521">
        <ele>537</ele>
        <time>2021-03-06T20:14:47Z</time>
      </trkpt>
      <trkpt lat="47.14242" lon="6.11611">
        <ele>542</ele>
        <time>2021-03-06T20:15:04Z</time>
      </trkpt>
      <trkpt lat="47.1427" lon="6.11659">
        <ele>544</ele>
        <time>2021-03-06T20:15:14Z</time>
      </trkpt>
      <trkpt lat="47.14314" lon="6.11724">
        <ele>541</ele>
        <time>2021-03-06T20:15:29Z</time>
      </trkpt>
      <trkpt lat="47.14378" lon="6.11791">
        <ele>543</ele>
        <time>2021-03-06T20:15:47Z</time>
      </trkpt>
      <trkpt lat="47.14396" lon="6.11806">
        <ele>544</ele>
        <time>2021-03-06T20:15:52Z</time>
      </trkpt>
      <trkpt lat="47.1445" lon="6.11861">
        <ele>548</ele>
        <time>2021-03-06T20:16:07Z</time>
      </trkpt>
      <trkpt lat="47.14537" lon="6.11944">
        <ele>553</ele>
        <time>2021-03-06T20:16:31Z</time>
      </trkpt>
      <trkpt lat="47.14565" lon="6.11968">
        <ele>554</ele>
        <time>2021-03-06T20:16:39Z</time>
      </trkpt>
      <trkpt lat="47.14586" lon="6.1198">
        <ele>555</ele>
        <time>2021-03-06T20:16:44Z</time>
      </trkpt>
      <trkpt lat="47.1468" lon="6.12048">
        <ele>559</ele>
        <time>2021-03-06T20:17:09Z</time>
      </trkpt>
      <trkpt lat="47.1471" lon="6.12073">
        <ele>561</ele>
        <time>2021-03-06T20:17:17Z</time>
      </trkpt>
      <trkpt lat="47.14744" lon="6.12109">
        <ele>565</ele>
        <time>2021-03-06T20:17:27Z</time>
      </trkpt>
      <trkpt lat="47.14774" lon="6.12152">
        <ele>567</ele>
        <time>2021-03-06T20:17:36Z</time>
      </trkpt>
      <trkpt lat="47.14849" lon="6.12289">
        <ele>566</ele>
        <time>2021-03-06T20:18:04Z</time>
      </trkpt>
      <trkpt lat="47.14871" lon="6.12324">
        <ele>565</ele>
        <time>2021-03-06T20:18:12Z</time>
      </trkpt>
      <trkpt lat="47.14893" lon="6.12349">
        <ele>565</ele>
        <time>2021-03-06T20:18:18Z</time>
      </trkpt>
      <trkpt lat="47.14921" lon="6.12368">
        <ele>565</ele>
        <time>2021-03-06T20:18:26Z</time>
      </trkpt>
      <trkpt lat="47.14988" lon="6.12402">
        <ele>564</ele>
        <time>2021-03-06T20:18:42Z</time>
      </trkpt>
      <trkpt lat="47.15004" lon="6.1242">
        <ele>563</ele>
        <time>2021-03-06T20:18:47Z</time>
      </trkpt>
      <trkpt lat="47.15013" lon="6.12434">
        <ele>563</ele>
        <time>2021-03-06T20:18:50Z</time>
      </trkpt>
      <trkpt lat="47.15047" lon="6.12505">
        <ele>560</ele>
        <time>2021-03-06T20:19:04Z</time>
      </trkpt>
      <trkpt lat="47.15067" lon="6.12558">
        <ele>559</ele>
        <time>2021-03-06T20:19:13Z</time>
      </trkpt>
      <trkpt lat="47.1508" lon="6.12581">
        <ele>559</ele>
        <time>2021-03-06T20:19:18Z</time>
      </trkpt>
      <trkpt lat="47.15131" lon="6.12653">
        <ele>559</ele>
        <time>2021-03-06T20:19:35Z</time>
      </trkpt>
      <trkpt lat="47.15171" lon="6.12721">
        <ele>556</ele>
        <time>2021-03-06T20:19:49Z</time>
      </trkpt>
      <trkpt lat="47.15177" lon="6.12737">
        <ele>555</ele>
        <time>2021-03-06T20:19:52Z</time>
      </trkpt>
      <trkpt lat="47.15179" lon="6.12768">
        <ele>553</ele>
        <time>2021-03-06T20:19:57Z</time>
      </trkpt>
      <trkpt lat="47.15168" lon="6.12833">
        <ele>549</ele>
        <time>2021-03-06T20:20:07Z</time>
      </trkpt>
      <trkpt lat="47.15167" lon="6.12863">
        <ele>550</ele>
        <time>2021-03-06T20:20:12Z</time>
      </trkpt>
      <trkpt lat="47.15177" lon="6.12916">
        <ele>552</ele>
        <time>2021-03-06T20:20:21Z</time>
      </trkpt>
      <trkpt lat="47.15189" lon="6.12945">
        <ele>552</ele>
        <time>2021-03-06T20:20:26Z</time>
      </trkpt>
      <trkpt lat="47.15226" lon="6.13014">
        <ele>553</ele>
        <time>2021-03-06T20:20:40Z</time>
      </trkpt>
      <trkpt lat="47.1532" lon="6.13174">
        <ele>555</ele>
        <time>2021-03-06T20:21:14Z</time>
      </trkpt>
      <trkpt lat="47.15384" lon="6.13266">
        <ele>557</ele>
        <time>2021-03-06T20:21:35Z</time>
      </trkpt>
      <trkpt lat="47.15533" lon="6.13469">
        <ele>559</ele>
        <time>2021-03-06T20:22:22Z</time>
      </trkpt>
      <trkpt lat="47.15541" lon="6.13483">
        <ele>560</ele>
        <time>2021-03-06T20:22:25Z</time>
      </trkpt>
      <trkpt lat="47.15541" lon="6.13494">
        <ele>560</ele>
        <time>2021-03-06T20:22:27Z</time>
      </trkpt>
      <trkpt lat="47.15533" lon="6.13505">
        <ele>560</ele>
        <time>2021-03-06T20:22:29Z</time>
      </trkpt>
      <trkpt lat="47.15522" lon="6.13507">
        <ele>560</ele>
        <time>2021-03-06T20:22:32Z</time>
      </trkpt>
      <trkpt lat="47.15457" lon="6.13473">
        <ele>558</ele>
        <time>2021-03-06T20:22:48Z</time>
      </trkpt>
      <trkpt lat="47.15414" lon="6.13437">
        <ele>558</ele>
        <time>2021-03-06T20:23:00Z</time>
      </trkpt>
      <trkpt lat="47.15354" lon="6.13397">
        <ele>553</ele>
        <time>2021-03-06T20:23:15Z</time>
      </trkpt>
      <trkpt lat="47.15321" lon="6.13384">
        <ele>551</ele>
        <time>2021-03-06T20:23:23Z</time>
      </trkpt>
      <trkpt lat="47.15293" lon="6.13369">
        <ele>550</ele>
        <time>2021-03-06T20:23:30Z</time>
      </trkpt>
      <trkpt lat="47.15233" lon="6.13347">
        <ele>549</ele>
        <time>2021-03-06T20:23:44Z</time>
      </trkpt>
      <trkpt lat="47.15174" lon="6.13335">
        <ele>547</ele>
        <time>2021-03-06T20:23:58Z</time>
      </trkpt>
      <trkpt lat="47.15157" lon="6.13338">
        <ele>546</ele>
        <time>2021-03-06T20:24:02Z</time>
      </trkpt>
      <trkpt lat="47.15136" lon="6.13352">
        <ele>545</ele>
        <time>2021-03-06T20:24:08Z</time>
      </trkpt>
      <trkpt lat="47.15111" lon="6.13386">
        <ele>544</ele>
        <time>2021-03-06T20:24:16Z</time>
      </trkpt>
      <trkpt lat="47.15038" lon="6.13444">
        <ele>540</ele>
        <time>2021-03-06T20:24:35Z</time>
      </trkpt>
      <trkpt lat="47.14958" lon="6.1349">
        <ele>536</ele>
        <time>2021-03-06T20:24:55Z</time>
      </trkpt>
      <trkpt lat="47.14925" lon="6.13502">
        <ele>534</ele>
        <time>2021-03-06T20:25:03Z</time>
      </trkpt>
      <trkpt lat="47.149" lon="6.13508">
        <ele>533</ele>
        <time>2021-03-06T20:25:09Z</time>
      </trkpt>
      <trkpt lat="47.14837" lon="6.13516">
        <ele>532</ele>
        <time>2021-03-06T20:25:24Z</time>
      </trkpt>
      <trkpt lat="47.14806" lon="6.13515">
        <ele>531</ele>
        <time>2021-03-06T20:25:31Z</time>
      </trkpt>
      <trkpt lat="47.14785" lon="6.13507">
        <ele>531</ele>
        <time>2021-03-06T20:25:36Z</time>
      </trkpt>
      <trkpt lat="47.14727" lon="6.13464">
        <ele>529</ele>
        <time>2021-03-06T20:25:51Z</time>
      </trkpt>
      <trkpt lat="47.14705" lon="6.13457">
        <ele>528</ele>
        <time>2021-03-06T20:25:56Z</time>
      </trkpt>
      <trkpt lat="47.14665" lon="6.13451">
        <ele>526</ele>
        <time>2021-03-06T20:26:06Z</time>
      </trkpt>
      <trkpt lat="47.14641" lon="6.13441">
        <ele>526</ele>
        <time>2021-03-06T20:26:12Z</time>
      </trkpt>
      <trkpt lat="47.14536" lon="6.13367">
        <ele>525</ele>
        <time>2021-03-06T20:26:39Z</time>
      </trkpt>
      <trkpt lat="47.144" lon="6.13307">
        <ele>521</ele>
        <time>2021-03-06T20:27:12Z</time>
      </trkpt>
      <trkpt lat="47.14338" lon="6.13258">
        <ele>520</ele>
        <time>2021-03-06T20:27:28Z</time>
      </trkpt>
      <trkpt lat="47.14328" lon="6.13256">
        <ele>520</ele>
        <time>2021-03-06T20:27:31Z</time>
      </trkpt>
      <trkpt lat="47.14323" lon="6.13259">
        <ele>520</ele>
        <time>2021-03-06T20:27:32Z</time>
      </trkpt>
      <trkpt lat="47.1431" lon="6.13307">
        <ele>520</ele>
        <time>2021-03-06T20:27:40Z</time>
      </trkpt>
      <trkpt lat="47.14299" lon="6.13327">
        <ele>519</ele>
        <time>2021-03-06T20:27:44Z</time>
      </trkpt>
      <trkpt lat="47.14278" lon="6.1335">
        <ele>520</ele>
        <time>2021-03-06T20:27:50Z</time>
      </trkpt>
      <trkpt lat="47.14267" lon="6.1338">
        <ele>519</ele>
        <time>2021-03-06T20:27:56Z</time>
      </trkpt>
      <trkpt lat="47.14259" lon="6.13432">
        <ele>519</ele>
        <time>2021-03-06T20:28:04Z</time>
      </trkpt>
      <trkpt lat="47.14256" lon="6.1348">
        <ele>520</ele>
        <time>2021-03-06T20:28:12Z</time>
      </trkpt>
      <trkpt lat="47.14258" lon="6.135">
        <ele>521</ele>
        <time>2021-03-06T20:28:15Z</time>
      </trkpt>
      <trkpt lat="47.14273" lon="6.13545">
        <ele>524</ele>
        <time>2021-03-06T20:28:23Z</time>
      </trkpt>
      <trkpt lat="47.14274" lon="6.1356">
        <ele>525</ele>
        <time>2021-03-06T20:28:25Z</time>
      </trkpt>
      <trkpt lat="47.14256" lon="6.13587">
        <ele>527</ele>
        <time>2021-03-06T20:28:32Z</time>
      </trkpt>
      <trkpt lat="47.14197" lon="6.13652">
        <ele>525</ele>
        <time>2021-03-06T20:28:49Z</time>
      </trkpt>
      <trkpt lat="47.14177" lon="6.1369">
        <ele>523</ele>
        <time>2021-03-06T20:28:56Z</time>
      </trkpt>
      <trkpt lat="47.14165" lon="6.1373">
        <ele>521</ele>
        <time>2021-03-06T20:29:03Z</time>
      </trkpt>
      <trkpt lat="47.14165" lon="6.13762">
        <ele>519</ele>
        <time>2021-03-06T20:29:08Z</time>
      </trkpt>
      <trkpt lat="47.14169" lon="6.13808">
        <ele>516</ele>
        <time>2021-03-06T20:29:16Z</time>
      </trkpt>
      <trkpt lat="47.14166" lon="6.13828">
        <ele>514</ele>
        <time>2021-03-06T20:29:19Z</time>
      </trkpt>
      <trkpt lat="47.14163" lon="6.13834">
        <ele>514</ele>
        <time>2021-03-06T20:29:20Z</time>
      </trkpt>
      <trkpt lat="47.14135" lon="6.13857">
        <ele>514</ele>
        <time>2021-03-06T20:29:28Z</time>
      </trkpt>
      <trkpt lat="47.14123" lon="6.13873">
        <ele>514</ele>
        <time>2021-03-06T20:29:31Z</time>
      </trkpt>
      <trkpt lat="47.14114" lon="6.13891">
        <ele>514</ele>
        <time>2021-03-06T20:29:35Z</time>
      </trkpt>
      <trkpt lat="47.14047" lon="6.13891">
        <ele>513</ele>
        <time>2021-03-06T20:29:51Z</time>
      </trkpt>
      <trkpt lat="47.14014" lon="6.13883">
        <ele>511</ele>
        <time>2021-03-06T20:29:58Z</time>
      </trkpt>
      <trkpt lat="47.13917" lon="6.13905">
        <ele>504</ele>
        <time>2021-03-06T20:30:21Z</time>
      </trkpt>
      <trkpt lat="47.13896" lon="6.13906">
        <ele>504</ele>
        <time>2021-03-06T20:30:26Z</time>
      </trkpt>
      <trkpt lat="47.13846" lon="6.1388">
        <ele>503</ele>
        <time>2021-03-06T20:30:39Z</time>
      </trkpt>
      <trkpt lat="47.13841" lon="6.13875">
        <ele>503</ele>
        <time>2021-03-06T20:30:40Z</time>
      </trkpt>
      <trkpt lat="47.13825" lon="6.13839">
        <ele>499</ele>
        <time>2021-03-06T20:30:47Z</time>
      </trkpt>
      <trkpt lat="47.13809" lon="6.13816">
        <ele>497</ele>
        <time>2021-03-06T20:30:52Z</time>
      </trkpt>
      <trkpt lat="47.13771" lon="6.13751">
        <ele>493</ele>
        <time>2021-03-06T20:31:06Z</time>
      </trkpt>
      <trkpt lat="47.13757" lon="6.13734">
        <ele>492</ele>
        <time>2021-03-06T20:31:10Z</time>
      </trkpt>
      <trkpt lat="47.13752" lon="6.13731">
        <ele>492</ele>
        <time>2021-03-06T20:31:11Z</time>
      </trkpt>
      <trkpt lat="47.13715" lon="6.13742">
        <ele>477</ele>
        <time>2021-03-06T20:31:20Z</time>
      </trkpt>
      <trkpt lat="47.13703" lon="6.13742">
        <ele>472</ele>
        <time>2021-03-06T20:31:23Z</time>
      </trkpt>
      <trkpt lat="47.13692" lon="6.13732">
        <ele>469</ele>
        <time>2021-03-06T20:31:26Z</time>
      </trkpt>
      <trkpt lat="47.13673" lon="6.13702">
        <ele>464</ele>
        <time>2021-03-06T20:31:32Z</time>
      </trkpt>
      <trkpt lat="47.13653" lon="6.13663">
        <ele>456</ele>
        <time>2021-03-06T20:31:40Z</time>
      </trkpt>
      <trkpt lat="47.13591" lon="6.13424">
        <ele>432</ele>
        <time>2021-03-06T20:32:21Z</time>
      </trkpt>
      <trkpt lat="47.13548" lon="6.13316">
        <ele>430</ele>
        <time>2021-03-06T20:32:41Z</time>
      </trkpt>
      <trkpt lat="47.13465" lon="6.13142">
        <ele>425</ele>
        <time>2021-03-06T20:33:14Z</time>
      </trkpt>
      <trkpt lat="47.13455" lon="6.13111">
        <ele>427</ele>
        <time>2021-03-06T20:33:20Z</time>
      </trkpt>
      <trkpt lat="47.13439" lon="6.13081">
        <ele>425</ele>
        <time>2021-03-06T20:33:26Z</time>
      </trkpt>
      <trkpt lat="47.13417" lon="6.13021">
        <ele>424</ele>
        <time>2021-03-06T20:33:37Z</time>
      </trkpt>
      <trkpt lat="47.13401" lon="6.12986">
        <ele>424</ele>
        <time>2021-03-06T20:33:43Z</time>
      </trkpt>
      <trkpt lat="47.13368" lon="6.12929">
        <ele>423</ele>
        <time>2021-03-06T20:33:55Z</time>
      </trkpt>
      <trkpt lat="47.13344" lon="6.129">
        <ele>420</ele>
        <time>2021-03-06T20:34:03Z</time>
      </trkpt>
      <trkpt lat="47.13319" lon="6.12861">
        <ele>424</ele>
        <time>2021-03-06T20:34:11Z</time>
      </trkpt>
      <trkpt lat="47.13296" lon="6.12837">
        <ele>425</ele>
        <time>2021-03-06T20:34:18Z</time>
      </trkpt>
      <trkpt lat="47.13293" lon="6.12841">
        <ele>424</ele>
        <time>2021-03-06T20:34:19Z</time>
      </trkpt>
      <trkpt lat="47.13298" lon="6.12852">
        <ele>422</ele>
        <time>2021-03-06T20:34:21Z</time>
      </trkpt>
      <trkpt lat="47.13344" lon="6.12925">
        <ele>415</ele>
        <time>2021-03-06T20:34:37Z</time>
      </trkpt>
      <trkpt lat="47.13371" lon="6.12976">
        <ele>416</ele>
        <time>2021-03-06T20:34:47Z</time>
      </trkpt>
      <trkpt lat="47.13375" lon="6.13029">
        <ele>410</ele>
        <time>2021-03-06T20:34:55Z</time>
      </trkpt>
      <trkpt lat="47.13422" lon="6.13189">
        <ele>403</ele>
        <time>2021-03-06T20:35:23Z</time>
      </trkpt>
      <trkpt lat="47.13439" lon="6.13239">
        <ele>400</ele>
        <time>2021-03-06T20:35:32Z</time>
      </trkpt>
      <trkpt lat="47.13495" lon="6.13381">
        <ele>395</ele>
        <time>2021-03-06T20:35:58Z</time>
      </trkpt>
      <trkpt lat="47.13505" lon="6.13428">
        <ele>392</ele>
        <time>2021-03-06T20:36:06Z</time>
      </trkpt>
      <trkpt lat="47.13513" lon="6.13488">
        <ele>391</ele>
        <time>2021-03-06T20:36:15Z</time>
      </trkpt>
      <trkpt lat="47.13522" lon="6.1361">
        <ele>389</ele>
        <time>2021-03-06T20:36:35Z</time>
      </trkpt>
      <trkpt lat="47.13521" lon="6.13648">
        <ele>386</ele>
        <time>2021-03-06T20:36:41Z</time>
      </trkpt>
      <trkpt lat="47.13524" lon="6.13675">
        <ele>386</ele>
        <time>2021-03-06T20:36:45Z</time>
      </trkpt>
      <trkpt lat="47.13557" lon="6.13811">
        <ele>390</ele>
        <time>2021-03-06T20:37:08Z</time>
      </trkpt>
      <trkpt lat="47.13575" lon="6.13871">
        <ele>391</ele>
        <time>2021-03-06T20:37:19Z</time>
      </trkpt>
      <trkpt lat="47.1358" lon="6.13927">
        <ele>386</ele>
        <time>2021-03-06T20:37:28Z</time>
      </trkpt>
      <trkpt lat="47.13573" lon="6.13924">
        <ele>384</ele>
        <time>2021-03-06T20:37:29Z</time>
      </trkpt>
      <trkpt lat="47.13568" lon="6.13913">
        <ele>383</ele>
        <time>2021-03-06T20:37:32Z</time>
      </trkpt>
      <trkpt lat="47.13563" lon="6.13884">
        <ele>385</ele>
        <time>2021-03-06T20:37:36Z</time>
      </trkpt>
      <trkpt lat="47.13554" lon="6.13866">
        <ele>384</ele>
        <time>2021-03-06T20:37:40Z</time>
      </trkpt>
      <trkpt lat="47.13549" lon="6.13864">
        <ele>382</ele>
        <time>2021-03-06T20:37:41Z</time>
      </trkpt>
      <trkpt lat="47.13541" lon="6.13871">
        <ele>378</ele>
        <time>2021-03-06T20:37:43Z</time>
      </trkpt>
      <trkpt lat="47.13541" lon="6.13919">
        <ele>374</ele>
        <time>2021-03-06T20:37:51Z</time>
      </trkpt>
      <trkpt lat="47.13535" lon="6.13935">
        <ele>372</ele>
        <time>2021-03-06T20:37:54Z</time>
      </trkpt>
      <trkpt lat="47.13529" lon="6.13936">
        <ele>371</ele>
        <time>2021-03-06T20:37:55Z</time>
      </trkpt>
      <trkpt lat="47.13517" lon="6.13929">
        <ele>367</ele>
        <time>2021-03-06T20:37:58Z</time>
      </trkpt>
      <trkpt lat="47.13496" lon="6.139">
        <ele>362</ele>
        <time>2021-03-06T20:38:05Z</time>
      </trkpt>
      <trkpt lat="47.13481" lon="6.1389">
        <ele>364</ele>
        <time>2021-03-06T20:38:09Z</time>
      </trkpt>
      <trkpt lat="47.13462" lon="6.13887">
        <ele>365</ele>
        <time>2021-03-06T20:38:13Z</time>
      </trkpt>
      <trkpt lat="47.1345" lon="6.13872">
        <ele>366</ele>
        <time>2021-03-06T20:38:17Z</time>
      </trkpt>
      <trkpt lat="47.1345" lon="6.13863">
        <ele>366</ele>
        <time>2021-03-06T20:38:18Z</time>
      </trkpt>
      <trkpt lat="47.13447" lon="6.13855">
        <ele>366</ele>
        <time>2021-03-06T20:38:20Z</time>
      </trkpt>
      <trkpt lat="47.13437" lon="6.13842">
        <ele>365</ele>
        <time>2021-03-06T20:38:23Z</time>
      </trkpt>
      <trkpt lat="47.13422" lon="6.13833">
        <ele>365</ele>
        <time>2021-03-06T20:38:27Z</time>
      </trkpt>
      <trkpt lat="47.13414" lon="6.13836">
        <ele>366</ele>
        <time>2021-03-06T20:38:29Z</time>
      </trkpt>
      <trkpt lat="47.13403" lon="6.13828">
        <ele>370</ele>
        <time>2021-03-06T20:38:31Z</time>
      </trkpt>
      <trkpt lat="47.13395" lon="6.13826">
        <ele>373</ele>
        <time>2021-03-06T20:38:33Z</time>
      </trkpt>
      <trkpt lat="47.13387" lon="6.13832">
        <ele>376</ele>
        <time>2021-03-06T20:38:35Z</time>
      </trkpt>
      <trkpt lat="47.13382" lon="6.13853">
        <ele>380</ele>
        <time>2021-03-06T20:38:39Z</time>
      </trkpt>
      <trkpt lat="47.13379" lon="6.13888">
        <ele>384</ele>
        <time>2021-03-06T20:38:45Z</time>
      </trkpt>
      <trkpt lat="47.13389" lon="6.13929">
        <ele>384</ele>
        <time>2021-03-06T20:38:52Z</time>
      </trkpt>
      <trkpt lat="47.13401" lon="6.13951">
        <ele>382</ele>
        <time>2021-03-06T20:38:56Z</time>
      </trkpt>
      <trkpt lat="47.13405" lon="6.13983">
        <ele>385</ele>
        <time>2021-03-06T20:39:01Z</time>
      </trkpt>
      <trkpt lat="47.13403" lon="6.13996">
        <ele>388</ele>
        <time>2021-03-06T20:39:03Z</time>
      </trkpt>
      <trkpt lat="47.13398" lon="6.13999">
        <ele>390</ele>
        <time>2021-03-06T20:39:05Z</time>
      </trkpt>
      <trkpt lat="47.13391" lon="6.13994">
        <ele>392</ele>
        <time>2021-03-06T20:39:06Z</time>
      </trkpt>
      <trkpt lat="47.1337" lon="6.1397">
        <ele>397</ele>
        <time>2021-03-06T20:39:13Z</time>
      </trkpt>
      <trkpt lat="47.1336" lon="6.13949">
        <ele>398</ele>
        <time>2021-03-06T20:39:17Z</time>
      </trkpt>
      <trkpt lat="47.13332" lon="6.13908">
        <ele>406</ele>
        <time>2021-03-06T20:39:26Z</time>
      </trkpt>
      <trkpt lat="47.1333" lon="6.13896">
        <ele>405</ele>
        <time>2021-03-06T20:39:28Z</time>
      </trkpt>
      <trkpt lat="47.13319" lon="6.13876">
        <ele>409</ele>
        <time>2021-03-06T20:39:32Z</time>
      </trkpt>
      <trkpt lat="47.1332" lon="6.13868">
        <ele>407</ele>
        <time>2021-03-06T20:39:33Z</time>
      </trkpt>
      <trkpt lat="47.13311" lon="6.13844">
        <ele>409</ele>
        <time>2021-03-06T20:39:38Z</time>
      </trkpt>
      <trkpt lat="47.13297" lon="6.13829">
        <ele>414</ele>
        <time>2021-03-06T20:39:42Z</time>
      </trkpt>
      <trkpt lat="47.13298" lon="6.13816">
        <ele>412</ele>
        <time>2021-03-06T20:39:44Z</time>
      </trkpt>
      <trkpt lat="47.13285" lon="6.13786">
        <ele>416</ele>
        <time>2021-03-06T20:39:49Z</time>
      </trkpt>
      <trkpt lat="47.13284" lon="6.1378">
        <ele>416</ele>
        <time>2021-03-06T20:39:50Z</time>
      </trkpt>
      <trkpt lat="47.13286" lon="6.13777">
        <ele>415</ele>
        <time>2021-03-06T20:39:51Z</time>
      </trkpt>
      <trkpt lat="47.13282" lon="6.13773">
        <ele>416</ele>
        <time>2021-03-06T20:39:52Z</time>
      </trkpt>
      <trkpt lat="47.1328" lon="6.13762">
        <ele>416</ele>
        <time>2021-03-06T20:39:54Z</time>
      </trkpt>
      <trkpt lat="47.13276" lon="6.13756">
        <ele>417</ele>
        <time>2021-03-06T20:39:55Z</time>
      </trkpt>
      <trkpt lat="47.13273" lon="6.13738">
        <ele>417</ele>
        <time>2021-03-06T20:39:58Z</time>
      </trkpt>
      <trkpt lat="47.13258" lon="6.13698">
        <ele>419</ele>
        <time>2021-03-06T20:40:05Z</time>
      </trkpt>
      <trkpt lat="47.13256" lon="6.13677">
        <ele>418</ele>
        <time>2021-03-06T20:40:09Z</time>
      </trkpt>
      <trkpt lat="47.1325" lon="6.13651">
        <ele>417</ele>
        <time>2021-03-06T20:40:13Z</time>
      </trkpt>
      <trkpt lat="47.13237" lon="6.13615">
        <ele>418</ele>
        <time>2021-03-06T20:40:20Z</time>
      </trkpt>
      <trkpt lat="47.13238" lon="6.13607">
        <ele>416</ele>
        <time>2021-03-06T20:40:21Z</time>
      </trkpt>
      <trkpt lat="47.13235" lon="6.13587">
        <ele>415</ele>
        <time>2021-03-06T20:40:24Z</time>
      </trkpt>
      <trkpt lat="47.1324" lon="6.1354">
        <ele>411</ele>
        <time>2021-03-06T20:40:32Z</time>
      </trkpt>
      <trkpt lat="47.13233" lon="6.13508">
        <ele>411</ele>
        <time>2021-03-06T20:40:37Z</time>
      </trkpt>
      <trkpt lat="47.13234" lon="6.1348">
        <ele>410</ele>
        <time>2021-03-06T20:40:42Z</time>
      </trkpt>
      <trkpt lat="47.13231" lon="6.13468">
        <ele>410</ele>
        <time>2021-03-06T20:40:44Z</time>
      </trkpt>
      <trkpt lat="47.1323" lon="6.13417">
        <ele>409</ele>
        <time>2021-03-06T20:40:52Z</time>
      </trkpt>
      <trkpt lat="47.13226" lon="6.13396">
        <ele>406</ele>
        <time>2021-03-06T20:40:55Z</time>
      </trkpt>
      <trkpt lat="47.13208" lon="6.13363">
        <ele>408</ele>
        <time>2021-03-06T20:41:02Z</time>
      </trkpt>
      <trkpt lat="47.13202" lon="6.1336">
        <ele>410</ele>
        <time>2021-03-06T20:41:03Z</time>
      </trkpt>
      <trkpt lat="47.13194" lon="6.1336">
        <ele>413</ele>
        <time>2021-03-06T20:41:05Z</time>
      </trkpt>
      <trkpt lat="47.13183" lon="6.13368">
        <ele>418</ele>
        <time>2021-03-06T20:41:08Z</time>
      </trkpt>
      <trkpt lat="47.13179" lon="6.134">
        <ele>422</ele>
        <time>2021-03-06T20:41:13Z</time>
      </trkpt>
      <trkpt lat="47.13172" lon="6.13417">
        <ele>425</ele>
        <time>2021-03-06T20:41:16Z</time>
      </trkpt>
      <trkpt lat="47.13173" lon="6.13425">
        <ele>426</ele>
        <time>2021-03-06T20:41:18Z</time>
      </trkpt>
      <trkpt lat="47.1317" lon="6.13443">
        <ele>428</ele>
        <time>2021-03-06T20:41:21Z</time>
      </trkpt>
      <trkpt lat="47.13166" lon="6.13452">
        <ele>430</ele>
        <time>2021-03-06T20:41:22Z</time>
      </trkpt>
      <trkpt lat="47.13159" lon="6.13493">
        <ele>436</ele>
        <time>2021-03-06T20:41:29Z</time>
      </trkpt>
      <trkpt lat="47.13164" lon="6.13526">
        <ele>437</ele>
        <time>2021-03-06T20:41:35Z</time>
      </trkpt>
      <trkpt lat="47.13158" lon="6.13539">
        <ele>441</ele>
        <time>2021-03-06T20:41:37Z</time>
      </trkpt>
      <trkpt lat="47.13149" lon="6.13542">
        <ele>444</ele>
        <time>2021-03-06T20:41:39Z</time>
      </trkpt>
      <trkpt lat="47.13126" lon="6.13563">
        <ele>456</ele>
        <time>2021-03-06T20:41:45Z</time>
      </trkpt>
      <trkpt lat="47.13123" lon="6.13577">
        <ele>459</ele>
        <time>2021-03-06T20:41:48Z</time>
      </trkpt>
      <trkpt lat="47.13125" lon="6.13592">
        <ele>460</ele>
        <time>2021-03-06T20:41:50Z</time>
      </trkpt>
      <trkpt lat="47.13121" lon="6.13602">
        <ele>463</ele>
        <time>2021-03-06T20:41:52Z</time>
      </trkpt>
      <trkpt lat="47.13122" lon="6.13612">
        <ele>464</ele>
        <time>2021-03-06T20:41:54Z</time>
      </trkpt>
      <trkpt lat="47.13119" lon="6.13618">
        <ele>466</ele>
        <time>2021-03-06T20:41:55Z</time>
      </trkpt>
      <trkpt lat="47.13122" lon="6.1369">
        <ele>476</ele>
        <time>2021-03-06T20:42:06Z</time>
      </trkpt>
      <trkpt lat="47.13125" lon="6.13695">
        <ele>475</ele>
        <time>2021-03-06T20:42:07Z</time>
      </trkpt>
      <trkpt lat="47.13126" lon="6.13707">
        <ele>477</ele>
        <time>2021-03-06T20:42:09Z</time>
      </trkpt>
      <trkpt lat="47.13133" lon="6.1372">
        <ele>476</ele>
        <time>2021-03-06T20:42:12Z</time>
      </trkpt>
      <trkpt lat="47.13137" lon="6.13735">
        <ele>476</ele>
        <time>2021-03-06T20:42:15Z</time>
      </trkpt>
      <trkpt lat="47.13132" lon="6.13771">
        <ele>485</ele>
        <time>2021-03-06T20:42:20Z</time>
      </trkpt>
      <trkpt lat="47.1313" lon="6.13832">
        <ele>496</ele>
        <time>2021-03-06T20:42:30Z</time>
      </trkpt>
      <trkpt lat="47.13133" lon="6.13845">
        <ele>496</ele>
        <time>2021-03-06T20:42:32Z</time>
      </trkpt>
      <trkpt lat="47.13135" lon="6.13846">
        <ele>495</ele>
        <time>2021-03-06T20:42:33Z</time>
      </trkpt>
      <trkpt lat="47.13136" lon="6.13865">
        <ele>498</ele>
        <time>2021-03-06T20:42:36Z</time>
      </trkpt>
      <trkpt lat="47.1314" lon="6.13876">
        <ele>498</ele>
        <time>2021-03-06T20:42:38Z</time>
      </trkpt>
      <trkpt lat="47.13143" lon="6.13878">
        <ele>497</ele>
        <time>2021-03-06T20:42:39Z</time>
      </trkpt>
      <trkpt lat="47.13144" lon="6.1389">
        <ele>498</ele>
        <time>2021-03-06T20:42:40Z</time>
      </trkpt>
      <trkpt lat="47.1315" lon="6.13899">
        <ele>497</ele>
        <time>2021-03-06T20:42:42Z</time>
      </trkpt>
      <trkpt lat="47.13154" lon="6.13912">
        <ele>497</ele>
        <time>2021-03-06T20:42:45Z</time>
      </trkpt>
      <trkpt lat="47.13155" lon="6.13939">
        <ele>501</ele>
        <time>2021-03-06T20:42:49Z</time>
      </trkpt>
      <trkpt lat="47.13158" lon="6.13951">
        <ele>501</ele>
        <time>2021-03-06T20:42:51Z</time>
      </trkpt>
      <trkpt lat="47.13156" lon="6.13957">
        <ele>502</ele>
        <time>2021-03-06T20:42:52Z</time>
      </trkpt>
      <trkpt lat="47.13159" lon="6.13965">
        <ele>502</ele>
        <time>2021-03-06T20:42:54Z</time>
      </trkpt>
      <trkpt lat="47.1316" lon="6.13996">
        <ele>506</ele>
        <time>2021-03-06T20:42:58Z</time>
      </trkpt>
      <trkpt lat="47.13165" lon="6.14031">
        <ele>507</ele>
        <time>2021-03-06T20:43:04Z</time>
      </trkpt>
      <trkpt lat="47.13163" lon="6.14038">
        <ele>508</ele>
        <time>2021-03-06T20:43:05Z</time>
      </trkpt>
      <trkpt lat="47.13168" lon="6.14047">
        <ele>507</ele>
        <time>2021-03-06T20:43:07Z</time>
      </trkpt>
      <trkpt lat="47.1317" lon="6.14057">
        <ele>507</ele>
        <time>2021-03-06T20:43:09Z</time>
      </trkpt>
      <trkpt lat="47.13167" lon="6.14075">
        <ele>510</ele>
        <time>2021-03-06T20:43:12Z</time>
      </trkpt>
      <trkpt lat="47.13169" lon="6.14089">
        <ele>510</ele>
        <time>2021-03-06T20:43:14Z</time>
      </trkpt>
      <trkpt lat="47.13168" lon="6.14113">
        <ele>512</ele>
        <time>2021-03-06T20:43:18Z</time>
      </trkpt>
      <trkpt lat="47.13156" lon="6.14183">
        <ele>517</ele>
        <time>2021-03-06T20:43:29Z</time>
      </trkpt>
      <trkpt lat="47.13148" lon="6.14199">
        <ele>517</ele>
        <time>2021-03-06T20:43:33Z</time>
      </trkpt>
      <trkpt lat="47.1314" lon="6.14206">
        <ele>517</ele>
        <time>2021-03-06T20:43:35Z</time>
      </trkpt>
      <trkpt lat="47.13134" lon="6.14205">
        <ele>517</ele>
        <time>2021-03-06T20:43:36Z</time>
      </trkpt>
      <trkpt lat="47.13124" lon="6.14195">
        <ele>518</ele>
        <time>2021-03-06T20:43:39Z</time>
      </trkpt>
      <trkpt lat="47.13118" lon="6.1417">
        <ele>519</ele>
        <time>2021-03-06T20:43:43Z</time>
      </trkpt>
      <trkpt lat="47.13114" lon="6.14164">
        <ele>520</ele>
        <time>2021-03-06T20:43:44Z</time>
      </trkpt>
      <trkpt lat="47.13099" lon="6.1412">
        <ele>523</ele>
        <time>2021-03-06T20:43:52Z</time>
      </trkpt>
      <trkpt lat="47.13084" lon="6.14095">
        <ele>526</ele>
        <time>2021-03-06T20:43:58Z</time>
      </trkpt>
      <trkpt lat="47.13076" lon="6.14088">
        <ele>527</ele>
        <time>2021-03-06T20:44:00Z</time>
      </trkpt>
      <trkpt lat="47.13072" lon="6.14088">
        <ele>527</ele>
        <time>2021-03-06T20:44:01Z</time>
      </trkpt>
      <trkpt lat="47.13066" lon="6.14083">
        <ele>528</ele>
        <time>2021-03-06T20:44:02Z</time>
      </trkpt>
      <trkpt lat="47.13055" lon="6.14079">
        <ele>528</ele>
        <time>2021-03-06T20:44:05Z</time>
      </trkpt>
      <trkpt lat="47.13032" lon="6.14055">
        <ele>531</ele>
        <time>2021-03-06T20:44:12Z</time>
      </trkpt>
      <trkpt lat="47.13027" lon="6.14044">
        <ele>533</ele>
        <time>2021-03-06T20:44:14Z</time>
      </trkpt>
      <trkpt lat="47.13023" lon="6.14024">
        <ele>535</ele>
        <time>2021-03-06T20:44:17Z</time>
      </trkpt>
      <trkpt lat="47.13018" lon="6.14015">
        <ele>536</ele>
        <time>2021-03-06T20:44:19Z</time>
      </trkpt>
      <trkpt lat="47.1301" lon="6.14008">
        <ele>538</ele>
        <time>2021-03-06T20:44:21Z</time>
      </trkpt>
      <trkpt lat="47.12994" lon="6.13966">
        <ele>541</ele>
        <time>2021-03-06T20:44:29Z</time>
      </trkpt>
      <trkpt lat="47.12963" lon="6.13921">
        <ele>542</ele>
        <time>2021-03-06T20:44:39Z</time>
      </trkpt>
      <trkpt lat="47.12911" lon="6.13862">
        <ele>543</ele>
        <time>2021-03-06T20:44:54Z</time>
      </trkpt>
      <trkpt lat="47.12884" lon="6.13838">
        <ele>545</ele>
        <time>2021-03-06T20:45:02Z</time>
      </trkpt>
      <trkpt lat="47.12869" lon="6.1382">
        <ele>548</ele>
        <time>2021-03-06T20:45:06Z</time>
      </trkpt>
      <trkpt lat="47.12852" lon="6.13806">
        <ele>551</ele>
        <time>2021-03-06T20:45:11Z</time>
      </trkpt>
      <trkpt lat="47.12839" lon="6.138">
        <ele>554</ele>
        <time>2021-03-06T20:45:14Z</time>
      </trkpt>
      <trkpt lat="47.12747" lon="6.13808">
        <ele>550</ele>
        <time>2021-03-06T20:45:35Z</time>
      </trkpt>
      <trkpt lat="47.12714" lon="6.13816">
        <ele>547</ele>
        <time>2021-03-06T20:45:43Z</time>
      </trkpt>
      <trkpt lat="47.12668" lon="6.13832">
        <ele>544</ele>
        <time>2021-03-06T20:45:54Z</time>
      </trkpt>
      <trkpt lat="47.12629" lon="6.13833">
        <ele>543</ele>
        <time>2021-03-06T20:46:03Z</time>
      </trkpt>
      <trkpt lat="47.12477" lon="6.13818">
        <ele>541</ele>
        <time>2021-03-06T20:46:39Z</time>
      </trkpt>
      <trkpt lat="47.12462" lon="6.13823">
        <ele>541</ele>
        <time>2021-03-06T20:46:42Z</time>
      </trkpt>
      <trkpt lat="47.12429" lon="6.13899">
        <ele>539</ele>
        <time>2021-03-06T20:46:57Z</time>
      </trkpt>
      <trkpt lat="47.12421" lon="6.13909">
        <ele>539</ele>
        <time>2021-03-06T20:46:59Z</time>
      </trkpt>
      <trkpt lat="47.12411" lon="6.13915">
        <ele>539</ele>
        <time>2021-03-06T20:47:02Z</time>
      </trkpt>
      <trkpt lat="47.12388" lon="6.13914">
        <ele>539</ele>
        <time>2021-03-06T20:47:07Z</time>
      </trkpt>
      <trkpt lat="47.12333" lon="6.13898">
        <ele>538</ele>
        <time>2021-03-06T20:47:20Z</time>
      </trkpt>
      <trkpt lat="47.12305" lon="6.13895">
        <ele>538</ele>
        <time>2021-03-06T20:47:27Z</time>
      </trkpt>
      <trkpt lat="47.1223" lon="6.13912">
        <ele>537</ele>
        <time>2021-03-06T20:47:44Z</time>
      </trkpt>
      <trkpt lat="47.12174" lon="6.13933">
        <ele>535</ele>
        <time>2021-03-06T20:47:58Z</time>
      </trkpt>
      <trkpt lat="47.12079" lon="6.13946">
        <ele>532</ele>
        <time>2021-03-06T20:48:20Z</time>
      </trkpt>
      <trkpt lat="47.12039" lon="6.13956">
        <ele>529</ele>
        <time>2021-03-06T20:48:30Z</time>
      </trkpt>
      <trkpt lat="47.12025" lon="6.13954">
        <ele>529</ele>
        <time>2021-03-06T20:48:33Z</time>
      </trkpt>
      <trkpt lat="47.11975" lon="6.13911">
        <ele>530</ele>
        <time>2021-03-06T20:48:47Z</time>
      </trkpt>
      <trkpt lat="47.11951" lon="6.13901">
        <ele>529</ele>
        <time>2021-03-06T20:48:52Z</time>
      </trkpt>
      <trkpt lat="47.11917" lon="6.139">
        <ele>527</ele>
        <time>2021-03-06T20:49:00Z</time>
      </trkpt>
      <trkpt lat="47.11883" lon="6.13906">
        <ele>525</ele>
        <time>2021-03-06T20:49:08Z</time>
      </trkpt>
      <trkpt lat="47.11835" lon="6.13904">
        <ele>523</ele>
        <time>2021-03-06T20:49:20Z</time>
      </trkpt>
      <trkpt lat="47.11769" lon="6.13929">
        <ele>516</ele>
        <time>2021-03-06T20:49:35Z</time>
      </trkpt>
      <trkpt lat="47.11733" lon="6.13948">
        <ele>512</ele>
        <time>2021-03-06T20:49:44Z</time>
      </trkpt>
      <trkpt lat="47.11709" lon="6.13971">
        <ele>508</ele>
        <time>2021-03-06T20:49:51Z</time>
      </trkpt>
      <trkpt lat="47.11686" lon="6.13979">
        <ele>506</ele>
        <time>2021-03-06T20:49:57Z</time>
      </trkpt>
      <trkpt lat="47.11677" lon="6.13989">
        <ele>504</ele>
        <time>2021-03-06T20:49:59Z</time>
      </trkpt>
      <trkpt lat="47.11662" lon="6.14026">
        <ele>497</ele>
        <time>2021-03-06T20:50:06Z</time>
      </trkpt>
      <trkpt lat="47.11657" lon="6.14033">
        <ele>495</ele>
        <time>2021-03-06T20:50:08Z</time>
      </trkpt>
      <trkpt lat="47.11652" lon="6.14035">
        <ele>494</ele>
        <time>2021-03-06T20:50:09Z</time>
      </trkpt>
      <trkpt lat="47.11647" lon="6.14033">
        <ele>494</ele>
        <time>2021-03-06T20:50:10Z</time>
      </trkpt>
      <trkpt lat="47.11628" lon="6.14015">
        <ele>494</ele>
        <time>2021-03-06T20:50:15Z</time>
      </trkpt>
      <trkpt lat="47.11613" lon="6.14005">
        <ele>493</ele>
        <time>2021-03-06T20:50:19Z</time>
      </trkpt>
      <trkpt lat="47.11597" lon="6.14004">
        <ele>490</ele>
        <time>2021-03-06T20:50:23Z</time>
      </trkpt>
      <trkpt lat="47.1158" lon="6.14011">
        <ele>487</ele>
        <time>2021-03-06T20:50:27Z</time>
      </trkpt>
      <trkpt lat="47.11557" lon="6.14046">
        <ele>482</ele>
        <time>2021-03-06T20:50:35Z</time>
      </trkpt>
      <trkpt lat="47.11544" lon="6.1409">
        <ele>478</ele>
        <time>2021-03-06T20:50:42Z</time>
      </trkpt>
      <trkpt lat="47.11545" lon="6.14122">
        <ele>473</ele>
        <time>2021-03-06T20:50:48Z</time>
      </trkpt>
      <trkpt lat="47.11543" lon="6.14135">
        <ele>471</ele>
        <time>2021-03-06T20:50:50Z</time>
      </trkpt>
      <trkpt lat="47.11536" lon="6.14143">
        <ele>469</ele>
        <time>2021-03-06T20:50:52Z</time>
      </trkpt>
      <trkpt lat="47.11537" lon="6.14147">
        <ele>469</ele>
        <time>2021-03-06T20:50:52Z</time>
      </trkpt>
      <trkpt lat="47.11583" lon="6.14141">
        <ele>471</ele>
        <time>2021-03-06T20:51:03Z</time>
      </trkpt>
      <trkpt lat="47.11646" lon="6.14139">
        <ele>467</ele>
        <time>2021-03-06T20:51:18Z</time>
      </trkpt>
      <trkpt lat="47.11674" lon="6.14146">
        <ele>464</ele>
        <time>2021-03-06T20:51:25Z</time>
      </trkpt>
      <trkpt lat="47.11732" lon="6.14151">
        <ele>464</ele>
        <time>2021-03-06T20:51:38Z</time>
      </trkpt>
      <trkpt lat="47.11768" lon="6.14161">
        <ele>463</ele>
        <time>2021-03-06T20:51:47Z</time>
      </trkpt>
      <trkpt lat="47.1178" lon="6.14159">
        <ele>464</ele>
        <time>2021-03-06T20:51:49Z</time>
      </trkpt>
      <trkpt lat="47.11793" lon="6.14152">
        <ele>466</ele>
        <time>2021-03-06T20:51:53Z</time>
      </trkpt>
      <trkpt lat="47.11816" lon="6.1415">
        <ele>468</ele>
        <time>2021-03-06T20:51:58Z</time>
      </trkpt>
      <trkpt lat="47.11827" lon="6.14152">
        <ele>467</ele>
        <time>2021-03-06T20:52:01Z</time>
      </trkpt>
      <trkpt lat="47.11845" lon="6.14161">
        <ele>468</ele>
        <time>2021-03-06T20:52:05Z</time>
      </trkpt>
      <trkpt lat="47.11856" lon="6.14177">
        <ele>468</ele>
        <time>2021-03-06T20:52:09Z</time>
      </trkpt>
      <trkpt lat="47.11869" lon="6.14209">
        <ele>468</ele>
        <time>2021-03-06T20:52:15Z</time>
      </trkpt>
      <trkpt lat="47.11872" lon="6.14233">
        <ele>467</ele>
        <time>2021-03-06T20:52:19Z</time>
      </trkpt>
      <trkpt lat="47.11881" lon="6.14267">
        <ele>468</ele>
        <time>2021-03-06T20:52:24Z</time>
      </trkpt>
      <trkpt lat="47.11887" lon="6.14314">
        <ele>466</ele>
        <time>2021-03-06T20:52:32Z</time>
      </trkpt>
      <trkpt lat="47.11885" lon="6.14332">
        <ele>463</ele>
        <time>2021-03-06T20:52:35Z</time>
      </trkpt>
      <trkpt lat="47.11889" lon="6.14381">
        <ele>458</ele>
        <time>2021-03-06T20:52:43Z</time>
      </trkpt>
      <trkpt lat="47.11899" lon="6.14394">
        <ele>462</ele>
        <time>2021-03-06T20:52:46Z</time>
      </trkpt>
      <trkpt lat="47.11911" lon="6.14417">
        <ele>466</ele>
        <time>2021-03-06T20:52:50Z</time>
      </trkpt>
      <trkpt lat="47.11936" lon="6.14513">
        <ele>459</ele>
        <time>2021-03-06T20:53:07Z</time>
      </trkpt>
      <trkpt lat="47.1194" lon="6.14539">
        <ele>457</ele>
        <time>2021-03-06T20:53:11Z</time>
      </trkpt>
      <trkpt lat="47.11939" lon="6.1455">
        <ele>456</ele>
        <time>2021-03-06T20:53:13Z</time>
      </trkpt>
      <trkpt lat="47.11951" lon="6.14619">
        <ele>454</ele>
        <time>2021-03-06T20:53:24Z</time>
      </trkpt>
      <trkpt lat="47.1196" lon="6.14644">
        <ele>456</ele>
        <time>2021-03-06T20:53:29Z</time>
      </trkpt>
      <trkpt lat="47.11973" lon="6.1466">
        <ele>458</ele>
        <time>2021-03-06T20:53:33Z</time>
      </trkpt>
      <trkpt lat="47.11986" lon="6.14669">
        <ele>460</ele>
        <time>2021-03-06T20:53:36Z</time>
      </trkpt>
      <trkpt lat="47.1202" lon="6.14676">
        <ele>467</ele>
        <time>2021-03-06T20:53:44Z</time>
      </trkpt>
      <trkpt lat="47.12028" lon="6.14682">
        <ele>469</ele>
        <time>2021-03-06T20:53:46Z</time>
      </trkpt>
      <trkpt lat="47.12026" lon="6.14688">
        <ele>470</ele>
        <time>2021-03-06T20:53:47Z</time>
      </trkpt>
      <trkpt lat="47.12004" lon="6.14699">
        <ele>468</ele>
        <time>2021-03-06T20:53:52Z</time>
      </trkpt>
      <trkpt lat="47.1199" lon="6.14714">
        <ele>468</ele>
        <time>2021-03-06T20:53:57Z</time>
      </trkpt>
      <trkpt lat="47.11972" lon="6.14723">
        <ele>465</ele>
        <time>2021-03-06T20:54:01Z</time>
      </trkpt>
      <trkpt lat="47.11949" lon="6.1474">
        <ele>463</ele>
        <time>2021-03-06T20:54:07Z</time>
      </trkpt>
      <trkpt lat="47.11888" lon="6.1482">
        <ele>466</ele>
        <time>2021-03-06T20:54:26Z</time>
      </trkpt>
      <trkpt lat="47.11874" lon="6.14843">
        <ele>466</ele>
        <time>2021-03-06T20:54:31Z</time>
      </trkpt>
      <trkpt lat="47.11851" lon="6.14896">
        <ele>466</ele>
        <time>2021-03-06T20:54:41Z</time>
      </trkpt>
      <trkpt lat="47.11844" lon="6.14907">
        <ele>465</ele>
        <time>2021-03-06T20:54:43Z</time>
      </trkpt>
      <trkpt lat="47.11837" lon="6.14908">
        <ele>464</ele>
        <time>2021-03-06T20:54:45Z</time>
      </trkpt>
      <trkpt lat="47.11832" lon="6.14903">
        <ele>463</ele>
        <time>2021-03-06T20:54:46Z</time>
      </trkpt>
      <trkpt lat="47.11846" lon="6.1481">
        <ele>461</ele>
        <time>2021-03-06T20:55:02Z</time>
      </trkpt>
      <trkpt lat="47.11854" lon="6.14793">
        <ele>461</ele>
        <time>2021-03-06T20:55:05Z</time>
      </trkpt>
      <trkpt lat="47.11879" lon="6.14719">
        <ele>456</ele>
        <time>2021-03-06T20:55:18Z</time>
      </trkpt>
      <trkpt lat="47.11871" lon="6.14678">
        <ele>453</ele>
        <time>2021-03-06T20:55:25Z</time>
      </trkpt>
      <trkpt lat="47.11863" lon="6.14664">
        <ele>452</ele>
        <time>2021-03-06T20:55:28Z</time>
      </trkpt>
      <trkpt lat="47.1183" lon="6.14641">
        <ele>452</ele>
        <time>2021-03-06T20:55:36Z</time>
      </trkpt>
      <trkpt lat="47.11808" lon="6.14612">
        <ele>451</ele>
        <time>2021-03-06T20:55:43Z</time>
      </trkpt>
      <trkpt lat="47.11756" lon="6.14558">
        <ele>450</ele>
        <time>2021-03-06T20:55:58Z</time>
      </trkpt>
      <trkpt lat="47.11743" lon="6.14554">
        <ele>450</ele>
        <time>2021-03-06T20:56:01Z</time>
      </trkpt>
      <trkpt lat="47.11713" lon="6.14536">
        <ele>446</ele>
        <time>2021-03-06T20:56:09Z</time>
      </trkpt>
      <trkpt lat="47.11669" lon="6.1455">
        <ele>453</ele>
        <time>2021-03-06T20:56:19Z</time>
      </trkpt>
      <trkpt lat="47.11652" lon="6.14561">
        <ele>451</ele>
        <time>2021-03-06T20:56:23Z</time>
      </trkpt>
      <trkpt lat="47.11637" lon="6.1458">
        <ele>451</ele>
        <time>2021-03-06T20:56:28Z</time>
      </trkpt>
      <trkpt lat="47.11608" lon="6.1463">
        <ele>451</ele>
        <time>2021-03-06T20:56:39Z</time>
      </trkpt>
      <trkpt lat="47.11599" lon="6.1465">
        <ele>453</ele>
        <time>2021-03-06T20:56:42Z</time>
      </trkpt>
      <trkpt lat="47.11578" lon="6.14675">
        <ele>450</ele>
        <time>2021-03-06T20:56:49Z</time>
      </trkpt>
      <trkpt lat="47.11572" lon="6.14689">
        <ele>449</ele>
        <time>2021-03-06T20:56:51Z</time>
      </trkpt>
      <trkpt lat="47.11551" lon="6.14776">
        <ele>455</ele>
        <time>2021-03-06T20:57:06Z</time>
      </trkpt>
      <trkpt lat="47.11549" lon="6.14806">
        <ele>459</ele>
        <time>2021-03-06T20:57:11Z</time>
      </trkpt>
      <trkpt lat="47.11554" lon="6.14834">
        <ele>465</ele>
        <time>2021-03-06T20:57:15Z</time>
      </trkpt>
      <trkpt lat="47.11549" lon="6.14871">
        <ele>472</ele>
        <time>2021-03-06T20:57:21Z</time>
      </trkpt>
      <trkpt lat="47.1154" lon="6.14891">
        <ele>474</ele>
        <time>2021-03-06T20:57:25Z</time>
      </trkpt>
      <trkpt lat="47.11533" lon="6.14893">
        <ele>474</ele>
        <time>2021-03-06T20:57:27Z</time>
      </trkpt>
      <trkpt lat="47.11498" lon="6.1486">
        <ele>460</ele>
        <time>2021-03-06T20:57:37Z</time>
      </trkpt>
      <trkpt lat="47.11468" lon="6.14839">
        <ele>453</ele>
        <time>2021-03-06T20:57:44Z</time>
      </trkpt>
      <trkpt lat="47.11444" lon="6.14834">
        <ele>451</ele>
        <time>2021-03-06T20:57:50Z</time>
      </trkpt>
      <trkpt lat="47.11434" lon="6.14837">
        <ele>452</ele>
        <time>2021-03-06T20:57:52Z</time>
      </trkpt>
      <trkpt lat="47.11414" lon="6.14851">
        <ele>455</ele>
        <time>2021-03-06T20:57:58Z</time>
      </trkpt>
      <trkpt lat="47.11388" lon="6.14857">
        <ele>451</ele>
        <time>2021-03-06T20:58:04Z</time>
      </trkpt>
      <trkpt lat="47.11363" lon="6.14875">
        <ele>452</ele>
        <time>2021-03-06T20:58:10Z</time>
      </trkpt>
      <trkpt lat="47.11336" lon="6.1488">
        <ele>448</ele>
        <time>2021-03-06T20:58:17Z</time>
      </trkpt>
      <trkpt lat="47.11318" lon="6.14892">
        <ele>446</ele>
        <time>2021-03-06T20:58:21Z</time>
      </trkpt>
      <trkpt lat="47.11307" lon="6.14893">
        <ele>442</ele>
        <time>2021-03-06T20:58:24Z</time>
      </trkpt>
      <trkpt lat="47.11291" lon="6.14902">
        <ele>439</ele>
        <time>2021-03-06T20:58:28Z</time>
      </trkpt>
      <trkpt lat="47.11276" lon="6.14945">
        <ele>440</ele>
        <time>2021-03-06T20:58:35Z</time>
      </trkpt>
      <trkpt lat="47.11269" lon="6.14983">
        <ele>441</ele>
        <time>2021-03-06T20:58:42Z</time>
      </trkpt>
      <trkpt lat="47.11273" lon="6.14998">
        <ele>444</ele>
        <time>2021-03-06T20:58:44Z</time>
      </trkpt>
      <trkpt lat="47.11292" lon="6.15029">
        <ele>451</ele>
        <time>2021-03-06T20:58:51Z</time>
      </trkpt>
      <trkpt lat="47.11303" lon="6.15034">
        <ele>454</ele>
        <time>2021-03-06T20:58:54Z</time>
      </trkpt>
      <trkpt lat="47.1133" lon="6.15037">
        <ele>461</ele>
        <time>2021-03-06T20:59:00Z</time>
      </trkpt>
      <trkpt lat="47.11348" lon="6.15043">
        <ele>465</ele>
        <time>2021-03-06T20:59:04Z</time>
      </trkpt>
      <trkpt lat="47.11354" lon="6.1506">
        <ele>466</ele>
        <time>2021-03-06T20:59:07Z</time>
      </trkpt>
      <trkpt lat="47.11342" lon="6.15073">
        <ele>462</ele>
        <time>2021-03-06T20:59:11Z</time>
      </trkpt>
      <trkpt lat="47.11327" lon="6.15096">
        <ele>461</ele>
        <time>2021-03-06T20:59:16Z</time>
      </trkpt>
      <trkpt lat="47.1132" lon="6.15102">
        <ele>461</ele>
        <time>2021-03-06T20:59:18Z</time>
      </trkpt>
      <trkpt lat="47.11311" lon="6.15117">
        <ele>463</ele>
        <time>2021-03-06T20:59:21Z</time>
      </trkpt>
      <trkpt lat="47.11293" lon="6.15135">
        <ele>464</ele>
        <time>2021-03-06T20:59:26Z</time>
      </trkpt>
      <trkpt lat="47.1125" lon="6.15142">
        <ele>460</ele>
        <time>2021-03-06T20:59:36Z</time>
      </trkpt>
      <trkpt lat="47.11219" lon="6.1514">
        <ele>463</ele>
        <time>2021-03-06T20:59:43Z</time>
      </trkpt>
      <trkpt lat="47.11178" lon="6.15131">
        <ele>464</ele>
        <time>2021-03-06T20:59:53Z</time>
      </trkpt>
      <trkpt lat="47.11154" lon="6.15112">
        <ele>463</ele>
        <time>2021-03-06T20:59:59Z</time>
      </trkpt>
      <trkpt lat="47.11142" lon="6.15097">
        <ele>462</ele>
        <time>2021-03-06T21:00:03Z</time>
      </trkpt>
      <trkpt lat="47.11126" lon="6.15084">
        <ele>463</ele>
        <time>2021-03-06T21:00:07Z</time>
      </trkpt>
      <trkpt lat="47.11109" lon="6.15061">
        <ele>461</ele>
        <time>2021-03-06T21:00:13Z</time>
      </trkpt>
      <trkpt lat="47.11084" lon="6.15041">
        <ele>463</ele>
        <time>2021-03-06T21:00:19Z</time>
      </trkpt>
      <trkpt lat="47.11036" lon="6.14984">
        <ele>456</ele>
        <time>2021-03-06T21:00:34Z</time>
      </trkpt>
      <trkpt lat="47.11011" lon="6.14964">
        <ele>455</ele>
        <time>2021-03-06T21:00:40Z</time>
      </trkpt>
      <trkpt lat="47.10981" lon="6.14958">
        <ele>454</ele>
        <time>2021-03-06T21:00:47Z</time>
      </trkpt>
      <trkpt lat="47.10957" lon="6.14963">
        <ele>453</ele>
        <time>2021-03-06T21:00:53Z</time>
      </trkpt>
      <trkpt lat="47.10935" lon="6.14976">
        <ele>455</ele>
        <time>2021-03-06T21:00:59Z</time>
      </trkpt>
      <trkpt lat="47.10881" lon="6.15033">
        <ele>454</ele>
        <time>2021-03-06T21:01:14Z</time>
      </trkpt>
      <trkpt lat="47.10856" lon="6.15048">
        <ele>448</ele>
        <time>2021-03-06T21:01:20Z</time>
      </trkpt>
      <trkpt lat="47.10838" lon="6.15064">
        <ele>444</ele>
        <time>2021-03-06T21:01:25Z</time>
      </trkpt>
      <trkpt lat="47.10816" lon="6.15089">
        <ele>440</ele>
        <time>2021-03-06T21:01:32Z</time>
      </trkpt>
      <trkpt lat="47.10812" lon="6.1511">
        <ele>441</ele>
        <time>2021-03-06T21:01:35Z</time>
      </trkpt>
      <trkpt lat="47.10813" lon="6.15135">
        <ele>444</ele>
        <time>2021-03-06T21:01:39Z</time>
      </trkpt>
      <trkpt lat="47.10819" lon="6.15185">
        <ele>450</ele>
        <time>2021-03-06T21:01:47Z</time>
      </trkpt>
      <trkpt lat="47.10829" lon="6.15239">
        <ele>455</ele>
        <time>2021-03-06T21:01:56Z</time>
      </trkpt>
      <trkpt lat="47.10829" lon="6.15255">
        <ele>455</ele>
        <time>2021-03-06T21:01:59Z</time>
      </trkpt>
      <trkpt lat="47.108" lon="6.15281">
        <ele>447</ele>
        <time>2021-03-06T21:02:07Z</time>
      </trkpt>
      <trkpt lat="47.10769" lon="6.15296">
        <ele>438</ele>
        <time>2021-03-06T21:02:14Z</time>
      </trkpt>
      <trkpt lat="47.10764" lon="6.15303">
        <ele>437</ele>
        <time>2021-03-06T21:02:16Z</time>
      </trkpt>
      <trkpt lat="47.10764" lon="6.15311">
        <ele>437</ele>
        <time>2021-03-06T21:02:17Z</time>
      </trkpt>
      <trkpt lat="47.10768" lon="6.15322">
        <ele>437</ele>
        <time>2021-03-06T21:02:19Z</time>
      </trkpt>
      <trkpt lat="47.10775" lon="6.15332">
        <ele>438</ele>
        <time>2021-03-06T21:02:22Z</time>
      </trkpt>
      <trkpt lat="47.10808" lon="6.15443">
        <ele>426</ele>
        <time>2021-03-06T21:02:41Z</time>
      </trkpt>
      <trkpt lat="47.10816" lon="6.15486">
        <ele>417</ele>
        <time>2021-03-06T21:02:48Z</time>
      </trkpt>
      <trkpt lat="47.10833" lon="6.15532">
        <ele>410</ele>
        <time>2021-03-06T21:02:56Z</time>
      </trkpt>
      <trkpt lat="47.10857" lon="6.15582">
        <ele>406</ele>
        <time>2021-03-06T21:03:06Z</time>
      </trkpt>
      <trkpt lat="47.10864" lon="6.15607">
        <ele>402</ele>
        <time>2021-03-06T21:03:10Z</time>
      </trkpt>
      <trkpt lat="47.1083" lon="6.15604">
        <ele>391</ele>
        <time>2021-03-06T21:03:18Z</time>
      </trkpt>
      <trkpt lat="47.10806" lon="6.15593">
        <ele>387</ele>
        <time>2021-03-06T21:03:24Z</time>
      </trkpt>
      <trkpt lat="47.10795" lon="6.15585">
        <ele>386</ele>
        <time>2021-03-06T21:03:27Z</time>
      </trkpt>
      <trkpt lat="47.10788" lon="6.1557">
        <ele>388</ele>
        <time>2021-03-06T21:03:30Z</time>
      </trkpt>
      <trkpt lat="47.10772" lon="6.15546">
        <ele>388</ele>
        <time>2021-03-06T21:03:35Z</time>
      </trkpt>
      <trkpt lat="47.10752" lon="6.15506">
        <ele>390</ele>
        <time>2021-03-06T21:03:43Z</time>
      </trkpt>
      <trkpt lat="47.1071" lon="6.15456">
        <ele>390</ele>
        <time>2021-03-06T21:03:56Z</time>
      </trkpt>
      <trkpt lat="47.10677" lon="6.15443">
        <ele>383</ele>
        <time>2021-03-06T21:04:04Z</time>
      </trkpt>
      <trkpt lat="47.10662" lon="6.15432">
        <ele>381</ele>
        <time>2021-03-06T21:04:08Z</time>
      </trkpt>
      <trkpt lat="47.10648" lon="6.15413">
        <ele>382</ele>
        <time>2021-03-06T21:04:12Z</time>
      </trkpt>
      <trkpt lat="47.10614" lon="6.15383">
        <ele>377</ele>
        <time>2021-03-06T21:04:21Z</time>
      </trkpt>
      <trkpt lat="47.10578" lon="6.15341">
        <ele>372</ele>
        <time>2021-03-06T21:04:32Z</time>
      </trkpt>
      <trkpt lat="47.10564" lon="6.15321">
        <ele>369</ele>
        <time>2021-03-06T21:04:37Z</time>
      </trkpt>
      <trkpt lat="47.10558" lon="6.15306">
        <ele>367</ele>
        <time>2021-03-06T21:04:39Z</time>
      </trkpt>
      <trkpt lat="47.10544" lon="6.15283">
        <ele>362</ele>
        <time>2021-03-06T21:04:44Z</time>
      </trkpt>
      <trkpt lat="47.10531" lon="6.15277">
        <ele>359</ele>
        <time>2021-03-06T21:04:47Z</time>
      </trkpt>
      <trkpt lat="47.10523" lon="6.15251">
        <ele>356</ele>
        <time>2021-03-06T21:04:52Z</time>
      </trkpt>
      <trkpt lat="47.10498" lon="6.15233">
        <ele>350</ele>
        <time>2021-03-06T21:04:59Z</time>
      </trkpt>
      <trkpt lat="47.10502" lon="6.15233">
        <ele>351</ele>
        <time>2021-03-06T21:04:59Z</time>
      </trkpt>
      <trkpt lat="47.10506" lon="6.15227">
        <ele>351</ele>
        <time>2021-03-06T21:05:01Z</time>
      </trkpt>
      <trkpt lat="47.10494" lon="6.15215">
        <ele>347</ele>
        <time>2021-03-06T21:05:04Z</time>
      </trkpt>
      <trkpt lat="47.10491" lon="6.15204">
        <ele>346</ele>
        <time>2021-03-06T21:05:06Z</time>
      </trkpt>
      <trkpt lat="47.10485" lon="6.15209">
        <ele>345</ele>
        <time>2021-03-06T21:05:08Z</time>
      </trkpt>
      <trkpt lat="47.10482" lon="6.15217">
        <ele>346</ele>
        <time>2021-03-06T21:05:09Z</time>
      </trkpt>
      <trkpt lat="47.10468" lon="6.15294">
        <ele>349</ele>
        <time>2021-03-06T21:05:22Z</time>
      </trkpt>
      <trkpt lat="47.10455" lon="6.15397">
        <ele>345</ele>
        <time>2021-03-06T21:05:38Z</time>
      </trkpt>
      <trkpt lat="47.10451" lon="6.15452">
        <ele>342</ele>
        <time>2021-03-06T21:05:47Z</time>
      </trkpt>
      <trkpt lat="47.10431" lon="6.15599">
        <ele>337</ele>
        <time>2021-03-06T21:06:11Z</time>
      </trkpt>
      <trkpt lat="47.1043" lon="6.1564">
        <ele>337</ele>
        <time>2021-03-06T21:06:18Z</time>
      </trkpt>
      <trkpt lat="47.10418" lon="6.15656">
        <ele>337</ele>
        <time>2021-03-06T21:06:21Z</time>
      </trkpt>
      <trkpt lat="47.10413" lon="6.15668">
        <ele>337</ele>
        <time>2021-03-06T21:06:24Z</time>
      </trkpt>
      <trkpt lat="47.10393" lon="6.1582">
        <ele>333</ele>
        <time>2021-03-06T21:06:48Z</time>
      </trkpt>
      <trkpt lat="47.10375" lon="6.15901">
        <ele>335</ele>
        <time>2021-03-06T21:07:02Z</time>
      </trkpt>
      <trkpt lat="47.10362" lon="6.1594">
        <ele>336</ele>
        <time>2021-03-06T21:07:09Z</time>
      </trkpt>
      <trkpt lat="47.10337" lon="6.15992">
        <ele>338</ele>
        <time>2021-03-06T21:07:19Z</time>
      </trkpt>
      <trkpt lat="47.10308" lon="6.16039">
        <ele>336</ele>
        <time>2021-03-06T21:07:29Z</time>
      </trkpt>
      <trkpt lat="47.10289" lon="6.16056">
        <ele>335</ele>
        <time>2021-03-06T21:07:34Z</time>
      </trkpt>
      <trkpt lat="47.10278" lon="6.16061">
        <ele>335</ele>
        <time>2021-03-06T21:07:37Z</time>
      </trkpt>
      <trkpt lat="47.10267" lon="6.1606">
        <ele>335</ele>
        <time>2021-03-06T21:07:39Z</time>
      </trkpt>
      <trkpt lat="47.10254" lon="6.16054">
        <ele>336</ele>
        <time>2021-03-06T21:07:43Z</time>
      </trkpt>
      <trkpt lat="47.1022" lon="6.16024">
        <ele>335</ele>
        <time>2021-03-06T21:07:52Z</time>
      </trkpt>
      <trkpt lat="47.1019" lon="6.16005">
        <ele>335</ele>
        <time>2021-03-06T21:07:59Z</time>
      </trkpt>
      <trkpt lat="47.10165" lon="6.15996">
        <ele>335</ele>
        <time>2021-03-06T21:08:05Z</time>
      </trkpt>
      <trkpt lat="47.10154" lon="6.15995">
        <ele>335</ele>
        <time>2021-03-06T21:08:08Z</time>
      </trkpt>
      <trkpt lat="47.10115" lon="6.16002">
        <ele>335</ele>
        <time>2021-03-06T21:08:17Z</time>
      </trkpt>
      <trkpt lat="47.10089" lon="6.16016">
        <ele>335</ele>
        <time>2021-03-06T21:08:24Z</time>
      </trkpt>
      <trkpt lat="47.10077" lon="6.16018">
        <ele>335</ele>
        <time>2021-03-06T21:08:26Z</time>
      </trkpt>
      <trkpt lat="47.10067" lon="6.16012">
        <ele>335</ele>
        <time>2021-03-06T21:08:29Z</time>
      </trkpt>
      <trkpt lat="47.10062" lon="6.16006">
        <ele>335</ele>
        <time>2021-03-06T21:08:30Z</time>
      </trkpt>
      <trkpt lat="47.10057" lon="6.15994">
        <ele>335</ele>
        <time>2021-03-06T21:08:33Z</time>
      </trkpt>
      <trkpt lat="47.10055" lon="6.15981">
        <ele>335</ele>
        <time>2021-03-06T21:08:35Z</time>
      </trkpt>
      <trkpt lat="47.10044" lon="6.15968">
        <ele>336</ele>
        <time>2021-03-06T21:08:38Z</time>
      </trkpt>
      <trkpt lat="47.10024" lon="6.15932">
        <ele>337</ele>
        <time>2021-03-06T21:08:46Z</time>
      </trkpt>
      <trkpt lat="47.10015" lon="6.15922">
        <ele>337</ele>
        <time>2021-03-06T21:08:48Z</time>
      </trkpt>
      <trkpt lat="47.09941" lon="6.15886">
        <ele>340</ele>
        <time>2021-03-06T21:09:06Z</time>
      </trkpt>
      <trkpt lat="47.09932" lon="6.15874">
        <ele>341</ele>
        <time>2021-03-06T21:09:09Z</time>
      </trkpt>
      <trkpt lat="47.09921" lon="6.15843">
        <ele>342</ele>
        <time>2021-03-06T21:09:15Z</time>
      </trkpt>
      <trkpt lat="47.09921" lon="6.15818">
        <ele>343</ele>
        <time>2021-03-06T21:09:19Z</time>
      </trkpt>
      <trkpt lat="47.09979" lon="6.15723">
        <ele>344</ele>
        <time>2021-03-06T21:09:39Z</time>
      </trkpt>
      <trkpt lat="47.10063" lon="6.15621">
        <ele>343</ele>
        <time>2021-03-06T21:10:05Z</time>
      </trkpt>
      <trkpt lat="47.10104" lon="6.15581">
        <ele>341</ele>
        <time>2021-03-06T21:10:16Z</time>
      </trkpt>
      <trkpt lat="47.10168" lon="6.15492">
        <ele>338</ele>
        <time>2021-03-06T21:10:37Z</time>
      </trkpt>
      <trkpt lat="47.10175" lon="6.15464">
        <ele>338</ele>
        <time>2021-03-06T21:10:41Z</time>
      </trkpt>
      <trkpt lat="47.10177" lon="6.15444">
        <ele>338</ele>
        <time>2021-03-06T21:10:45Z</time>
      </trkpt>
      <trkpt lat="47.10173" lon="6.15414">
        <ele>338</ele>
        <time>2021-03-06T21:10:49Z</time>
      </trkpt>
      <trkpt lat="47.10173" lon="6.15389">
        <ele>339</ele>
        <time>2021-03-06T21:10:53Z</time>
      </trkpt>
      <trkpt lat="47.10179" lon="6.15348">
        <ele>340</ele>
        <time>2021-03-06T21:11:00Z</time>
      </trkpt>
      <trkpt lat="47.10178" lon="6.15282">
        <ele>343</ele>
        <time>2021-03-06T21:11:11Z</time>
      </trkpt>
      <trkpt lat="47.10175" lon="6.15263">
        <ele>345</ele>
        <time>2021-03-06T21:11:14Z</time>
      </trkpt>
      <trkpt lat="47.10173" lon="6.15196">
        <ele>353</ele>
        <time>2021-03-06T21:11:24Z</time>
      </trkpt>
      <trkpt lat="47.10186" lon="6.15152">
        <ele>356</ele>
        <time>2021-03-06T21:11:32Z</time>
      </trkpt>
      <trkpt lat="47.10194" lon="6.15142">
        <ele>355</ele>
        <time>2021-03-06T21:11:34Z</time>
      </trkpt>
      <trkpt lat="47.10195" lon="6.15135">
        <ele>356</ele>
        <time>2021-03-06T21:11:36Z</time>
      </trkpt>
      <trkpt lat="47.10217" lon="6.15086">
        <ele>355</ele>
        <time>2021-03-06T21:11:45Z</time>
      </trkpt>
      <trkpt lat="47.10225" lon="6.15062">
        <ele>354</ele>
        <time>2021-03-06T21:11:49Z</time>
      </trkpt>
      <trkpt lat="47.10239" lon="6.14988">
        <ele>357</ele>
        <time>2021-03-06T21:12:01Z</time>
      </trkpt>
      <trkpt lat="47.10237" lon="6.14976">
        <ele>358</ele>
        <time>2021-03-06T21:12:03Z</time>
      </trkpt>
      <trkpt lat="47.10244" lon="6.14954">
        <ele>356</ele>
        <time>2021-03-06T21:12:07Z</time>
      </trkpt>
      <trkpt lat="47.1024" lon="6.14946">
        <ele>358</ele>
        <time>2021-03-06T21:12:09Z</time>
      </trkpt>
      <trkpt lat="47.10241" lon="6.1493">
        <ele>358</ele>
        <time>2021-03-06T21:12:11Z</time>
      </trkpt>
      <trkpt lat="47.10237" lon="6.14921">
        <ele>359</ele>
        <time>2021-03-06T21:12:13Z</time>
      </trkpt>
      <trkpt lat="47.10227" lon="6.14912">
        <ele>362</ele>
        <time>2021-03-06T21:12:16Z</time>
      </trkpt>
      <trkpt lat="47.10198" lon="6.14874">
        <ele>365</ele>
        <time>2021-03-06T21:12:25Z</time>
      </trkpt>
      <trkpt lat="47.10169" lon="6.14852">
        <ele>366</ele>
        <time>2021-03-06T21:12:32Z</time>
      </trkpt>
      <trkpt lat="47.10152" lon="6.14835">
        <ele>368</ele>
        <time>2021-03-06T21:12:37Z</time>
      </trkpt>
      <trkpt lat="47.10124" lon="6.14786">
        <ele>369</ele>
        <time>2021-03-06T21:12:47Z</time>
      </trkpt>
      <trkpt lat="47.10094" lon="6.1474">
        <ele>368</ele>
        <time>2021-03-06T21:12:58Z</time>
      </trkpt>
      <trkpt lat="47.10048" lon="6.14682">
        <ele>372</ele>
        <time>2021-03-06T21:13:12Z</time>
      </trkpt>
      <trkpt lat="47.10002" lon="6.14645">
        <ele>375</ele>
        <time>2021-03-06T21:13:24Z</time>
      </trkpt>
      <trkpt lat="47.0999" lon="6.14639">
        <ele>377</ele>
        <time>2021-03-06T21:13:27Z</time>
      </trkpt>
      <trkpt lat="47.09914" lon="6.14587">
        <ele>380</ele>
        <time>2021-03-06T21:13:46Z</time>
      </trkpt>
      <trkpt lat="47.09851" lon="6.14531">
        <ele>384</ele>
        <time>2021-03-06T21:14:04Z</time>
      </trkpt>
      <trkpt lat="47.09806" lon="6.14498">
        <ele>388</ele>
        <time>2021-03-06T21:14:15Z</time>
      </trkpt>
      <trkpt lat="47.09802" lon="6.145">
        <ele>389</ele>
        <time>2021-03-06T21:14:16Z</time>
      </trkpt>
      <trkpt lat="47.09801" lon="6.14506">
        <ele>390</ele>
        <time>2021-03-06T21:14:17Z</time>
      </trkpt>
      <trkpt lat="47.09819" lon="6.14533">
        <ele>391</ele>
        <time>2021-03-06T21:14:23Z</time>
      </trkpt>
      <trkpt lat="47.0985" lon="6.1459">
        <ele>393</ele>
        <time>2021-03-06T21:14:35Z</time>
      </trkpt>
      <trkpt lat="47.09871" lon="6.14616">
        <ele>394</ele>
        <time>2021-03-06T21:14:41Z</time>
      </trkpt>
      <trkpt lat="47.09905" lon="6.14671">
        <ele>396</ele>
        <time>2021-03-06T21:14:53Z</time>
      </trkpt>
      <trkpt lat="47.09951" lon="6.14722">
        <ele>395</ele>
        <time>2021-03-06T21:15:07Z</time>
      </trkpt>
      <trkpt lat="47.09968" lon="6.14744">
        <ele>396</ele>
        <time>2021-03-06T21:15:12Z</time>
      </trkpt>
      <trkpt lat="47.09984" lon="6.14773">
        <ele>398</ele>
        <time>2021-03-06T21:15:18Z</time>
      </trkpt>
      <trkpt lat="47.1004" lon="6.14907">
        <ele>410</ele>
        <time>2021-03-06T21:15:43Z</time>
      </trkpt>
      <trkpt lat="47.10048" lon="6.14932">
        <ele>412</ele>
        <time>2021-03-06T21:15:47Z</time>
      </trkpt>
      <trkpt lat="47.1005" lon="6.14955">
        <ele>413</ele>
        <time>2021-03-06T21:15:51Z</time>
      </trkpt>
      <trkpt lat="47.10048" lon="6.14976">
        <ele>416</ele>
        <time>2021-03-06T21:15:54Z</time>
      </trkpt>
      <trkpt lat="47.10039" lon="6.14999">
        <ele>419</ele>
        <time>2021-03-06T21:15:59Z</time>
      </trkpt>
      <trkpt lat="47.10027" lon="6.1501">
        <ele>420</ele>
        <time>2021-03-06T21:16:02Z</time>
      </trkpt>
      <trkpt lat="47.1002" lon="6.15011">
        <ele>421</ele>
        <time>2021-03-06T21:16:03Z</time>
      </trkpt>
      <trkpt lat="47.10013" lon="6.15005">
        <ele>423</ele>
        <time>2021-03-06T21:16:05Z</time>
      </trkpt>
      <trkpt lat="47.10005" lon="6.14989">
        <ele>424</ele>
        <time>2021-03-06T21:16:09Z</time>
      </trkpt>
      <trkpt lat="47.10002" lon="6.14973">
        <ele>423</ele>
        <time>2021-03-06T21:16:11Z</time>
      </trkpt>
      <trkpt lat="47.09985" lon="6.14937">
        <ele>423</ele>
        <time>2021-03-06T21:16:18Z</time>
      </trkpt>
      <trkpt lat="47.0997" lon="6.14916">
        <ele>424</ele>
        <time>2021-03-06T21:16:23Z</time>
      </trkpt>
      <trkpt lat="47.0993" lon="6.1488">
        <ele>427</ele>
        <time>2021-03-06T21:16:34Z</time>
      </trkpt>
      <trkpt lat="47.09915" lon="6.14872">
        <ele>429</ele>
        <time>2021-03-06T21:16:38Z</time>
      </trkpt>
      <trkpt lat="47.09901" lon="6.1486">
        <ele>432</ele>
        <time>2021-03-06T21:16:41Z</time>
      </trkpt>
      <trkpt lat="47.09872" lon="6.14827">
        <ele>434</ele>
        <time>2021-03-06T21:16:50Z</time>
      </trkpt>
      <trkpt lat="47.09839" lon="6.14795">
        <ele>437</ele>
        <time>2021-03-06T21:16:59Z</time>
      </trkpt>
      <trkpt lat="47.0982" lon="6.14767">
        <ele>436</ele>
        <time>2021-03-06T21:17:06Z</time>
      </trkpt>
      <trkpt lat="47.09806" lon="6.14757">
        <ele>438</ele>
        <time>2021-03-06T21:17:09Z</time>
      </trkpt>
      <trkpt lat="47.09772" lon="6.14725">
        <ele>443</ele>
        <time>2021-03-06T21:17:19Z</time>
      </trkpt>
      <trkpt lat="47.09744" lon="6.14693">
        <ele>444</ele>
        <time>2021-03-06T21:17:27Z</time>
      </trkpt>
      <trkpt lat="47.09689" lon="6.14653">
        <ele>446</ele>
        <time>2021-03-06T21:17:41Z</time>
      </trkpt>
      <trkpt lat="47.09652" lon="6.1463">
        <ele>447</ele>
        <time>2021-03-06T21:17:51Z</time>
      </trkpt>
      <trkpt lat="47.0963" lon="6.14621">
        <ele>448</ele>
        <time>2021-03-06T21:17:56Z</time>
      </trkpt>
      <trkpt lat="47.09599" lon="6.14617">
        <ele>451</ele>
        <time>2021-03-06T21:18:03Z</time>
      </trkpt>
      <trkpt lat="47.09585" lon="6.14619">
        <ele>453</ele>
        <time>2021-03-06T21:18:06Z</time>
      </trkpt>
      <trkpt lat="47.09555" lon="6.14631">
        <ele>459</ele>
        <time>2021-03-06T21:18:14Z</time>
      </trkpt>
      <trkpt lat="47.09528" lon="6.14634">
        <ele>463</ele>
        <time>2021-03-06T21:18:20Z</time>
      </trkpt>
      <trkpt lat="47.0949" lon="6.14643">
        <ele>468</ele>
        <time>2021-03-06T21:18:29Z</time>
      </trkpt>
      <trkpt lat="47.09461" lon="6.14644">
        <ele>469</ele>
        <time>2021-03-06T21:18:36Z</time>
      </trkpt>
      <trkpt lat="47.09381" lon="6.14659">
        <ele>477</ele>
        <time>2021-03-06T21:18:55Z</time>
      </trkpt>
      <trkpt lat="47.0931" lon="6.1466">
        <ele>478</ele>
        <time>2021-03-06T21:19:11Z</time>
      </trkpt>
      <trkpt lat="47.09294" lon="6.14665">
        <ele>480</ele>
        <time>2021-03-06T21:19:15Z</time>
      </trkpt>
      <trkpt lat="47.09247" lon="6.14672">
        <ele>479</ele>
        <time>2021-03-06T21:19:26Z</time>
      </trkpt>
      <trkpt lat="47.09225" lon="6.1468">
        <ele>480</ele>
        <time>2021-03-06T21:19:31Z</time>
      </trkpt>
      <trkpt lat="47.09211" lon="6.14693">
        <ele>483</ele>
        <time>2021-03-06T21:19:35Z</time>
      </trkpt>
      <trkpt lat="47.09195" lon="6.14701">
        <ele>483</ele>
        <time>2021-03-06T21:19:39Z</time>
      </trkpt>
      <trkpt lat="47.09176" lon="6.14718">
        <ele>485</ele>
        <time>2021-03-06T21:19:44Z</time>
      </trkpt>
      <trkpt lat="47.0917" lon="6.1472">
        <ele>485</ele>
        <time>2021-03-06T21:19:46Z</time>
      </trkpt>
      <trkpt lat="47.09158" lon="6.14734">
        <ele>488</ele>
        <time>2021-03-06T21:19:49Z</time>
      </trkpt>
      <trkpt lat="47.0915" lon="6.14738">
        <ele>489</ele>
        <time>2021-03-06T21:19:51Z</time>
      </trkpt>
      <trkpt lat="47.09125" lon="6.14761">
        <ele>492</ele>
        <time>2021-03-06T21:19:58Z</time>
      </trkpt>
      <trkpt lat="47.09123" lon="6.14773">
        <ele>494</ele>
        <time>2021-03-06T21:20:00Z</time>
      </trkpt>
      <trkpt lat="47.09105" lon="6.14796">
        <ele>496</ele>
        <time>2021-03-06T21:20:06Z</time>
      </trkpt>
      <trkpt lat="47.09078" lon="6.14843">
        <ele>499</ele>
        <time>2021-03-06T21:20:16Z</time>
      </trkpt>
      <trkpt lat="47.09067" lon="6.14853">
        <ele>502</ele>
        <time>2021-03-06T21:20:19Z</time>
      </trkpt>
      <trkpt lat="47.09045" lon="6.14865">
        <ele>505</ele>
        <time>2021-03-06T21:20:24Z</time>
      </trkpt>
      <trkpt lat="47.09029" lon="6.14881">
        <ele>507</ele>
        <time>2021-03-06T21:20:29Z</time>
      </trkpt>
      <trkpt lat="47.09005" lon="6.14896">
        <ele>507</ele>
        <time>2021-03-06T21:20:35Z</time>
      </trkpt>
      <trkpt lat="47.08989" lon="6.14913">
        <ele>508</ele>
        <time>2021-03-06T21:20:39Z</time>
      </trkpt>
      <trkpt lat="47.08988" lon="6.14919">
        <ele>508</ele>
        <time>2021-03-06T21:20:40Z</time>
      </trkpt>
      <trkpt lat="47.08992" lon="6.14925">
        <ele>508</ele>
        <time>2021-03-06T21:20:42Z</time>
      </trkpt>
      <trkpt lat="47.09001" lon="6.14921">
        <ele>507</ele>
        <time>2021-03-06T21:20:44Z</time>
      </trkpt>
      <trkpt lat="47.09009" lon="6.14913">
        <ele>507</ele>
        <time>2021-03-06T21:20:46Z</time>
      </trkpt>
      <trkpt lat="47.09041" lon="6.14915">
        <ele>508</ele>
        <time>2021-03-06T21:20:54Z</time>
      </trkpt>
      <trkpt lat="47.09086" lon="6.14906">
        <ele>509</ele>
        <time>2021-03-06T21:21:04Z</time>
      </trkpt>
      <trkpt lat="47.09102" lon="6.14896">
        <ele>510</ele>
        <time>2021-03-06T21:21:08Z</time>
      </trkpt>
      <trkpt lat="47.09127" lon="6.14864">
        <ele>509</ele>
        <time>2021-03-06T21:21:16Z</time>
      </trkpt>
      <trkpt lat="47.09161" lon="6.1483">
        <ele>510</ele>
        <time>2021-03-06T21:21:26Z</time>
      </trkpt>
      <trkpt lat="47.0919" lon="6.14811">
        <ele>510</ele>
        <time>2021-03-06T21:21:33Z</time>
      </trkpt>
      <trkpt lat="47.09203" lon="6.14812">
        <ele>512</ele>
        <time>2021-03-06T21:21:36Z</time>
      </trkpt>
      <trkpt lat="47.09233" lon="6.14797">
        <ele>513</ele>
        <time>2021-03-06T21:21:43Z</time>
      </trkpt>
      <trkpt lat="47.0926" lon="6.14797">
        <ele>516</ele>
        <time>2021-03-06T21:21:50Z</time>
      </trkpt>
      <trkpt lat="47.09316" lon="6.1479">
        <ele>518</ele>
        <time>2021-03-06T21:22:03Z</time>
      </trkpt>
      <trkpt lat="47.09338" lon="6.14797">
        <ele>520</ele>
        <time>2021-03-06T21:22:08Z</time>
      </trkpt>
      <trkpt lat="47.09433" lon="6.14807">
        <ele>518</ele>
        <time>2021-03-06T21:22:30Z</time>
      </trkpt>
      <trkpt lat="47.09442" lon="6.14805">
        <ele>517</ele>
        <time>2021-03-06T21:22:33Z</time>
      </trkpt>
      <trkpt lat="47.09472" lon="6.1481">
        <ele>517</ele>
        <time>2021-03-06T21:22:40Z</time>
      </trkpt>
      <trkpt lat="47.09504" lon="6.14825">
        <ele>517</ele>
        <time>2021-03-06T21:22:47Z</time>
      </trkpt>
      <trkpt lat="47.09543" lon="6.14849">
        <ele>517</ele>
        <time>2021-03-06T21:22:57Z</time>
      </trkpt>
      <trkpt lat="47.09596" lon="6.14899">
        <ele>517</ele>
        <time>2021-03-06T21:23:12Z</time>
      </trkpt>
      <trkpt lat="47.09616" lon="6.14931">
        <ele>518</ele>
        <time>2021-03-06T21:23:19Z</time>
      </trkpt>
      <trkpt lat="47.0963" lon="6.14942">
        <ele>517</ele>
        <time>2021-03-06T21:23:23Z</time>
      </trkpt>
      <trkpt lat="47.09652" lon="6.1497">
        <ele>517</ele>
        <time>2021-03-06T21:23:29Z</time>
      </trkpt>
      <trkpt lat="47.09677" lon="6.15021">
        <ele>518</ele>
        <time>2021-03-06T21:23:39Z</time>
      </trkpt>
      <trkpt lat="47.09695" lon="6.15044">
        <ele>517</ele>
        <time>2021-03-06T21:23:45Z</time>
      </trkpt>
      <trkpt lat="47.09703" lon="6.15061">
        <ele>518</ele>
        <time>2021-03-06T21:23:48Z</time>
      </trkpt>
      <trkpt lat="47.09725" lon="6.15127">
        <ele>518</ele>
        <time>2021-03-06T21:24:00Z</time>
      </trkpt>
      <trkpt lat="47.09724" lon="6.1515">
        <ele>518</ele>
        <time>2021-03-06T21:24:04Z</time>
      </trkpt>
      <trkpt lat="47.09726" lon="6.15158">
        <ele>517</ele>
        <time>2021-03-06T21:24:05Z</time>
      </trkpt>
      <trkpt lat="47.09773" lon="6.15184">
        <ele>502</ele>
        <time>2021-03-06T21:24:17Z</time>
      </trkpt>
      <trkpt lat="47.09791" lon="6.15189">
        <ele>494</ele>
        <time>2021-03-06T21:24:21Z</time>
      </trkpt>
      <trkpt lat="47.09793" lon="6.15192">
        <ele>492</ele>
        <time>2021-03-06T21:24:22Z</time>
      </trkpt>
      <trkpt lat="47.09789" lon="6.1521">
        <ele>490</ele>
        <time>2021-03-06T21:24:25Z</time>
      </trkpt>
      <trkpt lat="47.09772" lon="6.15222">
        <ele>495</ele>
        <time>2021-03-06T21:24:29Z</time>
      </trkpt>
      <trkpt lat="47.09764" lon="6.15235">
        <ele>496</ele>
        <time>2021-03-06T21:24:32Z</time>
      </trkpt>
      <trkpt lat="47.09747" lon="6.15241">
        <ele>502</ele>
        <time>2021-03-06T21:24:36Z</time>
      </trkpt>
      <trkpt lat="47.09744" lon="6.15252">
        <ele>501</ele>
        <time>2021-03-06T21:24:38Z</time>
      </trkpt>
      <trkpt lat="47.09738" lon="6.15259">
        <ele>500</ele>
        <time>2021-03-06T21:24:40Z</time>
      </trkpt>
      <trkpt lat="47.09725" lon="6.15265">
        <ele>502</ele>
        <time>2021-03-06T21:24:43Z</time>
      </trkpt>
      <trkpt lat="47.0972" lon="6.15278">
        <ele>499</ele>
        <time>2021-03-06T21:24:45Z</time>
      </trkpt>
      <trkpt lat="47.09715" lon="6.15284">
        <ele>499</ele>
        <time>2021-03-06T21:24:47Z</time>
      </trkpt>
      <trkpt lat="47.09702" lon="6.15282">
        <ele>504</ele>
        <time>2021-03-06T21:24:50Z</time>
      </trkpt>
      <trkpt lat="47.09698" lon="6.15284">
        <ele>505</ele>
        <time>2021-03-06T21:24:51Z</time>
      </trkpt>
      <trkpt lat="47.0969" lon="6.15294">
        <ele>505</ele>
        <time>2021-03-06T21:24:53Z</time>
      </trkpt>
      <trkpt lat="47.09677" lon="6.15299">
        <ele>510</ele>
        <time>2021-03-06T21:24:56Z</time>
      </trkpt>
      <trkpt lat="47.09663" lon="6.15317">
        <ele>511</ele>
        <time>2021-03-06T21:25:01Z</time>
      </trkpt>
      <trkpt lat="47.09652" lon="6.15321">
        <ele>513</ele>
        <time>2021-03-06T21:25:03Z</time>
      </trkpt>
      <trkpt lat="47.09642" lon="6.15321">
        <ele>515</ele>
        <time>2021-03-06T21:25:06Z</time>
      </trkpt>
      <trkpt lat="47.09629" lon="6.15331">
        <ele>517</ele>
        <time>2021-03-06T21:25:09Z</time>
      </trkpt>
      <trkpt lat="47.09613" lon="6.1535">
        <ele>516</ele>
        <time>2021-03-06T21:25:14Z</time>
      </trkpt>
      <trkpt lat="47.09603" lon="6.15355">
        <ele>518</ele>
        <time>2021-03-06T21:25:16Z</time>
      </trkpt>
      <trkpt lat="47.09589" lon="6.15373">
        <ele>518</ele>
        <time>2021-03-06T21:25:21Z</time>
      </trkpt>
      <trkpt lat="47.09572" lon="6.15386">
        <ele>519</ele>
        <time>2021-03-06T21:25:25Z</time>
      </trkpt>
      <trkpt lat="47.09535" lon="6.15421">
        <ele>522</ele>
        <time>2021-03-06T21:25:35Z</time>
      </trkpt>
      <trkpt lat="47.09526" lon="6.15447">
        <ele>519</ele>
        <time>2021-03-06T21:25:40Z</time>
      </trkpt>
      <trkpt lat="47.09517" lon="6.15446">
        <ele>522</ele>
        <time>2021-03-06T21:25:42Z</time>
      </trkpt>
      <trkpt lat="47.09515" lon="6.15449">
        <ele>522</ele>
        <time>2021-03-06T21:25:43Z</time>
      </trkpt>
      <trkpt lat="47.095" lon="6.15452">
        <ele>526</ele>
        <time>2021-03-06T21:25:46Z</time>
      </trkpt>
      <trkpt lat="47.09484" lon="6.15459">
        <ele>527</ele>
        <time>2021-03-06T21:25:50Z</time>
      </trkpt>
      <trkpt lat="47.09453" lon="6.15464">
        <ele>530</ele>
        <time>2021-03-06T21:25:58Z</time>
      </trkpt>
      <trkpt lat="47.09454" lon="6.15458">
        <ele>531</ele>
        <time>2021-03-06T21:25:59Z</time>
      </trkpt>
      <trkpt lat="47.09451" lon="6.15443">
        <ele>533</ele>
        <time>2021-03-06T21:26:01Z</time>
      </trkpt>
      <trkpt lat="47.09442" lon="6.15423">
        <ele>535</ele>
        <time>2021-03-06T21:26:05Z</time>
      </trkpt>
      <trkpt lat="47.09433" lon="6.15412">
        <ele>536</ele>
        <time>2021-03-06T21:26:08Z</time>
      </trkpt>
      <trkpt lat="47.09423" lon="6.15405">
        <ele>537</ele>
        <time>2021-03-06T21:26:10Z</time>
      </trkpt>
      <trkpt lat="47.09402" lon="6.15372">
        <ele>539</ele>
        <time>2021-03-06T21:26:17Z</time>
      </trkpt>
      <trkpt lat="47.09389" lon="6.15343">
        <ele>541</ele>
        <time>2021-03-06T21:26:23Z</time>
      </trkpt>
      <trkpt lat="47.09378" lon="6.153">
        <ele>543</ele>
        <time>2021-03-06T21:26:30Z</time>
      </trkpt>
      <trkpt lat="47.09363" lon="6.15262">
        <ele>545</ele>
        <time>2021-03-06T21:26:37Z</time>
      </trkpt>
      <trkpt lat="47.09339" lon="6.15218">
        <ele>547</ele>
        <time>2021-03-06T21:26:46Z</time>
      </trkpt>
      <trkpt lat="47.09326" lon="6.15207">
        <ele>548</ele>
        <time>2021-03-06T21:26:50Z</time>
      </trkpt>
      <trkpt lat="47.09303" lon="6.15194">
        <ele>547</ele>
        <time>2021-03-06T21:26:55Z</time>
      </trkpt>
      <trkpt lat="47.09237" lon="6.15172">
        <ele>547</ele>
        <time>2021-03-06T21:27:11Z</time>
      </trkpt>
      <trkpt lat="47.09222" lon="6.15171">
        <ele>546</ele>
        <time>2021-03-06T21:27:15Z</time>
      </trkpt>
      <trkpt lat="47.09209" lon="6.15175">
        <ele>545</ele>
        <time>2021-03-06T21:27:18Z</time>
      </trkpt>
      <trkpt lat="47.09169" lon="6.152">
        <ele>544</ele>
        <time>2021-03-06T21:27:28Z</time>
      </trkpt>
      <trkpt lat="47.09155" lon="6.15205">
        <ele>544</ele>
        <time>2021-03-06T21:27:31Z</time>
      </trkpt>
      <trkpt lat="47.0907" lon="6.15222">
        <ele>545</ele>
        <time>2021-03-06T21:27:51Z</time>
      </trkpt>
      <trkpt lat="47.09043" lon="6.15222">
        <ele>545</ele>
        <time>2021-03-06T21:27:58Z</time>
      </trkpt>
      <trkpt lat="47.08985" lon="6.15229">
        <ele>544</ele>
        <time>2021-03-06T21:28:11Z</time>
      </trkpt>
      <trkpt lat="47.08941" lon="6.15228">
        <ele>544</ele>
        <time>2021-03-06T21:28:22Z</time>
      </trkpt>
      <trkpt lat="47.08884" lon="6.15209">
        <ele>543</ele>
        <time>2021-03-06T21:28:35Z</time>
      </trkpt>
      <trkpt lat="47.0884" lon="6.15186">
        <ele>542</ele>
        <time>2021-03-06T21:28:46Z</time>
      </trkpt>
      <trkpt lat="47.08797" lon="6.15149">
        <ele>543</ele>
        <time>2021-03-06T21:28:58Z</time>
      </trkpt>
      <trkpt lat="47.0876" lon="6.15123">
        <ele>544</ele>
        <time>2021-03-06T21:29:07Z</time>
      </trkpt>
      <trkpt lat="47.08705" lon="6.15099">
        <ele>546</ele>
        <time>2021-03-06T21:29:21Z</time>
      </trkpt>
      <trkpt lat="47.08648" lon="6.15069">
        <ele>548</ele>
        <time>2021-03-06T21:29:35Z</time>
      </trkpt>
      <trkpt lat="47.08468" lon="6.14941">
        <ele>558</ele>
        <time>2021-03-06T21:30:22Z</time>
      </trkpt>
      <trkpt lat="47.08422" lon="6.14913">
        <ele>561</ele>
        <time>2021-03-06T21:30:33Z</time>
      </trkpt>
      <trkpt lat="47.08355" lon="6.14864">
        <ele>565</ele>
        <time>2021-03-06T21:30:51Z</time>
      </trkpt>
      <trkpt lat="47.08126" lon="6.14713">
        <ele>574</ele>
        <time>2021-03-06T21:31:49Z</time>
      </trkpt>
      <trkpt lat="47.08122" lon="6.14705">
        <ele>574</ele>
        <time>2021-03-06T21:31:51Z</time>
      </trkpt>
      <trkpt lat="47.08139" lon="6.14671">
        <ele>575</ele>
        <time>2021-03-06T21:31:58Z</time>
      </trkpt>
      <trkpt lat="47.08142" lon="6.14638">
        <ele>576</ele>
        <time>2021-03-06T21:32:03Z</time>
      </trkpt>
      <trkpt lat="47.08145" lon="6.14633">
        <ele>576</ele>
        <time>2021-03-06T21:32:04Z</time>
      </trkpt>
      <trkpt lat="47.0817" lon="6.14612">
        <ele>576</ele>
        <time>2021-03-06T21:32:11Z</time>
      </trkpt>
      <trkpt lat="47.08185" lon="6.14577">
        <ele>576</ele>
        <time>2021-03-06T21:32:17Z</time>
      </trkpt>
      <trkpt lat="47.08209" lon="6.1455">
        <ele>574</ele>
        <time>2021-03-06T21:32:24Z</time>
      </trkpt>
      <trkpt lat="47.08237" lon="6.14512">
        <ele>573</ele>
        <time>2021-03-06T21:32:33Z</time>
      </trkpt>
      <trkpt lat="47.08245" lon="6.14506">
        <ele>572</ele>
        <time>2021-03-06T21:32:35Z</time>
      </trkpt>
      <trkpt lat="47.08267" lon="6.145">
        <ele>571</ele>
        <time>2021-03-06T21:32:41Z</time>
      </trkpt>
      <trkpt lat="47.08298" lon="6.14503">
        <ele>570</ele>
        <time>2021-03-06T21:32:48Z</time>
      </trkpt>
      <trkpt lat="47.08348" lon="6.14521">
        <ele>568</ele>
        <time>2021-03-06T21:33:00Z</time>
      </trkpt>
      <trkpt lat="47.08367" lon="6.14538">
        <ele>568</ele>
        <time>2021-03-06T21:33:05Z</time>
      </trkpt>
      <trkpt lat="47.08389" lon="6.14563">
        <ele>567</ele>
        <time>2021-03-06T21:33:12Z</time>
      </trkpt>
      <trkpt lat="47.08424" lon="6.14593">
        <ele>565</ele>
        <time>2021-03-06T21:33:21Z</time>
      </trkpt>
      <trkpt lat="47.08442" lon="6.14604">
        <ele>562</ele>
        <time>2021-03-06T21:33:26Z</time>
      </trkpt>
      <trkpt lat="47.08481" lon="6.14642">
        <ele>557</ele>
        <time>2021-03-06T21:33:36Z</time>
      </trkpt>
      <trkpt lat="47.08516" lon="6.14664">
        <ele>556</ele>
        <time>2021-03-06T21:33:45Z</time>
      </trkpt>
      <trkpt lat="47.08523" lon="6.14665">
        <ele>556</ele>
        <time>2021-03-06T21:33:47Z</time>
      </trkpt>
      <trkpt lat="47.08535" lon="6.14662">
        <ele>556</ele>
        <time>2021-03-06T21:33:50Z</time>
      </trkpt>
      <trkpt lat="47.08567" lon="6.14634">
        <ele>554</ele>
        <time>2021-03-06T21:33:59Z</time>
      </trkpt>
      <trkpt lat="47.08586" lon="6.14614">
        <ele>552</ele>
        <time>2021-03-06T21:34:04Z</time>
      </trkpt>
      <trkpt lat="47.08651" lon="6.14503">
        <ele>543</ele>
        <time>2021-03-06T21:34:27Z</time>
      </trkpt>
      <trkpt lat="47.08712" lon="6.14424">
        <ele>534</ele>
        <time>2021-03-06T21:34:46Z</time>
      </trkpt>
      <trkpt lat="47.08729" lon="6.1441">
        <ele>533</ele>
        <time>2021-03-06T21:34:51Z</time>
      </trkpt>
      <trkpt lat="47.08755" lon="6.14394">
        <ele>532</ele>
        <time>2021-03-06T21:34:57Z</time>
      </trkpt>
      <trkpt lat="47.08816" lon="6.14367">
        <ele>528</ele>
        <time>2021-03-06T21:35:12Z</time>
      </trkpt>
      <trkpt lat="47.08899" lon="6.14382">
        <ele>523</ele>
        <time>2021-03-06T21:35:32Z</time>
      </trkpt>
      <trkpt lat="47.08925" lon="6.14382">
        <ele>520</ele>
        <time>2021-03-06T21:35:38Z</time>
      </trkpt>
      <trkpt lat="47.08946" lon="6.14386">
        <ele>519</ele>
        <time>2021-03-06T21:35:43Z</time>
      </trkpt>
      <trkpt lat="47.08986" lon="6.14381">
        <ele>516</ele>
        <time>2021-03-06T21:35:52Z</time>
      </trkpt>
      <trkpt lat="47.09015" lon="6.14398">
        <ele>513</ele>
        <time>2021-03-06T21:36:00Z</time>
      </trkpt>
      <trkpt lat="47.09039" lon="6.14398">
        <ele>510</ele>
        <time>2021-03-06T21:36:05Z</time>
      </trkpt>
      <trkpt lat="47.09082" lon="6.14412">
        <ele>503</ele>
        <time>2021-03-06T21:36:15Z</time>
      </trkpt>
      <trkpt lat="47.09096" lon="6.14411">
        <ele>500</ele>
        <time>2021-03-06T21:36:19Z</time>
      </trkpt>
      <trkpt lat="47.09123" lon="6.14397">
        <ele>496</ele>
        <time>2021-03-06T21:36:25Z</time>
      </trkpt>
      <trkpt lat="47.09136" lon="6.14396">
        <ele>493</ele>
        <time>2021-03-06T21:36:28Z</time>
      </trkpt>
      <trkpt lat="47.09172" lon="6.14406">
        <ele>483</ele>
        <time>2021-03-06T21:36:37Z</time>
      </trkpt>
      <trkpt lat="47.09199" lon="6.14418">
        <ele>474</ele>
        <time>2021-03-06T21:36:44Z</time>
      </trkpt>
      <trkpt lat="47.09235" lon="6.1442">
        <ele>465</ele>
        <time>2021-03-06T21:36:52Z</time>
      </trkpt>
      <trkpt lat="47.0927" lon="6.14409">
        <ele>459</ele>
        <time>2021-03-06T21:37:00Z</time>
      </trkpt>
      <trkpt lat="47.09294" lon="6.14411">
        <ele>451</ele>
        <time>2021-03-06T21:37:06Z</time>
      </trkpt>
      <trkpt lat="47.09344" lon="6.14402">
        <ele>441</ele>
        <time>2021-03-06T21:37:18Z</time>
      </trkpt>
      <trkpt lat="47.09402" lon="6.14378">
        <ele>437</ele>
        <time>2021-03-06T21:37:32Z</time>
      </trkpt>
      <trkpt lat="47.0943" lon="6.1437">
        <ele>434</ele>
        <time>2021-03-06T21:37:38Z</time>
      </trkpt>
      <trkpt lat="47.09504" lon="6.14363">
        <ele>424</ele>
        <time>2021-03-06T21:37:56Z</time>
      </trkpt>
      <trkpt lat="47.09562" lon="6.14362">
        <ele>418</ele>
        <time>2021-03-06T21:38:09Z</time>
      </trkpt>
      <trkpt lat="47.09574" lon="6.14364">
        <ele>416</ele>
        <time>2021-03-06T21:38:12Z</time>
      </trkpt>
      <trkpt lat="47.09595" lon="6.14373">
        <ele>414</ele>
        <time>2021-03-06T21:38:17Z</time>
      </trkpt>
      <trkpt lat="47.09651" lon="6.14409">
        <ele>405</ele>
        <time>2021-03-06T21:38:31Z</time>
      </trkpt>
      <trkpt lat="47.09674" lon="6.14421">
        <ele>402</ele>
        <time>2021-03-06T21:38:37Z</time>
      </trkpt>
      <trkpt lat="47.09712" lon="6.14426">
        <ele>398</ele>
        <time>2021-03-06T21:38:46Z</time>
      </trkpt>
      <trkpt lat="47.09723" lon="6.14422">
        <ele>396</ele>
        <time>2021-03-06T21:38:49Z</time>
      </trkpt>
      <trkpt lat="47.09728" lon="6.1441">
        <ele>395</ele>
        <time>2021-03-06T21:38:51Z</time>
      </trkpt>
      <trkpt lat="47.09722" lon="6.14388">
        <ele>399</ele>
        <time>2021-03-06T21:38:55Z</time>
      </trkpt>
      <trkpt lat="47.09723" lon="6.14381">
        <ele>400</ele>
        <time>2021-03-06T21:38:56Z</time>
      </trkpt>
      <trkpt lat="47.09728" lon="6.14374">
        <ele>400</ele>
        <time>2021-03-06T21:38:58Z</time>
      </trkpt>
      <trkpt lat="47.09747" lon="6.14373">
        <ele>398</ele>
        <time>2021-03-06T21:39:02Z</time>
      </trkpt>
      <trkpt lat="47.09798" lon="6.14351">
        <ele>391</ele>
        <time>2021-03-06T21:39:14Z</time>
      </trkpt>
      <trkpt lat="47.09824" lon="6.14335">
        <ele>386</ele>
        <time>2021-03-06T21:39:21Z</time>
      </trkpt>
      <trkpt lat="47.09832" lon="6.14325">
        <ele>385</ele>
        <time>2021-03-06T21:39:23Z</time>
      </trkpt>
      <trkpt lat="47.0985" lon="6.14248">
        <ele>384</ele>
        <time>2021-03-06T21:39:36Z</time>
      </trkpt>
      <trkpt lat="47.09854" lon="6.14208">
        <ele>380</ele>
        <time>2021-03-06T21:39:43Z</time>
      </trkpt>
      <trkpt lat="47.09853" lon="6.14161">
        <ele>377</ele>
        <time>2021-03-06T21:39:50Z</time>
      </trkpt>
      <trkpt lat="47.0985" lon="6.1414">
        <ele>376</ele>
        <time>2021-03-06T21:39:54Z</time>
      </trkpt>
      <trkpt lat="47.0984" lon="6.14109">
        <ele>376</ele>
        <time>2021-03-06T21:39:59Z</time>
      </trkpt>
      <trkpt lat="47.09829" lon="6.14084">
        <ele>377</ele>
        <time>2021-03-06T21:40:04Z</time>
      </trkpt>
      <trkpt lat="47.09802" lon="6.14044">
        <ele>379</ele>
        <time>2021-03-06T21:40:13Z</time>
      </trkpt>
      <trkpt lat="47.09771" lon="6.14008">
        <ele>381</ele>
        <time>2021-03-06T21:40:22Z</time>
      </trkpt>
      <trkpt lat="47.09682" lon="6.13936">
        <ele>382</ele>
        <time>2021-03-06T21:40:46Z</time>
      </trkpt>
      <trkpt lat="47.09659" lon="6.13889">
        <ele>376</ele>
        <time>2021-03-06T21:40:55Z</time>
      </trkpt>
      <trkpt lat="47.09649" lon="6.13853">
        <ele>371</ele>
        <time>2021-03-06T21:41:01Z</time>
      </trkpt>
      <trkpt lat="47.09562" lon="6.13795">
        <ele>369</ele>
        <time>2021-03-06T21:41:23Z</time>
      </trkpt>
      <trkpt lat="47.09537" lon="6.13781">
        <ele>369</ele>
        <time>2021-03-06T21:41:30Z</time>
      </trkpt>
      <trkpt lat="47.09524" lon="6.13765">
        <ele>367</ele>
        <time>2021-03-06T21:41:34Z</time>
      </trkpt>
      <trkpt lat="47.09494" lon="6.1371">
        <ele>361</ele>
        <time>2021-03-06T21:41:45Z</time>
      </trkpt>
      <trkpt lat="47.09478" lon="6.13694">
        <ele>358</ele>
        <time>2021-03-06T21:41:49Z</time>
      </trkpt>
      <trkpt lat="47.0947" lon="6.13689">
        <ele>357</ele>
        <time>2021-03-06T21:41:51Z</time>
      </trkpt>
      <trkpt lat="47.09367" lon="6.13684">
        <ele>353</ele>
        <time>2021-03-06T21:42:16Z</time>
      </trkpt>
      <trkpt lat="47.09343" lon="6.13685">
        <ele>352</ele>
        <time>2021-03-06T21:42:21Z</time>
      </trkpt>
      <trkpt lat="47.09304" lon="6.13691">
        <ele>352</ele>
        <time>2021-03-06T21:42:30Z</time>
      </trkpt>
      <trkpt lat="47.09296" lon="6.13688">
        <ele>351</ele>
        <time>2021-03-06T21:42:32Z</time>
      </trkpt>
      <trkpt lat="47.09251" lon="6.13658">
        <ele>348</ele>
        <time>2021-03-06T21:42:44Z</time>
      </trkpt>
      <trkpt lat="47.09246" lon="6.13652">
        <ele>349</ele>
        <time>2021-03-06T21:42:45Z</time>
      </trkpt>
      <trkpt lat="47.09231" lon="6.13619">
        <ele>353</ele>
        <time>2021-03-06T21:42:52Z</time>
      </trkpt>
      <trkpt lat="47.09215" lon="6.13608">
        <ele>353</ele>
        <time>2021-03-06T21:42:56Z</time>
      </trkpt>
      <trkpt lat="47.09189" lon="6.13579">
        <ele>351</ele>
        <time>2021-03-06T21:43:03Z</time>
      </trkpt>
      <trkpt lat="47.09179" lon="6.13571">
        <ele>351</ele>
        <time>2021-03-06T21:43:06Z</time>
      </trkpt>
      <trkpt lat="47.09147" lon="6.13529">
        <ele>353</ele>
        <time>2021-03-06T21:43:16Z</time>
      </trkpt>
      <trkpt lat="47.09122" lon="6.13502">
        <ele>352</ele>
        <time>2021-03-06T21:43:23Z</time>
      </trkpt>
      <trkpt lat="47.09115" lon="6.13486">
        <ele>353</ele>
        <time>2021-03-06T21:43:26Z</time>
      </trkpt>
      <trkpt lat="47.09109" lon="6.13457">
        <ele>356</ele>
        <time>2021-03-06T21:43:31Z</time>
      </trkpt>
      <trkpt lat="47.09098" lon="6.13426">
        <ele>358</ele>
        <time>2021-03-06T21:43:37Z</time>
      </trkpt>
      <trkpt lat="47.09089" lon="6.13412">
        <ele>359</ele>
        <time>2021-03-06T21:43:40Z</time>
      </trkpt>
      <trkpt lat="47.09078" lon="6.13402">
        <ele>358</ele>
        <time>2021-03-06T21:43:43Z</time>
      </trkpt>
      <trkpt lat="47.09069" lon="6.13387">
        <ele>359</ele>
        <time>2021-03-06T21:43:46Z</time>
      </trkpt>
      <trkpt lat="47.09044" lon="6.13358">
        <ele>360</ele>
        <time>2021-03-06T21:43:53Z</time>
      </trkpt>
      <trkpt lat="47.0901" lon="6.13309">
        <ele>362</ele>
        <time>2021-03-06T21:44:04Z</time>
      </trkpt>
      <trkpt lat="47.08989" lon="6.1326">
        <ele>365</ele>
        <time>2021-03-06T21:44:14Z</time>
      </trkpt>
      <trkpt lat="47.08966" lon="6.13224">
        <ele>367</ele>
        <time>2021-03-06T21:44:22Z</time>
      </trkpt>
      <trkpt lat="47.08967" lon="6.13218">
        <ele>368</ele>
        <time>2021-03-06T21:44:23Z</time>
      </trkpt>
      <trkpt lat="47.09011" lon="6.13258">
        <ele>369</ele>
        <time>2021-03-06T21:44:35Z</time>
      </trkpt>
      <trkpt lat="47.09071" lon="6.13319">
        <ele>368</ele>
        <time>2021-03-06T21:44:52Z</time>
      </trkpt>
      <trkpt lat="47.09113" lon="6.13352">
        <ele>371</ele>
        <time>2021-03-06T21:45:03Z</time>
      </trkpt>
      <trkpt lat="47.09151" lon="6.13396">
        <ele>372</ele>
        <time>2021-03-06T21:45:14Z</time>
      </trkpt>
      <trkpt lat="47.09187" lon="6.13417">
        <ele>374</ele>
        <time>2021-03-06T21:45:23Z</time>
      </trkpt>
      <trkpt lat="47.09221" lon="6.13447">
        <ele>373</ele>
        <time>2021-03-06T21:45:32Z</time>
      </trkpt>
      <trkpt lat="47.09254" lon="6.13465">
        <ele>375</ele>
        <time>2021-03-06T21:45:41Z</time>
      </trkpt>
      <trkpt lat="47.09285" lon="6.13478">
        <ele>374</ele>
        <time>2021-03-06T21:45:48Z</time>
      </trkpt>
      <trkpt lat="47.09341" lon="6.13496">
        <ele>373</ele>
        <time>2021-03-06T21:46:02Z</time>
      </trkpt>
      <trkpt lat="47.09371" lon="6.135">
        <ele>371</ele>
        <time>2021-03-06T21:46:09Z</time>
      </trkpt>
      <trkpt lat="47.09409" lon="6.13497">
        <ele>370</ele>
        <time>2021-03-06T21:46:17Z</time>
      </trkpt>
      <trkpt lat="47.09455" lon="6.135">
        <ele>369</ele>
        <time>2021-03-06T21:46:28Z</time>
      </trkpt>
      <trkpt lat="47.09493" lon="6.13508">
        <ele>368</ele>
        <time>2021-03-06T21:46:37Z</time>
      </trkpt>
      <trkpt lat="47.09532" lon="6.13506">
        <ele>367</ele>
        <time>2021-03-06T21:46:46Z</time>
      </trkpt>
      <trkpt lat="47.09583" lon="6.13515">
        <ele>364</ele>
        <time>2021-03-06T21:46:58Z</time>
      </trkpt>
      <trkpt lat="47.09622" lon="6.13533">
        <ele>358</ele>
        <time>2021-03-06T21:47:08Z</time>
      </trkpt>
      <trkpt lat="47.09636" lon="6.13537">
        <ele>357</ele>
        <time>2021-03-06T21:47:11Z</time>
      </trkpt>
      <trkpt lat="47.09704" lon="6.13538">
        <ele>355</ele>
        <time>2021-03-06T21:47:27Z</time>
      </trkpt>
      <trkpt lat="47.09747" lon="6.13546">
        <ele>354</ele>
        <time>2021-03-06T21:47:37Z</time>
      </trkpt>
      <trkpt lat="47.09833" lon="6.13552">
        <ele>352</ele>
        <time>2021-03-06T21:47:57Z</time>
      </trkpt>
      <trkpt lat="47.09872" lon="6.1356">
        <ele>352</ele>
        <time>2021-03-06T21:48:06Z</time>
      </trkpt>
      <trkpt lat="47.09905" lon="6.13563">
        <ele>352</ele>
        <time>2021-03-06T21:48:14Z</time>
      </trkpt>
      <trkpt lat="47.09912" lon="6.13559">
        <ele>352</ele>
        <time>2021-03-06T21:48:16Z</time>
      </trkpt>
      <trkpt lat="47.09912" lon="6.13551">
        <ele>353</ele>
        <time>2021-03-06T21:48:17Z</time>
      </trkpt>
      <trkpt lat="47.09873" lon="6.13484">
        <ele>357</ele>
        <time>2021-03-06T21:48:31Z</time>
      </trkpt>
      <trkpt lat="47.09853" lon="6.13467">
        <ele>358</ele>
        <time>2021-03-06T21:48:37Z</time>
      </trkpt>
      <trkpt lat="47.09817" lon="6.13452">
        <ele>359</ele>
        <time>2021-03-06T21:48:45Z</time>
      </trkpt>
      <trkpt lat="47.09809" lon="6.13445">
        <ele>359</ele>
        <time>2021-03-06T21:48:48Z</time>
      </trkpt>
      <trkpt lat="47.09794" lon="6.1344">
        <ele>360</ele>
        <time>2021-03-06T21:48:51Z</time>
      </trkpt>
      <trkpt lat="47.09784" lon="6.13433">
        <ele>360</ele>
        <time>2021-03-06T21:48:54Z</time>
      </trkpt>
      <trkpt lat="47.09746" lon="6.13416">
        <ele>361</ele>
        <time>2021-03-06T21:49:03Z</time>
      </trkpt>
      <trkpt lat="47.09736" lon="6.13407">
        <ele>363</ele>
        <time>2021-03-06T21:49:06Z</time>
      </trkpt>
      <trkpt lat="47.09733" lon="6.13398">
        <ele>364</ele>
        <time>2021-03-06T21:49:07Z</time>
      </trkpt>
      <trkpt lat="47.09735" lon="6.13386">
        <ele>366</ele>
        <time>2021-03-06T21:49:09Z</time>
      </trkpt>
      <trkpt lat="47.09765" lon="6.13338">
        <ele>366</ele>
        <time>2021-03-06T21:49:20Z</time>
      </trkpt>
      <trkpt lat="47.09854" lon="6.13172">
        <ele>365</ele>
        <time>2021-03-06T21:49:53Z</time>
      </trkpt>
      <trkpt lat="47.09879" lon="6.13114">
        <ele>365</ele>
        <time>2021-03-06T21:50:04Z</time>
      </trkpt>
      <trkpt lat="47.0988" lon="6.13099">
        <ele>365</ele>
        <time>2021-03-06T21:50:07Z</time>
      </trkpt>
      <trkpt lat="47.09878" lon="6.13095">
        <ele>366</ele>
        <time>2021-03-06T21:50:07Z</time>
      </trkpt>
      <trkpt lat="47.09833" lon="6.13066">
        <ele>369</ele>
        <time>2021-03-06T21:50:19Z</time>
      </trkpt>
      <trkpt lat="47.09818" lon="6.13072">
        <ele>374</ele>
        <time>2021-03-06T21:50:22Z</time>
      </trkpt>
      <trkpt lat="47.0981" lon="6.13087">
        <ele>376</ele>
        <time>2021-03-06T21:50:26Z</time>
      </trkpt>
      <trkpt lat="47.09784" lon="6.1316">
        <ele>381</ele>
        <time>2021-03-06T21:50:39Z</time>
      </trkpt>
      <trkpt lat="47.09771" lon="6.13171">
        <ele>385</ele>
        <time>2021-03-06T21:50:42Z</time>
      </trkpt>
      <trkpt lat="47.09763" lon="6.13168">
        <ele>387</ele>
        <time>2021-03-06T21:50:44Z</time>
      </trkpt>
      <trkpt lat="47.09758" lon="6.13156">
        <ele>389</ele>
        <time>2021-03-06T21:50:46Z</time>
      </trkpt>
      <trkpt lat="47.09756" lon="6.13054">
        <ele>393</ele>
        <time>2021-03-06T21:51:03Z</time>
      </trkpt>
      <trkpt lat="47.09749" lon="6.13016">
        <ele>397</ele>
        <time>2021-03-06T21:51:09Z</time>
      </trkpt>
      <trkpt lat="47.09742" lon="6.12996">
        <ele>402</ele>
        <time>2021-03-06T21:51:12Z</time>
      </trkpt>
      <trkpt lat="47.09742" lon="6.12984">
        <ele>402</ele>
        <time>2021-03-06T21:51:14Z</time>
      </trkpt>
      <trkpt lat="47.09717" lon="6.12897">
        <ele>410</ele>
        <time>2021-03-06T21:51:29Z</time>
      </trkpt>
      <trkpt lat="47.09711" lon="6.12887">
        <ele>412</ele>
        <time>2021-03-06T21:51:31Z</time>
      </trkpt>
      <trkpt lat="47.09701" lon="6.12859">
        <ele>414</ele>
        <time>2021-03-06T21:51:36Z</time>
      </trkpt>
      <trkpt lat="47.09689" lon="6.12837">
        <ele>416</ele>
        <time>2021-03-06T21:51:41Z</time>
      </trkpt>
      <trkpt lat="47.0968" lon="6.1281">
        <ele>417</ele>
        <time>2021-03-06T21:51:46Z</time>
      </trkpt>
      <trkpt lat="47.09671" lon="6.12801">
        <ele>420</ele>
        <time>2021-03-06T21:51:48Z</time>
      </trkpt>
      <trkpt lat="47.09666" lon="6.12808">
        <ele>423</ele>
        <time>2021-03-06T21:51:50Z</time>
      </trkpt>
      <trkpt lat="47.09669" lon="6.12832">
        <ele>424</ele>
        <time>2021-03-06T21:51:54Z</time>
      </trkpt>
      <trkpt lat="47.09666" lon="6.12851">
        <ele>427</ele>
        <time>2021-03-06T21:51:57Z</time>
      </trkpt>
      <trkpt lat="47.09666" lon="6.12871">
        <ele>429</ele>
        <time>2021-03-06T21:52:00Z</time>
      </trkpt>
      <trkpt lat="47.09675" lon="6.12975">
        <ele>431</ele>
        <time>2021-03-06T21:52:17Z</time>
      </trkpt>
      <trkpt lat="47.09674" lon="6.13013">
        <ele>431</ele>
        <time>2021-03-06T21:52:23Z</time>
      </trkpt>
      <trkpt lat="47.09668" lon="6.13062">
        <ele>430</ele>
        <time>2021-03-06T21:52:31Z</time>
      </trkpt>
      <trkpt lat="47.09665" lon="6.13069">
        <ele>431</ele>
        <time>2021-03-06T21:52:32Z</time>
      </trkpt>
      <trkpt lat="47.0966" lon="6.13073">
        <ele>434</ele>
        <time>2021-03-06T21:52:33Z</time>
      </trkpt>
      <trkpt lat="47.09654" lon="6.13071">
        <ele>438</ele>
        <time>2021-03-06T21:52:35Z</time>
      </trkpt>
      <trkpt lat="47.09657" lon="6.13052">
        <ele>437</ele>
        <time>2021-03-06T21:52:38Z</time>
      </trkpt>
      <trkpt lat="47.09657" lon="6.1302">
        <ele>439</ele>
        <time>2021-03-06T21:52:43Z</time>
      </trkpt>
      <trkpt lat="47.0965" lon="6.12996">
        <ele>445</ele>
        <time>2021-03-06T21:52:47Z</time>
      </trkpt>
      <trkpt lat="47.09651" lon="6.12984">
        <ele>444</ele>
        <time>2021-03-06T21:52:49Z</time>
      </trkpt>
      <trkpt lat="47.09646" lon="6.12977">
        <ele>446</ele>
        <time>2021-03-06T21:52:51Z</time>
      </trkpt>
      <trkpt lat="47.09636" lon="6.12948">
        <ele>450</ele>
        <time>2021-03-06T21:52:56Z</time>
      </trkpt>
      <trkpt lat="47.09628" lon="6.12933">
        <ele>454</ele>
        <time>2021-03-06T21:52:59Z</time>
      </trkpt>
      <trkpt lat="47.09622" lon="6.12904">
        <ele>454</ele>
        <time>2021-03-06T21:53:04Z</time>
      </trkpt>
      <trkpt lat="47.09615" lon="6.12896">
        <ele>457</ele>
        <time>2021-03-06T21:53:06Z</time>
      </trkpt>
      <trkpt lat="47.09612" lon="6.12875">
        <ele>456</ele>
        <time>2021-03-06T21:53:09Z</time>
      </trkpt>
      <trkpt lat="47.09587" lon="6.12816">
        <ele>461</ele>
        <time>2021-03-06T21:53:20Z</time>
      </trkpt>
      <trkpt lat="47.09586" lon="6.12808">
        <ele>460</ele>
        <time>2021-03-06T21:53:21Z</time>
      </trkpt>
      <trkpt lat="47.09572" lon="6.12783">
        <ele>466</ele>
        <time>2021-03-06T21:53:27Z</time>
      </trkpt>
      <trkpt lat="47.09558" lon="6.12739">
        <ele>469</ele>
        <time>2021-03-06T21:53:34Z</time>
      </trkpt>
      <trkpt lat="47.09549" lon="6.12729">
        <ele>472</ele>
        <time>2021-03-06T21:53:37Z</time>
      </trkpt>
      <trkpt lat="47.09542" lon="6.12702">
        <ele>472</ele>
        <time>2021-03-06T21:53:42Z</time>
      </trkpt>
      <trkpt lat="47.09533" lon="6.12691">
        <ele>476</ele>
        <time>2021-03-06T21:53:44Z</time>
      </trkpt>
      <trkpt lat="47.09531" lon="6.12683">
        <ele>476</ele>
        <time>2021-03-06T21:53:46Z</time>
      </trkpt>
      <trkpt lat="47.09522" lon="6.1267">
        <ele>479</ele>
        <time>2021-03-06T21:53:49Z</time>
      </trkpt>
      <trkpt lat="47.09514" lon="6.12642">
        <ele>478</ele>
        <time>2021-03-06T21:53:53Z</time>
      </trkpt>
      <trkpt lat="47.09497" lon="6.12606">
        <ele>481</ele>
        <time>2021-03-06T21:54:00Z</time>
      </trkpt>
      <trkpt lat="47.09495" lon="6.12591">
        <ele>480</ele>
        <time>2021-03-06T21:54:03Z</time>
      </trkpt>
      <trkpt lat="47.09492" lon="6.12586">
        <ele>480</ele>
        <time>2021-03-06T21:54:04Z</time>
      </trkpt>
      <trkpt lat="47.09487" lon="6.12584">
        <ele>482</ele>
        <time>2021-03-06T21:54:05Z</time>
      </trkpt>
      <trkpt lat="47.09486" lon="6.12576">
        <ele>482</ele>
        <time>2021-03-06T21:54:06Z</time>
      </trkpt>
      <trkpt lat="47.09476" lon="6.12559">
        <ele>486</ele>
        <time>2021-03-06T21:54:10Z</time>
      </trkpt>
      <trkpt lat="47.09463" lon="6.12526">
        <ele>489</ele>
        <time>2021-03-06T21:54:16Z</time>
      </trkpt>
      <trkpt lat="47.09447" lon="6.12499">
        <ele>494</ele>
        <time>2021-03-06T21:54:22Z</time>
      </trkpt>
      <trkpt lat="47.09447" lon="6.12525">
        <ele>496</ele>
        <time>2021-03-06T21:54:26Z</time>
      </trkpt>
      <trkpt lat="47.09442" lon="6.12551">
        <ele>500</ele>
        <time>2021-03-06T21:54:30Z</time>
      </trkpt>
      <trkpt lat="47.09454" lon="6.12595">
        <ele>498</ele>
        <time>2021-03-06T21:54:38Z</time>
      </trkpt>
      <trkpt lat="47.09458" lon="6.12624">
        <ele>501</ele>
        <time>2021-03-06T21:54:42Z</time>
      </trkpt>
      <trkpt lat="47.09469" lon="6.12642">
        <ele>498</ele>
        <time>2021-03-06T21:54:46Z</time>
      </trkpt>
      <trkpt lat="47.09476" lon="6.1266">
        <ele>498</ele>
        <time>2021-03-06T21:54:49Z</time>
      </trkpt>
      <trkpt lat="47.09474" lon="6.12682">
        <ele>502</ele>
        <time>2021-03-06T21:54:53Z</time>
      </trkpt>
      <trkpt lat="47.09492" lon="6.12751">
        <ele>505</ele>
        <time>2021-03-06T21:55:05Z</time>
      </trkpt>
      <trkpt lat="47.09504" lon="6.1285">
        <ele>516</ele>
        <time>2021-03-06T21:55:21Z</time>
      </trkpt>
      <trkpt lat="47.0953" lon="6.12935">
        <ele>510</ele>
        <time>2021-03-06T21:55:36Z</time>
      </trkpt>
      <trkpt lat="47.09548" lon="6.13026">
        <ele>503</ele>
        <time>2021-03-06T21:55:51Z</time>
      </trkpt>
      <trkpt lat="47.09546" lon="6.13079">
        <ele>501</ele>
        <time>2021-03-06T21:55:59Z</time>
      </trkpt>
      <trkpt lat="47.09539" lon="6.13083">
        <ele>504</ele>
        <time>2021-03-06T21:56:01Z</time>
      </trkpt>
      <trkpt lat="47.09527" lon="6.13069">
        <ele>511</ele>
        <time>2021-03-06T21:56:04Z</time>
      </trkpt>
      <trkpt lat="47.09503" lon="6.13055">
        <ele>525</ele>
        <time>2021-03-06T21:56:10Z</time>
      </trkpt>
      <trkpt lat="47.09493" lon="6.13044">
        <ele>529</ele>
        <time>2021-03-06T21:56:13Z</time>
      </trkpt>
      <trkpt lat="47.09482" lon="6.13037">
        <ele>531</ele>
        <time>2021-03-06T21:56:16Z</time>
      </trkpt>
      <trkpt lat="47.09461" lon="6.13032">
        <ele>534</ele>
        <time>2021-03-06T21:56:21Z</time>
      </trkpt>
      <trkpt lat="47.09445" lon="6.13039">
        <ele>536</ele>
        <time>2021-03-06T21:56:25Z</time>
      </trkpt>
      <trkpt lat="47.0944" lon="6.1305">
        <ele>536</ele>
        <time>2021-03-06T21:56:27Z</time>
      </trkpt>
      <trkpt lat="47.09436" lon="6.13053">
        <ele>536</ele>
        <time>2021-03-06T21:56:28Z</time>
      </trkpt>
      <trkpt lat="47.09427" lon="6.13054">
        <ele>538</ele>
        <time>2021-03-06T21:56:30Z</time>
      </trkpt>
      <trkpt lat="47.09408" lon="6.13046">
        <ele>540</ele>
        <time>2021-03-06T21:56:35Z</time>
      </trkpt>
      <trkpt lat="47.09405" lon="6.13041">
        <ele>540</ele>
        <time>2021-03-06T21:56:36Z</time>
      </trkpt>
      <trkpt lat="47.09407" lon="6.13019">
        <ele>541</ele>
        <time>2021-03-06T21:56:40Z</time>
      </trkpt>
      <trkpt lat="47.09404" lon="6.12943">
        <ele>543</ele>
        <time>2021-03-06T21:56:52Z</time>
      </trkpt>
      <trkpt lat="47.09364" lon="6.12835">
        <ele>540</ele>
        <time>2021-03-06T21:57:11Z</time>
      </trkpt>
      <trkpt lat="47.09339" lon="6.1278">
        <ele>542</ele>
        <time>2021-03-06T21:57:22Z</time>
      </trkpt>
      <trkpt lat="47.0931" lon="6.12706">
        <ele>543</ele>
        <time>2021-03-06T21:57:35Z</time>
      </trkpt>
      <trkpt lat="47.09285" lon="6.1267">
        <ele>543</ele>
        <time>2021-03-06T21:57:43Z</time>
      </trkpt>
      <trkpt lat="47.09264" lon="6.1263">
        <ele>542</ele>
        <time>2021-03-06T21:57:51Z</time>
      </trkpt>
      <trkpt lat="47.09256" lon="6.12598">
        <ele>541</ele>
        <time>2021-03-06T21:57:57Z</time>
      </trkpt>
      <trkpt lat="47.09242" lon="6.12565">
        <ele>541</ele>
        <time>2021-03-06T21:58:03Z</time>
      </trkpt>
      <trkpt lat="47.09195" lon="6.12494">
        <ele>546</ele>
        <time>2021-03-06T21:58:19Z</time>
      </trkpt>
      <trkpt lat="47.09158" lon="6.12409">
        <ele>544</ele>
        <time>2021-03-06T21:58:35Z</time>
      </trkpt>
      <trkpt lat="47.09142" lon="6.1238">
        <ele>544</ele>
        <time>2021-03-06T21:58:41Z</time>
      </trkpt>
      <trkpt lat="47.09117" lon="6.12323">
        <ele>544</ele>
        <time>2021-03-06T21:58:52Z</time>
      </trkpt>
      <trkpt lat="47.09119" lon="6.12315">
        <ele>544</ele>
        <time>2021-03-06T21:58:53Z</time>
      </trkpt>
      <trkpt lat="47.09125" lon="6.12312">
        <ele>543</ele>
        <time>2021-03-06T21:58:54Z</time>
      </trkpt>
      <trkpt lat="47.09137" lon="6.12312">
        <ele>542</ele>
        <time>2021-03-06T21:58:57Z</time>
      </trkpt>
      <trkpt lat="47.09245" lon="6.1229">
        <ele>534</ele>
        <time>2021-03-06T21:59:23Z</time>
      </trkpt>
      <trkpt lat="47.09276" lon="6.12287">
        <ele>533</ele>
        <time>2021-03-06T21:59:30Z</time>
      </trkpt>
      <trkpt lat="47.0929" lon="6.12278">
        <ele>533</ele>
        <time>2021-03-06T21:59:34Z</time>
      </trkpt>
      <trkpt lat="47.09316" lon="6.12247">
        <ele>532</ele>
        <time>2021-03-06T21:59:41Z</time>
      </trkpt>
      <trkpt lat="47.09339" lon="6.12232">
        <ele>531</ele>
        <time>2021-03-06T21:59:47Z</time>
      </trkpt>
      <trkpt lat="47.09389" lon="6.12214">
        <ele>528</ele>
        <time>2021-03-06T21:59:59Z</time>
      </trkpt>
      <trkpt lat="47.09414" lon="6.12216">
        <ele>527</ele>
        <time>2021-03-06T22:00:05Z</time>
      </trkpt>
      <trkpt lat="47.0946" lon="6.12233">
        <ele>521</ele>
        <time>2021-03-06T22:00:16Z</time>
      </trkpt>
      <trkpt lat="47.09465" lon="6.12232">
        <ele>520</ele>
        <time>2021-03-06T22:00:17Z</time>
      </trkpt>
      <trkpt lat="47.09476" lon="6.12218">
        <ele>519</ele>
        <time>2021-03-06T22:00:21Z</time>
      </trkpt>
      <trkpt lat="47.09491" lon="6.12212">
        <ele>517</ele>
        <time>2021-03-06T22:00:24Z</time>
      </trkpt>
      <trkpt lat="47.09505" lon="6.12189">
        <ele>516</ele>
        <time>2021-03-06T22:00:29Z</time>
      </trkpt>
      <trkpt lat="47.0953" lon="6.1217">
        <ele>516</ele>
        <time>2021-03-06T22:00:36Z</time>
      </trkpt>
      <trkpt lat="47.0955" lon="6.12167">
        <ele>516</ele>
        <time>2021-03-06T22:00:41Z</time>
      </trkpt>
      <trkpt lat="47.09584" lon="6.12145">
        <ele>516</ele>
        <time>2021-03-06T22:00:49Z</time>
      </trkpt>
      <trkpt lat="47.09609" lon="6.12135">
        <ele>515</ele>
        <time>2021-03-06T22:00:55Z</time>
      </trkpt>
      <trkpt lat="47.09658" lon="6.12131">
        <ele>513</ele>
        <time>2021-03-06T22:01:07Z</time>
      </trkpt>
      <trkpt lat="47.09711" lon="6.1211">
        <ele>512</ele>
        <time>2021-03-06T22:01:20Z</time>
      </trkpt>
      <trkpt lat="47.09732" lon="6.12098">
        <ele>512</ele>
        <time>2021-03-06T22:01:25Z</time>
      </trkpt>
      <trkpt lat="47.09758" lon="6.12079">
        <ele>512</ele>
        <time>2021-03-06T22:01:32Z</time>
      </trkpt>
      <trkpt lat="47.09764" lon="6.12072">
        <ele>512</ele>
        <time>2021-03-06T22:01:33Z</time>
      </trkpt>
      <trkpt lat="47.09783" lon="6.12039">
        <ele>512</ele>
        <time>2021-03-06T22:01:40Z</time>
      </trkpt>
      <trkpt lat="47.09797" lon="6.12009">
        <ele>512</ele>
        <time>2021-03-06T22:01:46Z</time>
      </trkpt>
      <trkpt lat="47.09806" lon="6.12001">
        <ele>512</ele>
        <time>2021-03-06T22:01:49Z</time>
      </trkpt>
      <trkpt lat="47.09824" lon="6.11997">
        <ele>513</ele>
        <time>2021-03-06T22:01:53Z</time>
      </trkpt>
      <trkpt lat="47.09834" lon="6.1199">
        <ele>513</ele>
        <time>2021-03-06T22:01:55Z</time>
      </trkpt>
      <trkpt lat="47.09881" lon="6.11934">
        <ele>513</ele>
        <time>2021-03-06T22:02:10Z</time>
      </trkpt>
      <trkpt lat="47.09924" lon="6.11905">
        <ele>513</ele>
        <time>2021-03-06T22:02:21Z</time>
      </trkpt>
      <trkpt lat="47.0995" lon="6.11884">
        <ele>512</ele>
        <time>2021-03-06T22:02:28Z</time>
      </trkpt>
      <trkpt lat="47.10002" lon="6.11857">
        <ele>510</ele>
        <time>2021-03-06T22:02:40Z</time>
      </trkpt>
      <trkpt lat="47.10029" lon="6.1184">
        <ele>511</ele>
        <time>2021-03-06T22:02:47Z</time>
      </trkpt>
      <trkpt lat="47.10065" lon="6.11805">
        <ele>512</ele>
        <time>2021-03-06T22:02:57Z</time>
      </trkpt>
      <trkpt lat="47.10071" lon="6.11795">
        <ele>512</ele>
        <time>2021-03-06T22:02:59Z</time>
      </trkpt>
      <trkpt lat="47.1008" lon="6.11766">
        <ele>512</ele>
        <time>2021-03-06T22:03:05Z</time>
      </trkpt>
      <trkpt lat="47.10102" lon="6.11756">
        <ele>512</ele>
        <time>2021-03-06T22:03:10Z</time>
      </trkpt>
      <trkpt lat="47.10133" lon="6.11759">
        <ele>513</ele>
        <time>2021-03-06T22:03:17Z</time>
      </trkpt>
      <trkpt lat="47.10158" lon="6.1173">
        <ele>512</ele>
        <time>2021-03-06T22:03:25Z</time>
      </trkpt>
      <trkpt lat="47.10186" lon="6.11707">
        <ele>510</ele>
        <time>2021-03-06T22:03:32Z</time>
      </trkpt>
      <trkpt lat="47.10197" lon="6.11707">
        <ele>510</ele>
        <time>2021-03-06T22:03:35Z</time>
      </trkpt>
      <trkpt lat="47.10225" lon="6.11721">
        <ele>510</ele>
        <time>2021-03-06T22:03:42Z</time>
      </trkpt>
      <trkpt lat="47.1025" lon="6.11748">
        <ele>511</ele>
        <time>2021-03-06T22:03:49Z</time>
      </trkpt>
      <trkpt lat="47.10286" lon="6.11757">
        <ele>509</ele>
        <time>2021-03-06T22:03:57Z</time>
      </trkpt>
      <trkpt lat="47.10294" lon="6.11762">
        <ele>508</ele>
        <time>2021-03-06T22:03:59Z</time>
      </trkpt>
      <trkpt lat="47.10308" lon="6.11766">
        <ele>508</ele>
        <time>2021-03-06T22:04:03Z</time>
      </trkpt>
      <trkpt lat="47.10318" lon="6.11774">
        <ele>507</ele>
        <time>2021-03-06T22:04:05Z</time>
      </trkpt>
      <trkpt lat="47.10345" lon="6.11813">
        <ele>500</ele>
        <time>2021-03-06T22:04:14Z</time>
      </trkpt>
      <trkpt lat="47.10357" lon="6.11822">
        <ele>493</ele>
        <time>2021-03-06T22:04:17Z</time>
      </trkpt>
      <trkpt lat="47.1036" lon="6.11856">
        <ele>485</ele>
        <time>2021-03-06T22:04:23Z</time>
      </trkpt>
      <trkpt lat="47.10374" lon="6.11875">
        <ele>472</ele>
        <time>2021-03-06T22:04:27Z</time>
      </trkpt>
      <trkpt lat="47.10362" lon="6.1186">
        <ele>483</ele>
        <time>2021-03-06T22:04:31Z</time>
      </trkpt>
      <trkpt lat="47.10358" lon="6.11831">
        <ele>492</ele>
        <time>2021-03-06T22:04:36Z</time>
      </trkpt>
      <trkpt lat="47.10365" lon="6.11787">
        <ele>490</ele>
        <time>2021-03-06T22:04:43Z</time>
      </trkpt>
      <trkpt lat="47.10365" lon="6.11767">
        <ele>490</ele>
        <time>2021-03-06T22:04:46Z</time>
      </trkpt>
      <trkpt lat="47.10357" lon="6.11725">
        <ele>493</ele>
        <time>2021-03-06T22:04:53Z</time>
      </trkpt>
      <trkpt lat="47.10352" lon="6.11676">
        <ele>492</ele>
        <time>2021-03-06T22:05:01Z</time>
      </trkpt>
      <trkpt lat="47.10294" lon="6.11504">
        <ele>487</ele>
        <time>2021-03-06T22:05:31Z</time>
      </trkpt>
      <trkpt lat="47.10272" lon="6.1142">
        <ele>481</ele>
        <time>2021-03-06T22:05:46Z</time>
      </trkpt>
      <trkpt lat="47.10263" lon="6.11399">
        <ele>483</ele>
        <time>2021-03-06T22:05:50Z</time>
      </trkpt>
      <trkpt lat="47.10257" lon="6.11375">
        <ele>485</ele>
        <time>2021-03-06T22:05:54Z</time>
      </trkpt>
      <trkpt lat="47.10264" lon="6.11361">
        <ele>485</ele>
        <time>2021-03-06T22:05:56Z</time>
      </trkpt>
      <trkpt lat="47.10276" lon="6.11351">
        <ele>485</ele>
        <time>2021-03-06T22:06:00Z</time>
      </trkpt>
      <trkpt lat="47.10292" lon="6.11343">
        <ele>485</ele>
        <time>2021-03-06T22:06:04Z</time>
      </trkpt>
      <trkpt lat="47.10303" lon="6.11341">
        <ele>485</ele>
        <time>2021-03-06T22:06:06Z</time>
      </trkpt>
      <trkpt lat="47.10324" lon="6.11331">
        <ele>486</ele>
        <time>2021-03-06T22:06:11Z</time>
      </trkpt>
      <trkpt lat="47.10344" lon="6.11325">
        <ele>486</ele>
        <time>2021-03-06T22:06:16Z</time>
      </trkpt>
      <trkpt lat="47.10361" lon="6.11326">
        <ele>485</ele>
        <time>2021-03-06T22:06:20Z</time>
      </trkpt>
      <trkpt lat="47.10392" lon="6.11323">
        <ele>485</ele>
        <time>2021-03-06T22:06:27Z</time>
      </trkpt>
      <trkpt lat="47.10421" lon="6.1131">
        <ele>485</ele>
        <time>2021-03-06T22:06:34Z</time>
      </trkpt>
      <trkpt lat="47.10433" lon="6.11298">
        <ele>486</ele>
        <time>2021-03-06T22:06:38Z</time>
      </trkpt>
      <trkpt lat="47.10451" lon="6.11266">
        <ele>488</ele>
        <time>2021-03-06T22:06:44Z</time>
      </trkpt>
      <trkpt lat="47.10465" lon="6.11223">
        <ele>490</ele>
        <time>2021-03-06T22:06:52Z</time>
      </trkpt>
      <trkpt lat="47.10507" lon="6.11117">
        <ele>494</ele>
        <time>2021-03-06T22:07:11Z</time>
      </trkpt>
      <trkpt lat="47.10519" lon="6.11078">
        <ele>498</ele>
        <time>2021-03-06T22:07:18Z</time>
      </trkpt>
      <trkpt lat="47.10522" lon="6.1103">
        <ele>502</ele>
        <time>2021-03-06T22:07:26Z</time>
      </trkpt>
      <trkpt lat="47.10519" lon="6.11016">
        <ele>503</ele>
        <time>2021-03-06T22:07:28Z</time>
      </trkpt>
      <trkpt lat="47.10509" lon="6.10998">
        <ele>505</ele>
        <time>2021-03-06T22:07:32Z</time>
      </trkpt>
      <trkpt lat="47.10497" lon="6.10989">
        <ele>505</ele>
        <time>2021-03-06T22:07:35Z</time>
      </trkpt>
      <trkpt lat="47.10455" lon="6.10987">
        <ele>505</ele>
        <time>2021-03-06T22:07:45Z</time>
      </trkpt>
      <trkpt lat="47.10414" lon="6.10989">
        <ele>505</ele>
        <time>2021-03-06T22:07:55Z</time>
      </trkpt>
      <trkpt lat="47.10357" lon="6.11001">
        <ele>507</ele>
        <time>2021-03-06T22:08:08Z</time>
      </trkpt>
      <trkpt lat="47.10337" lon="6.11">
        <ele>508</ele>
        <time>2021-03-06T22:08:13Z</time>
      </trkpt>
      <trkpt lat="47.10322" lon="6.11003">
        <ele>508</ele>
        <time>2021-03-06T22:08:16Z</time>
      </trkpt>
      <trkpt lat="47.10294" lon="6.11017">
        <ele>510</ele>
        <time>2021-03-06T22:08:23Z</time>
      </trkpt>
      <trkpt lat="47.1027" lon="6.11034">
        <ele>511</ele>
        <time>2021-03-06T22:08:29Z</time>
      </trkpt>
      <trkpt lat="47.1024" lon="6.1106">
        <ele>511</ele>
        <time>2021-03-06T22:08:37Z</time>
      </trkpt>
      <trkpt lat="47.10166" lon="6.11134">
        <ele>509</ele>
        <time>2021-03-06T22:08:58Z</time>
      </trkpt>
      <trkpt lat="47.10118" lon="6.11162">
        <ele>511</ele>
        <time>2021-03-06T22:09:10Z</time>
      </trkpt>
      <trkpt lat="47.10073" lon="6.11183">
        <ele>514</ele>
        <time>2021-03-06T22:09:21Z</time>
      </trkpt>
      <trkpt lat="47.10025" lon="6.11212">
        <ele>517</ele>
        <time>2021-03-06T22:09:34Z</time>
      </trkpt>
      <trkpt lat="47.09985" lon="6.11226">
        <ele>516</ele>
        <time>2021-03-06T22:09:43Z</time>
      </trkpt>
      <trkpt lat="47.09872" lon="6.11234">
        <ele>515</ele>
        <time>2021-03-06T22:10:10Z</time>
      </trkpt>
      <trkpt lat="47.09807" lon="6.1125">
        <ele>516</ele>
        <time>2021-03-06T22:10:25Z</time>
      </trkpt>
      <trkpt lat="47.09779" lon="6.11265">
        <ele>518</ele>
        <time>2021-03-06T22:10:32Z</time>
      </trkpt>
      <trkpt lat="47.09735" lon="6.11295">
        <ele>522</ele>
        <time>2021-03-06T22:10:43Z</time>
      </trkpt>
      <trkpt lat="47.09703" lon="6.11309">
        <ele>524</ele>
        <time>2021-03-06T22:10:51Z</time>
      </trkpt>
      <trkpt lat="47.09685" lon="6.11308">
        <ele>524</ele>
        <time>2021-03-06T22:10:55Z</time>
      </trkpt>
      <trkpt lat="47.09644" lon="6.1129">
        <ele>524</ele>
        <time>2021-03-06T22:11:05Z</time>
      </trkpt>
      <trkpt lat="47.09541" lon="6.11229">
        <ele>526</ele>
        <time>2021-03-06T22:11:31Z</time>
      </trkpt>
      <trkpt lat="47.09522" lon="6.11221">
        <ele>526</ele>
        <time>2021-03-06T22:11:36Z</time>
      </trkpt>
      <trkpt lat="47.09442" lon="6.11213">
        <ele>525</ele>
        <time>2021-03-06T22:11:55Z</time>
      </trkpt>
      <trkpt lat="47.09427" lon="6.11215">
        <ele>525</ele>
        <time>2021-03-06T22:11:58Z</time>
      </trkpt>
      <trkpt lat="47.09418" lon="6.11222">
        <ele>525</ele>
        <time>2021-03-06T22:12:00Z</time>
      </trkpt>
      <trkpt lat="47.09395" lon="6.11282">
        <ele>527</ele>
        <time>2021-03-06T22:12:11Z</time>
      </trkpt>
      <trkpt lat="47.09386" lon="6.11291">
        <ele>527</ele>
        <time>2021-03-06T22:12:14Z</time>
      </trkpt>
      <trkpt lat="47.09227" lon="6.11213">
        <ele>530</ele>
        <time>2021-03-06T22:12:53Z</time>
      </trkpt>
      <trkpt lat="47.09159" lon="6.11175">
        <ele>534</ele>
        <time>2021-03-06T22:13:10Z</time>
      </trkpt>
      <trkpt lat="47.09134" lon="6.11164">
        <ele>534</ele>
        <time>2021-03-06T22:13:16Z</time>
      </trkpt>
      <trkpt lat="47.09073" lon="6.1113">
        <ele>535</ele>
        <time>2021-03-06T22:13:31Z</time>
      </trkpt>
      <trkpt lat="47.09068" lon="6.11123">
        <ele>535</ele>
        <time>2021-03-06T22:13:33Z</time>
      </trkpt>
      <trkpt lat="47.09068" lon="6.11118">
        <ele>535</ele>
        <time>2021-03-06T22:13:34Z</time>
      </trkpt>
      <trkpt lat="47.09073" lon="6.11108">
        <ele>535</ele>
        <time>2021-03-06T22:13:36Z</time>
      </trkpt>
      <trkpt lat="47.0914" lon="6.11012">
        <ele>533</ele>
        <time>2021-03-06T22:13:58Z</time>
      </trkpt>
      <trkpt lat="47.09156" lon="6.10993">
        <ele>533</ele>
        <time>2021-03-06T22:14:02Z</time>
      </trkpt>
      <trkpt lat="47.09216" lon="6.10939">
        <ele>531</ele>
        <time>2021-03-06T22:14:19Z</time>
      </trkpt>
      <trkpt lat="47.09275" lon="6.10905">
        <ele>530</ele>
        <time>2021-03-06T22:14:34Z</time>
      </trkpt>
      <trkpt lat="47.09367" lon="6.10799">
        <ele>527</ele>
        <time>2021-03-06T22:15:01Z</time>
      </trkpt>
      <trkpt lat="47.09402" lon="6.10754">
        <ele>527</ele>
        <time>2021-03-06T22:15:12Z</time>
      </trkpt>
      <trkpt lat="47.09428" lon="6.10715">
        <ele>526</ele>
        <time>2021-03-06T22:15:21Z</time>
      </trkpt>
      <trkpt lat="47.095" lon="6.10589">
        <ele>525</ele>
        <time>2021-03-06T22:15:47Z</time>
      </trkpt>
      <trkpt lat="47.09522" lon="6.10559">
        <ele>525</ele>
        <time>2021-03-06T22:15:54Z</time>
      </trkpt>
      <trkpt lat="47.09558" lon="6.10517">
        <ele>525</ele>
        <time>2021-03-06T22:16:04Z</time>
      </trkpt>
      <trkpt lat="47.09562" lon="6.10502">
        <ele>526</ele>
        <time>2021-03-06T22:16:07Z</time>
      </trkpt>
      <trkpt lat="47.0955" lon="6.10475">
        <ele>526</ele>
        <time>2021-03-06T22:16:12Z</time>
      </trkpt>
      <trkpt lat="47.09551" lon="6.10457">
        <ele>526</ele>
        <time>2021-03-06T22:16:15Z</time>
      </trkpt>
      <trkpt lat="47.09562" lon="6.10408">
        <ele>526</ele>
        <time>2021-03-06T22:16:23Z</time>
      </trkpt>
      <trkpt lat="47.09573" lon="6.10379">
        <ele>525</ele>
        <time>2021-03-06T22:16:28Z</time>
      </trkpt>
      <trkpt lat="47.09602" lon="6.10321">
        <ele>525</ele>
        <time>2021-03-06T22:16:40Z</time>
      </trkpt>
      <trkpt lat="47.09634" lon="6.10276">
        <ele>524</ele>
        <time>2021-03-06T22:16:50Z</time>
      </trkpt>
      <trkpt lat="47.09686" lon="6.10233">
        <ele>522</ele>
        <time>2021-03-06T22:17:04Z</time>
      </trkpt>
      <trkpt lat="47.0969" lon="6.10226">
        <ele>522</ele>
        <time>2021-03-06T22:17:06Z</time>
      </trkpt>
      <trkpt lat="47.09687" lon="6.10195">
        <ele>521</ele>
        <time>2021-03-06T22:17:11Z</time>
      </trkpt>
      <trkpt lat="47.09684" lon="6.10187">
        <ele>521</ele>
        <time>2021-03-06T22:17:12Z</time>
      </trkpt>
      <trkpt lat="47.09669" lon="6.10175">
        <ele>520</ele>
        <time>2021-03-06T22:17:16Z</time>
      </trkpt>
      <trkpt lat="47.09639" lon="6.1013">
        <ele>520</ele>
        <time>2021-03-06T22:17:26Z</time>
      </trkpt>
      <trkpt lat="47.09621" lon="6.10063">
        <ele>519</ele>
        <time>2021-03-06T22:17:38Z</time>
      </trkpt>
      <trkpt lat="47.09583" lon="6.10003">
        <ele>518</ele>
        <time>2021-03-06T22:17:51Z</time>
      </trkpt>
      <trkpt lat="47.0958" lon="6.09995">
        <ele>518</ele>
        <time>2021-03-06T22:17:52Z</time>
      </trkpt>
      <trkpt lat="47.09585" lon="6.09953">
        <ele>516</ele>
        <time>2021-03-06T22:17:59Z</time>
      </trkpt>
      <trkpt lat="47.09626" lon="6.09873">
        <ele>514</ele>
        <time>2021-03-06T22:18:15Z</time>
      </trkpt>
      <trkpt lat="47.09653" lon="6.09833">
        <ele>514</ele>
        <time>2021-03-06T22:18:24Z</time>
      </trkpt>
      <trkpt lat="47.09663" lon="6.09808">
        <ele>514</ele>
        <time>2021-03-06T22:18:28Z</time>
      </trkpt>
      <trkpt lat="47.09665" lon="6.09792">
        <ele>513</ele>
        <time>2021-03-06T22:18:31Z</time>
      </trkpt>
      <trkpt lat="47.0965" lon="6.09746">
        <ele>511</ele>
        <time>2021-03-06T22:18:39Z</time>
      </trkpt>
      <trkpt lat="47.09632" lon="6.09709">
        <ele>511</ele>
        <time>2021-03-06T22:18:46Z</time>
      </trkpt>
      <trkpt lat="47.09603" lon="6.09677">
        <ele>510</ele>
        <time>2021-03-06T22:18:55Z</time>
      </trkpt>
      <trkpt lat="47.09587" lon="6.09665">
        <ele>510</ele>
        <time>2021-03-06T22:18:59Z</time>
      </trkpt>
      <trkpt lat="47.0956" lon="6.09651">
        <ele>511</ele>
        <time>2021-03-06T22:19:06Z</time>
      </trkpt>
      <trkpt lat="47.09538" lon="6.09631">
        <ele>511</ele>
        <time>2021-03-06T22:19:12Z</time>
      </trkpt>
      <trkpt lat="47.09495" lon="6.09604">
        <ele>512</ele>
        <time>2021-03-06T22:19:23Z</time>
      </trkpt>
      <trkpt lat="47.09444" lon="6.09557">
        <ele>512</ele>
        <time>2021-03-06T22:19:37Z</time>
      </trkpt>
      <trkpt lat="47.09411" lon="6.09506">
        <ele>510</ele>
        <time>2021-03-06T22:19:48Z</time>
      </trkpt>
      <trkpt lat="47.09378" lon="6.09488">
        <ele>508</ele>
        <time>2021-03-06T22:19:56Z</time>
      </trkpt>
      <trkpt lat="47.09369" lon="6.09473">
        <ele>507</ele>
        <time>2021-03-06T22:19:59Z</time>
      </trkpt>
      <trkpt lat="47.09364" lon="6.09456">
        <ele>506</ele>
        <time>2021-03-06T22:20:02Z</time>
      </trkpt>
      <trkpt lat="47.09365" lon="6.09437">
        <ele>505</ele>
        <time>2021-03-06T22:20:05Z</time>
      </trkpt>
      <trkpt lat="47.09375" lon="6.09381">
        <ele>498</ele>
        <time>2021-03-06T22:20:14Z</time>
      </trkpt>
      <trkpt lat="47.09379" lon="6.09373">
        <ele>498</ele>
        <time>2021-03-06T22:20:16Z</time>
      </trkpt>
      <trkpt lat="47.09397" lon="6.09351">
        <ele>498</ele>
        <time>2021-03-06T22:20:21Z</time>
      </trkpt>
      <trkpt lat="47.09406" lon="6.09335">
        <ele>498</ele>
        <time>2021-03-06T22:20:25Z</time>
      </trkpt>
      <trkpt lat="47.09417" lon="6.09325">
        <ele>499</ele>
        <time>2021-03-06T22:20:28Z</time>
      </trkpt>
      <trkpt lat="47.09443" lon="6.09277">
        <ele>496</ele>
        <time>2021-03-06T22:20:37Z</time>
      </trkpt>
      <trkpt lat="47.09465" lon="6.09249">
        <ele>497</ele>
        <time>2021-03-06T22:20:44Z</time>
      </trkpt>
      <trkpt lat="47.09484" lon="6.0922">
        <ele>498</ele>
        <time>2021-03-06T22:20:51Z</time>
      </trkpt>
      <trkpt lat="47.0952" lon="6.09176">
        <ele>501</ele>
        <time>2021-03-06T22:21:02Z</time>
      </trkpt>
      <trkpt lat="47.09533" lon="6.09153">
        <ele>500</ele>
        <time>2021-03-06T22:21:06Z</time>
      </trkpt>
      <trkpt lat="47.09537" lon="6.09139">
        <ele>499</ele>
        <time>2021-03-06T22:21:09Z</time>
      </trkpt>
      <trkpt lat="47.09574" lon="6.08936">
        <ele>498</ele>
        <time>2021-03-06T22:21:42Z</time>
      </trkpt>
      <trkpt lat="47.0958" lon="6.08881">
        <ele>500</ele>
        <time>2021-03-06T22:21:51Z</time>
      </trkpt>
      <trkpt lat="47.09579" lon="6.08863">
        <ele>500</ele>
        <time>2021-03-06T22:21:54Z</time>
      </trkpt>
      <trkpt lat="47.09581" lon="6.08847">
        <ele>501</ele>
        <time>2021-03-06T22:21:57Z</time>
      </trkpt>
      <trkpt lat="47.09577" lon="6.08822">
        <ele>500</ele>
        <time>2021-03-06T22:22:01Z</time>
      </trkpt>
      <trkpt lat="47.09579" lon="6.08758">
        <ele>501</ele>
        <time>2021-03-06T22:22:11Z</time>
      </trkpt>
      <trkpt lat="47.09575" lon="6.08652">
        <ele>500</ele>
        <time>2021-03-06T22:22:28Z</time>
      </trkpt>
      <trkpt lat="47.09571" lon="6.08628">
        <ele>498</ele>
        <time>2021-03-06T22:22:32Z</time>
      </trkpt>
      <trkpt lat="47.09572" lon="6.08571">
        <ele>496</ele>
        <time>2021-03-06T22:22:41Z</time>
      </trkpt>
      <trkpt lat="47.09564" lon="6.08481">
        <ele>485</ele>
        <time>2021-03-06T22:22:55Z</time>
      </trkpt>
      <trkpt lat="47.09565" lon="6.08442">
        <ele>483</ele>
        <time>2021-03-06T22:23:01Z</time>
      </trkpt>
      <trkpt lat="47.09556" lon="6.08317">
        <ele>466</ele>
        <time>2021-03-06T22:23:21Z</time>
      </trkpt>
      <trkpt lat="47.0956" lon="6.08305">
        <ele>466</ele>
        <time>2021-03-06T22:23:23Z</time>
      </trkpt>
      <trkpt lat="47.09574" lon="6.08321">
        <ele>471</ele>
        <time>2021-03-06T22:23:28Z</time>
      </trkpt>
      <trkpt lat="47.09607" lon="6.08374">
        <ele>474</ele>
        <time>2021-03-06T22:23:39Z</time>
      </trkpt>
      <trkpt lat="47.09668" lon="6.08454">
        <ele>471</ele>
        <time>2021-03-06T22:23:58Z</time>
      </trkpt>
      <trkpt lat="47.0967" lon="6.08453">
        <ele>470</ele>
        <time>2021-03-06T22:23:59Z</time>
      </trkpt>
      <trkpt lat="47.09648" lon="6.08404">
        <ele>467</ele>
        <time>2021-03-06T22:24:08Z</time>
      </trkpt>
      <trkpt lat="47.0963" lon="6.08332">
        <ele>461</ele>
        <time>2021-03-06T22:24:20Z</time>
      </trkpt>
      <trkpt lat="47.09635" lon="6.0829">
        <ele>453</ele>
        <time>2021-03-06T22:24:27Z</time>
      </trkpt>
      <trkpt lat="47.09638" lon="6.08221">
        <ele>440</ele>
        <time>2021-03-06T22:24:38Z</time>
      </trkpt>
      <trkpt lat="47.09636" lon="6.08199">
        <ele>437</ele>
        <time>2021-03-06T22:24:41Z</time>
      </trkpt>
      <trkpt lat="47.09646" lon="6.08163">
        <ele>428</ele>
        <time>2021-03-06T22:24:48Z</time>
      </trkpt>
      <trkpt lat="47.09667" lon="6.08006">
        <ele>395</ele>
        <time>2021-03-06T22:25:13Z</time>
      </trkpt>
      <trkpt lat="47.09664" lon="6.07981">
        <ele>391</ele>
        <time>2021-03-06T22:25:17Z</time>
      </trkpt>
      <trkpt lat="47.09666" lon="6.07954">
        <ele>387</ele>
        <time>2021-03-06T22:25:21Z</time>
      </trkpt>
      <trkpt lat="47.0966" lon="6.07919">
        <ele>382</ele>
        <time>2021-03-06T22:25:27Z</time>
      </trkpt>
      <trkpt lat="47.09655" lon="6.07912">
        <ele>382</ele>
        <time>2021-03-06T22:25:29Z</time>
      </trkpt>
      <trkpt lat="47.09604" lon="6.07886">
        <ele>382</ele>
        <time>2021-03-06T22:25:41Z</time>
      </trkpt>
      <trkpt lat="47.09585" lon="6.0787">
        <ele>382</ele>
        <time>2021-03-06T22:25:46Z</time>
      </trkpt>
      <trkpt lat="47.09575" lon="6.07857">
        <ele>380</ele>
        <time>2021-03-06T22:25:50Z</time>
      </trkpt>
      <trkpt lat="47.0955" lon="6.07789">
        <ele>373</ele>
        <time>2021-03-06T22:26:02Z</time>
      </trkpt>
      <trkpt lat="47.09395" lon="6.07566">
        <ele>359</ele>
        <time>2021-03-06T22:26:53Z</time>
      </trkpt>
      <trkpt lat="47.09347" lon="6.07501">
        <ele>358</ele>
        <time>2021-03-06T22:27:08Z</time>
      </trkpt>
      <trkpt lat="47.09332" lon="6.07471">
        <ele>356</ele>
        <time>2021-03-06T22:27:14Z</time>
      </trkpt>
      <trkpt lat="47.09332" lon="6.07436">
        <ele>353</ele>
        <time>2021-03-06T22:27:19Z</time>
      </trkpt>
      <trkpt lat="47.09326" lon="6.07417">
        <ele>351</ele>
        <time>2021-03-06T22:27:23Z</time>
      </trkpt>
      <trkpt lat="47.09312" lon="6.07413">
        <ele>350</ele>
        <time>2021-03-06T22:27:26Z</time>
      </trkpt>
      <trkpt lat="47.09303" lon="6.07419">
        <ele>349</ele>
        <time>2021-03-06T22:27:28Z</time>
      </trkpt>
      <trkpt lat="47.09266" lon="6.07486">
        <ele>348</ele>
        <time>2021-03-06T22:27:42Z</time>
      </trkpt>
      <trkpt lat="47.09246" lon="6.07546">
        <ele>346</ele>
        <time>2021-03-06T22:27:53Z</time>
      </trkpt>
      <trkpt lat="47.09236" lon="6.07556">
        <ele>345</ele>
        <time>2021-03-06T22:27:55Z</time>
      </trkpt>
      <trkpt lat="47.09229" lon="6.07555">
        <ele>344</ele>
        <time>2021-03-06T22:27:57Z</time>
      </trkpt>
      <trkpt lat="47.09223" lon="6.07537">
        <ele>342</ele>
        <time>2021-03-06T22:28:00Z</time>
      </trkpt>
      <trkpt lat="47.09222" lon="6.07487">
        <ele>341</ele>
        <time>2021-03-06T22:28:08Z</time>
      </trkpt>
      <trkpt lat="47.09208" lon="6.07386">
        <ele>336</ele>
        <time>2021-03-06T22:28:25Z</time>
      </trkpt>
      <trkpt lat="47.09205" lon="6.07343">
        <ele>334</ele>
        <time>2021-03-06T22:28:31Z</time>
      </trkpt>
      <trkpt lat="47.09211" lon="6.07288">
        <ele>332</ele>
        <time>2021-03-06T22:28:40Z</time>
      </trkpt>
      <trkpt lat="47.09222" lon="6.07222">
        <ele>329</ele>
        <time>2021-03-06T22:28:51Z</time>
      </trkpt>
      <trkpt lat="47.09256" lon="6.07138">
        <ele>324</ele>
        <time>2021-03-06T22:29:07Z</time>
      </trkpt>
      <trkpt lat="47.09262" lon="6.0711">
        <ele>322</ele>
        <time>2021-03-06T22:29:11Z</time>
      </trkpt>
      <trkpt lat="47.09263" lon="6.07092">
        <ele>320</ele>
        <time>2021-03-06T22:29:14Z</time>
      </trkpt>
      <trkpt lat="47.09254" lon="6.07052">
        <ele>319</ele>
        <time>2021-03-06T22:29:21Z</time>
      </trkpt>
      <trkpt lat="47.09248" lon="6.0704">
        <ele>319</ele>
        <time>2021-03-06T22:29:23Z</time>
      </trkpt>
      <trkpt lat="47.09222" lon="6.07001">
        <ele>317</ele>
        <time>2021-03-06T22:29:32Z</time>
      </trkpt>
      <trkpt lat="47.09145" lon="6.06902">
        <ele>316</ele>
        <time>2021-03-06T22:29:56Z</time>
      </trkpt>
      <trkpt lat="47.0913" lon="6.06898">
        <ele>316</ele>
        <time>2021-03-06T22:29:59Z</time>
      </trkpt>
      <trkpt lat="47.09122" lon="6.06902">
        <ele>316</ele>
        <time>2021-03-06T22:30:01Z</time>
      </trkpt>
      <trkpt lat="47.09098" lon="6.06923">
        <ele>314</ele>
        <time>2021-03-06T22:30:08Z</time>
      </trkpt>
      <trkpt lat="47.08994" lon="6.06996">
        <ele>321</ele>
        <time>2021-03-06T22:30:35Z</time>
      </trkpt>
      <trkpt lat="47.08971" lon="6.07003">
        <ele>325</ele>
        <time>2021-03-06T22:30:40Z</time>
      </trkpt>
      <trkpt lat="47.08948" lon="6.06999">
        <ele>329</ele>
        <time>2021-03-06T22:30:46Z</time>
      </trkpt>
      <trkpt lat="47.08914" lon="6.06981">
        <ele>332</ele>
        <time>2021-03-06T22:30:54Z</time>
      </trkpt>
      <trkpt lat="47.0886" lon="6.06922">
        <ele>340</ele>
        <time>2021-03-06T22:31:10Z</time>
      </trkpt>
      <trkpt lat="47.08848" lon="6.06901">
        <ele>341</ele>
        <time>2021-03-06T22:31:14Z</time>
      </trkpt>
      <trkpt lat="47.0883" lon="6.06847">
        <ele>338</ele>
        <time>2021-03-06T22:31:24Z</time>
      </trkpt>
      <trkpt lat="47.08826" lon="6.06827">
        <ele>336</ele>
        <time>2021-03-06T22:31:27Z</time>
      </trkpt>
      <trkpt lat="47.08835" lon="6.06809">
        <ele>331</ele>
        <time>2021-03-06T22:31:31Z</time>
      </trkpt>
      <trkpt lat="47.0884" lon="6.06769">
        <ele>325</ele>
        <time>2021-03-06T22:31:37Z</time>
      </trkpt>
      <trkpt lat="47.08827" lon="6.06727">
        <ele>323</ele>
        <time>2021-03-06T22:31:44Z</time>
      </trkpt>
      <trkpt lat="47.08815" lon="6.06652">
        <ele>323</ele>
        <time>2021-03-06T22:31:57Z</time>
      </trkpt>
      <trkpt lat="47.0881" lon="6.06604">
        <ele>322</ele>
        <time>2021-03-06T22:32:04Z</time>
      </trkpt>
      <trkpt lat="47.08808" lon="6.06524">
        <ele>321</ele>
        <time>2021-03-06T22:32:17Z</time>
      </trkpt>
      <trkpt lat="47.08798" lon="6.064">
        <ele>320</ele>
        <time>2021-03-06T22:32:37Z</time>
      </trkpt>
      <trkpt lat="47.08798" lon="6.06349">
        <ele>319</ele>
        <time>2021-03-06T22:32:45Z</time>
      </trkpt>
      <trkpt lat="47.08807" lon="6.06306">
        <ele>318</ele>
        <time>2021-03-06T22:32:52Z</time>
      </trkpt>
      <trkpt lat="47.08819" lon="6.06265">
        <ele>318</ele>
        <time>2021-03-06T22:32:59Z</time>
      </trkpt>
      <trkpt lat="47.08824" lon="6.06232">
        <ele>318</ele>
        <time>2021-03-06T22:33:05Z</time>
      </trkpt>
      <trkpt lat="47.08825" lon="6.06193">
        <ele>319</ele>
        <time>2021-03-06T22:33:11Z</time>
      </trkpt>
      <trkpt lat="47.08816" lon="6.06149">
        <ele>320</ele>
        <time>2021-03-06T22:33:18Z</time>
      </trkpt>
      <trkpt lat="47.08786" lon="6.06083">
        <ele>320</ele>
        <time>2021-03-06T22:33:31Z</time>
      </trkpt>
      <trkpt lat="47.08779" lon="6.0606">
        <ele>320</ele>
        <time>2021-03-06T22:33:35Z</time>
      </trkpt>
      <trkpt lat="47.0876" lon="6.06018">
        <ele>321</ele>
        <time>2021-03-06T22:33:43Z</time>
      </trkpt>
      <trkpt lat="47.08749" lon="6.05985">
        <ele>322</ele>
        <time>2021-03-06T22:33:49Z</time>
      </trkpt>
      <trkpt lat="47.08746" lon="6.05965">
        <ele>321</ele>
        <time>2021-03-06T22:33:52Z</time>
      </trkpt>
      <trkpt lat="47.08749" lon="6.05958">
        <ele>321</ele>
        <time>2021-03-06T22:33:53Z</time>
      </trkpt>
      <trkpt lat="47.08807" lon="6.05951">
        <ele>316</ele>
        <time>2021-03-06T22:34:07Z</time>
      </trkpt>
      <trkpt lat="47.08828" lon="6.05942">
        <ele>314</ele>
        <time>2021-03-06T22:34:12Z</time>
      </trkpt>
      <trkpt lat="47.08892" lon="6.0589">
        <ele>319</ele>
        <time>2021-03-06T22:34:29Z</time>
      </trkpt>
      <trkpt lat="47.08951" lon="6.05858">
        <ele>324</ele>
        <time>2021-03-06T22:34:44Z</time>
      </trkpt>
      <trkpt lat="47.08977" lon="6.05848">
        <ele>326</ele>
        <time>2021-03-06T22:34:50Z</time>
      </trkpt>
      <trkpt lat="47.09021" lon="6.05842">
        <ele>328</ele>
        <time>2021-03-06T22:35:00Z</time>
      </trkpt>
      <trkpt lat="47.09036" lon="6.05847">
        <ele>328</ele>
        <time>2021-03-06T22:35:04Z</time>
      </trkpt>
      <trkpt lat="47.09062" lon="6.05879">
        <ele>330</ele>
        <time>2021-03-06T22:35:12Z</time>
      </trkpt>
      <trkpt lat="47.09073" lon="6.05889">
        <ele>331</ele>
        <time>2021-03-06T22:35:15Z</time>
      </trkpt>
      <trkpt lat="47.09082" lon="6.05892">
        <ele>332</ele>
        <time>2021-03-06T22:35:17Z</time>
      </trkpt>
      <trkpt lat="47.09098" lon="6.05892">
        <ele>332</ele>
        <time>2021-03-06T22:35:21Z</time>
      </trkpt>
      <trkpt lat="47.09122" lon="6.05908">
        <ele>335</ele>
        <time>2021-03-06T22:35:27Z</time>
      </trkpt>
      <trkpt lat="47.09148" lon="6.05918">
        <ele>338</ele>
        <time>2021-03-06T22:35:33Z</time>
      </trkpt>
      <trkpt lat="47.09165" lon="6.05921">
        <ele>339</ele>
        <time>2021-03-06T22:35:37Z</time>
      </trkpt>
      <trkpt lat="47.09202" lon="6.05921">
        <ele>339</ele>
        <time>2021-03-06T22:35:46Z</time>
      </trkpt>
      <trkpt lat="47.09237" lon="6.05929">
        <ele>340</ele>
        <time>2021-03-06T22:35:54Z</time>
      </trkpt>
      <trkpt lat="47.09255" lon="6.05937">
        <ele>341</ele>
        <time>2021-03-06T22:35:59Z</time>
      </trkpt>
      <trkpt lat="47.0934" lon="6.05989">
        <ele>348</ele>
        <time>2021-03-06T22:36:20Z</time>
      </trkpt>
      <trkpt lat="47.09446" lon="6.06038">
        <ele>353</ele>
        <time>2021-03-06T22:36:46Z</time>
      </trkpt>
      <trkpt lat="47.09485" lon="6.06053">
        <ele>354</ele>
        <time>2021-03-06T22:36:55Z</time>
      </trkpt>
      <trkpt lat="47.09543" lon="6.06067">
        <ele>357</ele>
        <time>2021-03-06T22:37:09Z</time>
      </trkpt>
      <trkpt lat="47.09572" lon="6.06078">
        <ele>359</ele>
        <time>2021-03-06T22:37:16Z</time>
      </trkpt>
      <trkpt lat="47.0961" lon="6.06102">
        <ele>364</ele>
        <time>2021-03-06T22:37:26Z</time>
      </trkpt>
      <trkpt lat="47.09619" lon="6.06112">
        <ele>365</ele>
        <time>2021-03-06T22:37:28Z</time>
      </trkpt>
      <trkpt lat="47.09629" lon="6.06142">
        <ele>367</ele>
        <time>2021-03-06T22:37:34Z</time>
      </trkpt>
      <trkpt lat="47.0964" lon="6.0623">
        <ele>371</ele>
        <time>2021-03-06T22:37:48Z</time>
      </trkpt>
      <trkpt lat="47.09653" lon="6.06277">
        <ele>372</ele>
        <time>2021-03-06T22:37:56Z</time>
      </trkpt>
      <trkpt lat="47.09662" lon="6.06298">
        <ele>373</ele>
        <time>2021-03-06T22:38:00Z</time>
      </trkpt>
      <trkpt lat="47.0975" lon="6.06454">
        <ele>372</ele>
        <time>2021-03-06T22:38:32Z</time>
      </trkpt>
      <trkpt lat="47.09757" lon="6.06472">
        <ele>371</ele>
        <time>2021-03-06T22:38:35Z</time>
      </trkpt>
      <trkpt lat="47.09773" lon="6.06491">
        <ele>371</ele>
        <time>2021-03-06T22:38:40Z</time>
      </trkpt>
      <trkpt lat="47.09783" lon="6.06495">
        <ele>371</ele>
        <time>2021-03-06T22:38:43Z</time>
      </trkpt>
      <trkpt lat="47.09788" lon="6.06491">
        <ele>371</ele>
        <time>2021-03-06T22:38:44Z</time>
      </trkpt>
      <trkpt lat="47.09791" lon="6.06481">
        <ele>372</ele>
        <time>2021-03-06T22:38:46Z</time>
      </trkpt>
      <trkpt lat="47.0979" lon="6.06455">
        <ele>374</ele>
        <time>2021-03-06T22:38:50Z</time>
      </trkpt>
      <trkpt lat="47.09787" lon="6.06446">
        <ele>375</ele>
        <time>2021-03-06T22:38:51Z</time>
      </trkpt>
      <trkpt lat="47.09757" lon="6.06405">
        <ele>375</ele>
        <time>2021-03-06T22:39:01Z</time>
      </trkpt>
      <trkpt lat="47.09747" lon="6.06385">
        <ele>376</ele>
        <time>2021-03-06T22:39:05Z</time>
      </trkpt>
      <trkpt lat="47.09739" lon="6.06355">
        <ele>377</ele>
        <time>2021-03-06T22:39:10Z</time>
      </trkpt>
      <trkpt lat="47.09738" lon="6.06315">
        <ele>379</ele>
        <time>2021-03-06T22:39:17Z</time>
      </trkpt>
      <trkpt lat="47.09753" lon="6.06128">
        <ele>385</ele>
        <time>2021-03-06T22:39:46Z</time>
      </trkpt>
      <trkpt lat="47.09758" lon="6.06106">
        <ele>386</ele>
        <time>2021-03-06T22:39:50Z</time>
      </trkpt>
      <trkpt lat="47.09781" lon="6.06042">
        <ele>389</ele>
        <time>2021-03-06T22:40:02Z</time>
      </trkpt>
      <trkpt lat="47.09818" lon="6.05976">
        <ele>395</ele>
        <time>2021-03-06T22:40:15Z</time>
      </trkpt>
      <trkpt lat="47.09835" lon="6.05922">
        <ele>399</ele>
        <time>2021-03-06T22:40:25Z</time>
      </trkpt>
      <trkpt lat="47.09843" lon="6.05906">
        <ele>400</ele>
        <time>2021-03-06T22:40:28Z</time>
      </trkpt>
      <trkpt lat="47.09857" lon="6.05888">
        <ele>403</ele>
        <time>2021-03-06T22:40:32Z</time>
      </trkpt>
      <trkpt lat="47.09872" lon="6.05859">
        <ele>405</ele>
        <time>2021-03-06T22:40:38Z</time>
      </trkpt>
      <trkpt lat="47.09877" lon="6.05854">
        <ele>406</ele>
        <time>2021-03-06T22:40:39Z</time>
      </trkpt>
      <trkpt lat="47.09894" lon="6.05824">
        <ele>408</ele>
        <time>2021-03-06T22:40:46Z</time>
      </trkpt>
      <trkpt lat="47.09927" lon="6.05783">
        <ele>410</ele>
        <time>2021-03-06T22:40:56Z</time>
      </trkpt>
      <trkpt lat="47.10063" lon="6.05713">
        <ele>424</ele>
        <time>2021-03-06T22:41:29Z</time>
      </trkpt>
      <trkpt lat="47.10081" lon="6.0571">
        <ele>427</ele>
        <time>2021-03-06T22:41:34Z</time>
      </trkpt>
      <trkpt lat="47.10104" lon="6.05698">
        <ele>432</ele>
        <time>2021-03-06T22:41:39Z</time>
      </trkpt>
      <trkpt lat="47.10121" lon="6.05676">
        <ele>434</ele>
        <time>2021-03-06T22:41:45Z</time>
      </trkpt>
      <trkpt lat="47.10129" lon="6.05641">
        <ele>434</ele>
        <time>2021-03-06T22:41:50Z</time>
      </trkpt>
      <trkpt lat="47.10138" lon="6.0562">
        <ele>436</ele>
        <time>2021-03-06T22:41:54Z</time>
      </trkpt>
      <trkpt lat="47.10146" lon="6.05613">
        <ele>439</ele>
        <time>2021-03-06T22:41:57Z</time>
      </trkpt>
      <trkpt lat="47.10167" lon="6.05582">
        <ele>444</ele>
        <time>2021-03-06T22:42:03Z</time>
      </trkpt>
      <trkpt lat="47.10176" lon="6.05579">
        <ele>445</ele>
        <time>2021-03-06T22:42:06Z</time>
      </trkpt>
      <trkpt lat="47.10191" lon="6.05566">
        <ele>448</ele>
        <time>2021-03-06T22:42:10Z</time>
      </trkpt>
      <trkpt lat="47.10204" lon="6.05568">
        <ele>448</ele>
        <time>2021-03-06T22:42:13Z</time>
      </trkpt>
      <trkpt lat="47.10216" lon="6.05575">
        <ele>448</ele>
        <time>2021-03-06T22:42:16Z</time>
      </trkpt>
      <trkpt lat="47.10225" lon="6.05575">
        <ele>448</ele>
        <time>2021-03-06T22:42:18Z</time>
      </trkpt>
      <trkpt lat="47.10242" lon="6.05598">
        <ele>450</ele>
        <time>2021-03-06T22:42:23Z</time>
      </trkpt>
      <trkpt lat="47.10251" lon="6.05602">
        <ele>451</ele>
        <time>2021-03-06T22:42:25Z</time>
      </trkpt>
      <trkpt lat="47.10262" lon="6.05581">
        <ele>450</ele>
        <time>2021-03-06T22:42:30Z</time>
      </trkpt>
      <trkpt lat="47.10278" lon="6.05573">
        <ele>450</ele>
        <time>2021-03-06T22:42:34Z</time>
      </trkpt>
      <trkpt lat="47.10312" lon="6.05569">
        <ele>450</ele>
        <time>2021-03-06T22:42:42Z</time>
      </trkpt>
      <trkpt lat="47.10403" lon="6.05543">
        <ele>457</ele>
        <time>2021-03-06T22:43:03Z</time>
      </trkpt>
      <trkpt lat="47.10416" lon="6.05533">
        <ele>459</ele>
        <time>2021-03-06T22:43:07Z</time>
      </trkpt>
      <trkpt lat="47.1043" lon="6.05529">
        <ele>461</ele>
        <time>2021-03-06T22:43:10Z</time>
      </trkpt>
      <trkpt lat="47.1044" lon="6.0553">
        <ele>462</ele>
        <time>2021-03-06T22:43:12Z</time>
      </trkpt>
      <trkpt lat="47.10459" lon="6.05525">
        <ele>465</ele>
        <time>2021-03-06T22:43:17Z</time>
      </trkpt>
      <trkpt lat="47.10488" lon="6.05528">
        <ele>468</ele>
        <time>2021-03-06T22:43:24Z</time>
      </trkpt>
      <trkpt lat="47.10507" lon="6.0552">
        <ele>471</ele>
        <time>2021-03-06T22:43:28Z</time>
      </trkpt>
      <trkpt lat="47.1054" lon="6.0552">
        <ele>475</ele>
        <time>2021-03-06T22:43:36Z</time>
      </trkpt>
      <trkpt lat="47.10557" lon="6.05525">
        <ele>476</ele>
        <time>2021-03-06T22:43:40Z</time>
      </trkpt>
      <trkpt lat="47.10587" lon="6.0554">
        <ele>479</ele>
        <time>2021-03-06T22:43:47Z</time>
      </trkpt>
      <trkpt lat="47.1063" lon="6.05574">
        <ele>482</ele>
        <time>2021-03-06T22:43:59Z</time>
      </trkpt>
      <trkpt lat="47.10645" lon="6.05582">
        <ele>484</ele>
        <time>2021-03-06T22:44:03Z</time>
      </trkpt>
      <trkpt lat="47.10654" lon="6.05584">
        <ele>485</ele>
        <time>2021-03-06T22:44:05Z</time>
      </trkpt>
      <trkpt lat="47.10664" lon="6.05581">
        <ele>486</ele>
        <time>2021-03-06T22:44:07Z</time>
      </trkpt>
      <trkpt lat="47.10686" lon="6.05605">
        <ele>485</ele>
        <time>2021-03-06T22:44:13Z</time>
      </trkpt>
      <trkpt lat="47.10706" lon="6.05617">
        <ele>485</ele>
        <time>2021-03-06T22:44:19Z</time>
      </trkpt>
      <trkpt lat="47.10719" lon="6.0563">
        <ele>486</ele>
        <time>2021-03-06T22:44:22Z</time>
      </trkpt>
      <trkpt lat="47.10734" lon="6.0564">
        <ele>486</ele>
        <time>2021-03-06T22:44:26Z</time>
      </trkpt>
      <trkpt lat="47.10749" lon="6.05656">
        <ele>486</ele>
        <time>2021-03-06T22:44:30Z</time>
      </trkpt>
      <trkpt lat="47.1077" lon="6.0569">
        <ele>487</ele>
        <time>2021-03-06T22:44:38Z</time>
      </trkpt>
      <trkpt lat="47.10771" lon="6.05706">
        <ele>485</ele>
        <time>2021-03-06T22:44:40Z</time>
      </trkpt>
      <trkpt lat="47.10734" lon="6.05837">
        <ele>474</ele>
        <time>2021-03-06T22:45:03Z</time>
      </trkpt>
      <trkpt lat="47.10734" lon="6.05855">
        <ele>475</ele>
        <time>2021-03-06T22:45:06Z</time>
      </trkpt>
      <trkpt lat="47.10742" lon="6.05868">
        <ele>476</ele>
        <time>2021-03-06T22:45:08Z</time>
      </trkpt>
      <trkpt lat="47.1077" lon="6.05898">
        <ele>478</ele>
        <time>2021-03-06T22:45:17Z</time>
      </trkpt>
      <trkpt lat="47.10815" lon="6.05924">
        <ele>478</ele>
        <time>2021-03-06T22:45:28Z</time>
      </trkpt>
      <trkpt lat="47.10841" lon="6.0596">
        <ele>481</ele>
        <time>2021-03-06T22:45:36Z</time>
      </trkpt>
      <trkpt lat="47.10888" lon="6.05993">
        <ele>482</ele>
        <time>2021-03-06T22:45:48Z</time>
      </trkpt>
      <trkpt lat="47.10899" lon="6.05993">
        <ele>482</ele>
        <time>2021-03-06T22:45:51Z</time>
      </trkpt>
      <trkpt lat="47.10928" lon="6.06014">
        <ele>483</ele>
        <time>2021-03-06T22:45:58Z</time>
      </trkpt>
      <trkpt lat="47.10946" lon="6.06023">
        <ele>485</ele>
        <time>2021-03-06T22:46:03Z</time>
      </trkpt>
      <trkpt lat="47.10986" lon="6.06055">
        <ele>488</ele>
        <time>2021-03-06T22:46:14Z</time>
      </trkpt>
      <trkpt lat="47.11036" lon="6.0608">
        <ele>493</ele>
        <time>2021-03-06T22:46:26Z</time>
      </trkpt>
      <trkpt lat="47.11044" lon="6.06081">
        <ele>493</ele>
        <time>2021-03-06T22:46:28Z</time>
      </trkpt>
      <trkpt lat="47.11097" lon="6.06128">
        <ele>498</ele>
        <time>2021-03-06T22:46:42Z</time>
      </trkpt>
      <trkpt lat="47.111" lon="6.06126">
        <ele>498</ele>
        <time>2021-03-06T22:46:43Z</time>
      </trkpt>
      <trkpt lat="47.11107" lon="6.06137">
        <ele>498</ele>
        <time>2021-03-06T22:46:45Z</time>
      </trkpt>
      <trkpt lat="47.11087" lon="6.06148">
        <ele>499</ele>
        <time>2021-03-06T22:46:50Z</time>
      </trkpt>
      <trkpt lat="47.11053" lon="6.06161">
        <ele>499</ele>
        <time>2021-03-06T22:46:59Z</time>
      </trkpt>
      <trkpt lat="47.11028" lon="6.06176">
        <ele>500</ele>
        <time>2021-03-06T22:47:05Z</time>
      </trkpt>
      <trkpt lat="47.10987" lon="6.06171">
        <ele>499</ele>
        <time>2021-03-06T22:47:14Z</time>
      </trkpt>
      <trkpt lat="47.10962" lon="6.06173">
        <ele>501</ele>
        <time>2021-03-06T22:47:20Z</time>
      </trkpt>
      <trkpt lat="47.10915" lon="6.06169">
        <ele>503</ele>
        <time>2021-03-06T22:47:31Z</time>
      </trkpt>
      <trkpt lat="47.10834" lon="6.06154">
        <ele>502</ele>
        <time>2021-03-06T22:47:50Z</time>
      </trkpt>
      <trkpt lat="47.10781" lon="6.06154">
        <ele>506</ele>
        <time>2021-03-06T22:48:03Z</time>
      </trkpt>
      <trkpt lat="47.10773" lon="6.06151">
        <ele>507</ele>
        <time>2021-03-06T22:48:05Z</time>
      </trkpt>
      <trkpt lat="47.10719" lon="6.06157">
        <ele>508</ele>
        <time>2021-03-06T22:48:17Z</time>
      </trkpt>
      <trkpt lat="47.10705" lon="6.06164">
        <ele>508</ele>
        <time>2021-03-06T22:48:21Z</time>
      </trkpt>
      <trkpt lat="47.107" lon="6.06175">
        <ele>508</ele>
        <time>2021-03-06T22:48:23Z</time>
      </trkpt>
      <trkpt lat="47.10702" lon="6.06182">
        <ele>509</ele>
        <time>2021-03-06T22:48:24Z</time>
      </trkpt>
      <trkpt lat="47.10708" lon="6.06187">
        <ele>510</ele>
        <time>2021-03-06T22:48:26Z</time>
      </trkpt>
      <trkpt lat="47.10721" lon="6.06213">
        <ele>514</ele>
        <time>2021-03-06T22:48:31Z</time>
      </trkpt>
      <trkpt lat="47.10731" lon="6.06222">
        <ele>516</ele>
        <time>2021-03-06T22:48:34Z</time>
      </trkpt>
      <trkpt lat="47.10749" lon="6.06224">
        <ele>520</ele>
        <time>2021-03-06T22:48:38Z</time>
      </trkpt>
      <trkpt lat="47.10774" lon="6.06239">
        <ele>522</ele>
        <time>2021-03-06T22:48:44Z</time>
      </trkpt>
      <trkpt lat="47.10796" lon="6.06256">
        <ele>525</ele>
        <time>2021-03-06T22:48:50Z</time>
      </trkpt>
      <trkpt lat="47.108" lon="6.06256">
        <ele>525</ele>
        <time>2021-03-06T22:48:51Z</time>
      </trkpt>
      <trkpt lat="47.10854" lon="6.06285">
        <ele>530</ele>
        <time>2021-03-06T22:49:04Z</time>
      </trkpt>
      <trkpt lat="47.10866" lon="6.06289">
        <ele>530</ele>
        <time>2021-03-06T22:49:07Z</time>
      </trkpt>
      <trkpt lat="47.10896" lon="6.06313">
        <ele>533</ele>
        <time>2021-03-06T22:49:15Z</time>
      </trkpt>
      <trkpt lat="47.10912" lon="6.06337">
        <ele>536</ele>
        <time>2021-03-06T22:49:20Z</time>
      </trkpt>
      <trkpt lat="47.10924" lon="6.06348">
        <ele>536</ele>
        <time>2021-03-06T22:49:24Z</time>
      </trkpt>
      <trkpt lat="47.10928" lon="6.06359">
        <ele>538</ele>
        <time>2021-03-06T22:49:26Z</time>
      </trkpt>
      <trkpt lat="47.10932" lon="6.06363">
        <ele>538</ele>
        <time>2021-03-06T22:49:27Z</time>
      </trkpt>
      <trkpt lat="47.10933" lon="6.0637">
        <ele>539</ele>
        <time>2021-03-06T22:49:28Z</time>
      </trkpt>
      <trkpt lat="47.10943" lon="6.06387">
        <ele>541</ele>
        <time>2021-03-06T22:49:32Z</time>
      </trkpt>
      <trkpt lat="47.10944" lon="6.06394">
        <ele>542</ele>
        <time>2021-03-06T22:49:33Z</time>
      </trkpt>
      <trkpt lat="47.10931" lon="6.06403">
        <ele>543</ele>
        <time>2021-03-06T22:49:36Z</time>
      </trkpt>
      <trkpt lat="47.10912" lon="6.06422">
        <ele>545</ele>
        <time>2021-03-06T22:49:41Z</time>
      </trkpt>
      <trkpt lat="47.10904" lon="6.06427">
        <ele>546</ele>
        <time>2021-03-06T22:49:43Z</time>
      </trkpt>
      <trkpt lat="47.10883" lon="6.06429">
        <ele>548</ele>
        <time>2021-03-06T22:49:48Z</time>
      </trkpt>
      <trkpt lat="47.10876" lon="6.06432">
        <ele>548</ele>
        <time>2021-03-06T22:49:50Z</time>
      </trkpt>
      <trkpt lat="47.10869" lon="6.0644">
        <ele>549</ele>
        <time>2021-03-06T22:49:52Z</time>
      </trkpt>
      <trkpt lat="47.10853" lon="6.06471">
        <ele>550</ele>
        <time>2021-03-06T22:49:58Z</time>
      </trkpt>
      <trkpt lat="47.1084" lon="6.06483">
        <ele>551</ele>
        <time>2021-03-06T22:50:02Z</time>
      </trkpt>
      <trkpt lat="47.10822" lon="6.06507">
        <ele>550</ele>
        <time>2021-03-06T22:50:08Z</time>
      </trkpt>
      <trkpt lat="47.10808" lon="6.06534">
        <ele>547</ele>
        <time>2021-03-06T22:50:13Z</time>
      </trkpt>
      <trkpt lat="47.10802" lon="6.06558">
        <ele>544</ele>
        <time>2021-03-06T22:50:17Z</time>
      </trkpt>
      <trkpt lat="47.10809" lon="6.06583">
        <ele>543</ele>
        <time>2021-03-06T22:50:21Z</time>
      </trkpt>
      <trkpt lat="47.10823" lon="6.06605">
        <ele>542</ele>
        <time>2021-03-06T22:50:26Z</time>
      </trkpt>
      <trkpt lat="47.10835" lon="6.06633">
        <ele>541</ele>
        <time>2021-03-06T22:50:31Z</time>
      </trkpt>
      <trkpt lat="47.10848" lon="6.06674">
        <ele>537</ele>
        <time>2021-03-06T22:50:39Z</time>
      </trkpt>
      <trkpt lat="47.10838" lon="6.06707">
        <ele>534</ele>
        <time>2021-03-06T22:50:44Z</time>
      </trkpt>
      <trkpt lat="47.10843" lon="6.06732">
        <ele>533</ele>
        <time>2021-03-06T22:50:48Z</time>
      </trkpt>
      <trkpt lat="47.1087" lon="6.0679">
        <ele>532</ele>
        <time>2021-03-06T22:51:00Z</time>
      </trkpt>
      <trkpt lat="47.10892" lon="6.06823">
        <ele>533</ele>
        <time>2021-03-06T22:51:07Z</time>
      </trkpt>
      <trkpt lat="47.10916" lon="6.06876">
        <ele>531</ele>
        <time>2021-03-06T22:51:17Z</time>
      </trkpt>
      <trkpt lat="47.10948" lon="6.0692">
        <ele>526</ele>
        <time>2021-03-06T22:51:27Z</time>
      </trkpt>
      <trkpt lat="47.10965" lon="6.06971">
        <ele>524</ele>
        <time>2021-03-06T22:51:36Z</time>
      </trkpt>
      <trkpt lat="47.11029" lon="6.07053">
        <ele>523</ele>
        <time>2021-03-06T22:51:56Z</time>
      </trkpt>
      <trkpt lat="47.11045" lon="6.07066">
        <ele>523</ele>
        <time>2021-03-06T22:52:00Z</time>
      </trkpt>
      <trkpt lat="47.11062" lon="6.07088">
        <ele>523</ele>
        <time>2021-03-06T22:52:06Z</time>
      </trkpt>
      <trkpt lat="47.11088" lon="6.07114">
        <ele>524</ele>
        <time>2021-03-06T22:52:13Z</time>
      </trkpt>
      <trkpt lat="47.11096" lon="6.07118">
        <ele>524</ele>
        <time>2021-03-06T22:52:15Z</time>
      </trkpt>
      <trkpt lat="47.11109" lon="6.07112">
        <ele>524</ele>
        <time>2021-03-06T22:52:18Z</time>
      </trkpt>
      <trkpt lat="47.1113" lon="6.07113">
        <ele>524</ele>
        <time>2021-03-06T22:52:23Z</time>
      </trkpt>
      <trkpt lat="47.11154" lon="6.0712">
        <ele>524</ele>
        <time>2021-03-06T22:52:29Z</time>
      </trkpt>
      <trkpt lat="47.11162" lon="6.07126">
        <ele>524</ele>
        <time>2021-03-06T22:52:31Z</time>
      </trkpt>
      <trkpt lat="47.11197" lon="6.07172">
        <ele>526</ele>
        <time>2021-03-06T22:52:42Z</time>
      </trkpt>
      <trkpt lat="47.11208" lon="6.07205">
        <ele>526</ele>
        <time>2021-03-06T22:52:48Z</time>
      </trkpt>
      <trkpt lat="47.11217" lon="6.07221">
        <ele>527</ele>
        <time>2021-03-06T22:52:51Z</time>
      </trkpt>
      <trkpt lat="47.11222" lon="6.07225">
        <ele>527</ele>
        <time>2021-03-06T22:52:52Z</time>
      </trkpt>
      <trkpt lat="47.11247" lon="6.07221">
        <ele>528</ele>
        <time>2021-03-06T22:52:58Z</time>
      </trkpt>
      <trkpt lat="47.11285" lon="6.07233">
        <ele>530</ele>
        <time>2021-03-06T22:53:07Z</time>
      </trkpt>
      <trkpt lat="47.11328" lon="6.07267">
        <ele>532</ele>
        <time>2021-03-06T22:53:19Z</time>
      </trkpt>
      <trkpt lat="47.11348" lon="6.07308">
        <ele>531</ele>
        <time>2021-03-06T22:53:27Z</time>
      </trkpt>
      <trkpt lat="47.11359" lon="6.07325">
        <ele>531</ele>
        <time>2021-03-06T22:53:31Z</time>
      </trkpt>
      <trkpt lat="47.11374" lon="6.0734">
        <ele>530</ele>
        <time>2021-03-06T22:53:35Z</time>
      </trkpt>
      <trkpt lat="47.11407" lon="6.07366">
        <ele>530</ele>
        <time>2021-03-06T22:53:44Z</time>
      </trkpt>
      <trkpt lat="47.11414" lon="6.07377">
        <ele>530</ele>
        <time>2021-03-06T22:53:46Z</time>
      </trkpt>
      <trkpt lat="47.11433" lon="6.07423">
        <ele>530</ele>
        <time>2021-03-06T22:53:54Z</time>
      </trkpt>
      <trkpt lat="47.1144" lon="6.07463">
        <ele>530</ele>
        <time>2021-03-06T22:54:01Z</time>
      </trkpt>
      <trkpt lat="47.11434" lon="6.07487">
        <ele>531</ele>
        <time>2021-03-06T22:54:05Z</time>
      </trkpt>
      <trkpt lat="47.11434" lon="6.07494">
        <ele>531</ele>
        <time>2021-03-06T22:54:06Z</time>
      </trkpt>
      <trkpt lat="47.11439" lon="6.07507">
        <ele>531</ele>
        <time>2021-03-06T22:54:09Z</time>
      </trkpt>
      <trkpt lat="47.11438" lon="6.07527">
        <ele>531</ele>
        <time>2021-03-06T22:54:12Z</time>
      </trkpt>
      <trkpt lat="47.11448" lon="6.0758">
        <ele>532</ele>
        <time>2021-03-06T22:54:20Z</time>
      </trkpt>
      <trkpt lat="47.1146" lon="6.07624">
        <ele>533</ele>
        <time>2021-03-06T22:54:28Z</time>
      </trkpt>
      <trkpt lat="47.11467" lon="6.07637">
        <ele>533</ele>
        <time>2021-03-06T22:54:31Z</time>
      </trkpt>
      <trkpt lat="47.11487" lon="6.07653">
        <ele>533</ele>
        <time>2021-03-06T22:54:36Z</time>
      </trkpt>
      <trkpt lat="47.11506" lon="6.07677">
        <ele>533</ele>
        <time>2021-03-06T22:54:42Z</time>
      </trkpt>
      <trkpt lat="47.11564" lon="6.07789">
        <ele>532</ele>
        <time>2021-03-06T22:55:04Z</time>
      </trkpt>
      <trkpt lat="47.11572" lon="6.07794">
        <ele>532</ele>
        <time>2021-03-06T22:55:06Z</time>
      </trkpt>
      <trkpt lat="47.1159" lon="6.0779">
        <ele>532</ele>
        <time>2021-03-06T22:55:10Z</time>
      </trkpt>
      <trkpt lat="47.11628" lon="6.07789">
        <ele>534</ele>
        <time>2021-03-06T22:55:19Z</time>
      </trkpt>
      <trkpt lat="47.11658" lon="6.07795">
        <ele>535</ele>
        <time>2021-03-06T22:55:26Z</time>
      </trkpt>
      <trkpt lat="47.11678" lon="6.07794">
        <ele>536</ele>
        <time>2021-03-06T22:55:31Z</time>
      </trkpt>
      <trkpt lat="47.11705" lon="6.07798">
        <ele>537</ele>
        <time>2021-03-06T22:55:37Z</time>
      </trkpt>
      <trkpt lat="47.11719" lon="6.07824">
        <ele>536</ele>
        <time>2021-03-06T22:55:43Z</time>
      </trkpt>
      <trkpt lat="47.11736" lon="6.07843">
        <ele>536</ele>
        <time>2021-03-06T22:55:48Z</time>
      </trkpt>
      <trkpt lat="47.11785" lon="6.07869">
        <ele>537</ele>
        <time>2021-03-06T22:56:00Z</time>
      </trkpt>
      <trkpt lat="47.1181" lon="6.07892">
        <ele>538</ele>
        <time>2021-03-06T22:56:07Z</time>
      </trkpt>
      <trkpt lat="47.1184" lon="6.0791">
        <ele>538</ele>
        <time>2021-03-06T22:56:14Z</time>
      </trkpt>
      <trkpt lat="47.11872" lon="6.07936">
        <ele>540</ele>
        <time>2021-03-06T22:56:23Z</time>
      </trkpt>
      <trkpt lat="47.11883" lon="6.07942">
        <ele>540</ele>
        <time>2021-03-06T22:56:26Z</time>
      </trkpt>
      <trkpt lat="47.11916" lon="6.07951">
        <ele>541</ele>
        <time>2021-03-06T22:56:33Z</time>
      </trkpt>
      <trkpt lat="47.11967" lon="6.07988">
        <ele>542</ele>
        <time>2021-03-06T22:56:47Z</time>
      </trkpt>
      <trkpt lat="47.11987" lon="6.08011">
        <ele>544</ele>
        <time>2021-03-06T22:56:53Z</time>
      </trkpt>
      <trkpt lat="47.12013" lon="6.08054">
        <ele>545</ele>
        <time>2021-03-06T22:57:02Z</time>
      </trkpt>
    </trkseg>
  </trk>
</gpx>